Provisional Data: Little Chiques Creek near Mount Joy, PA


Please select a monitoring station.
Please select start date.
Please select start date.

Toggle Unit: C/F Toggle Unit: C/F
Sample Time Temperature (C) Temperature (F) Specific Conductivity (mS/cm) pH   Turbidity (NTU+) DO (mg/L)
11/2/2022 12:00:00 AM 13.22 55.796 0.379 7.61 11.41 7.89
11/2/2022 12:15:00 AM 13.19 55.742 0.38 7.62 11.07 8.04
11/2/2022 12:30:00 AM 13.14 55.652 0.38 7.62 11.13 7.97
11/2/2022 12:45:00 AM 13.1 55.58 0.381 7.6 10.98 7.99
11/2/2022 1:00:00 AM 13.06 55.508 0.381 7.6 10.69 7.96
11/2/2022 1:15:00 AM 13.01 55.418 0.382 7.6 11.39 7.95
11/2/2022 1:30:00 AM 12.97 55.346 0.381 7.6 11.21 8.05
11/2/2022 1:45:00 AM 12.94 55.292 0.381 7.6 10.7 7.97
11/2/2022 2:00:00 AM 12.89 55.202 0.382 7.59 10.83 7.9
11/2/2022 2:15:00 AM 12.86 55.148 0.383 7.59 10.98 7.91
11/2/2022 2:30:00 AM 12.8 55.04 0.383 7.59 10.77 8.05
11/2/2022 2:45:00 AM 12.75 54.95 0.383 7.57 10.91 7.87
11/2/2022 3:00:00 AM 12.73 54.914 0.384 7.58 10.83 7.95
11/2/2022 3:15:00 AM 12.71 54.878 0.385 7.61 10.26 7.92
11/2/2022 3:30:00 AM 12.66 54.788 0.386 7.6 10.32 7.98
11/2/2022 3:45:00 AM 12.63 54.734 0.386 7.59 10.98 8.05
11/2/2022 4:00:00 AM 12.59 54.662 0.387 7.58 10.6 8.08
11/2/2022 4:15:00 AM 12.54 54.572 0.388 7.58 10.32 7.95
11/2/2022 4:30:00 AM 12.54 54.572 0.389 7.58 10.2 7.85
11/2/2022 4:45:00 AM 12.48 54.464 0.389 7.59 9.84 7.79
11/2/2022 5:00:00 AM 12.46 54.428 0.39 7.6 9.93 7.94
11/2/2022 5:15:00 AM 12.41 54.338 0.391 7.58 10.11 8.03
11/2/2022 5:30:00 AM 12.35 54.23 0.392 7.59 9.72 8.03
11/2/2022 5:45:00 AM 12.31 54.158 0.393 7.6 9.95 7.95
11/2/2022 6:00:00 AM 12.27 54.086 0.393 7.6 9.82 8.02
11/2/2022 6:15:00 AM 12.22 53.996 0.394 7.59 10.15 8.1
11/2/2022 6:30:00 AM 12.22 53.996 0.395 7.59 9.9 8.15
11/2/2022 6:45:00 AM 12.14 53.852 0.395 7.61 9.96 8.19
11/2/2022 7:00:00 AM 12.09 53.762 0.396 7.59 9.76 8.31
11/2/2022 7:15:00 AM 12.03 53.654 0.397 7.61 9.62 8.33
11/2/2022 7:30:00 AM 11.99 53.582 0.397 7.62 9.25 8.29
11/2/2022 7:45:00 AM 11.95 53.51 0.398 7.62 9.26 8.37
11/2/2022 8:00:00 AM 11.92 53.456 0.399 7.62 9.19 8.35
11/2/2022 8:15:00 AM 11.86 53.348 0.399 7.63 10 8.37
11/2/2022 8:30:00 AM 11.82 53.276 0.4 7.62 364.69 8.43
11/2/2022 8:45:00 AM 11.83 53.294 0.4 7.62 389.18 8.45
11/2/2022 9:00:00 AM 11.81 53.258 0.401 7.63 371.38 8.32
11/2/2022 9:15:00 AM 11.8 53.24 0.401 7.63 383.66 8.39
11/2/2022 9:30:00 AM 11.81 53.258 0.402 7.63 385.35 8.28
11/2/2022 9:45:00 AM 11.85 53.33 0.402 7.65 374.32 8.59
11/2/2022 10:00:00 AM 11.88 53.384 0.402 7.6 365.63 8.59
11/2/2022 10:15:00 AM 11.99 53.582 0.403 7.62 366.33 8.3
11/2/2022 10:30:00 AM 12.01 53.618 0.403 7.63 367.7 8.67
11/2/2022 10:45:00 AM 12.1 53.78 0.403 7.64 366.27 8.65
11/2/2022 11:00:00 AM 12.21 53.978 0.404 7.66 365.56 8.73
11/2/2022 11:15:00 AM 12.32 54.176 0.404 7.65 365.26 8.82
11/2/2022 11:30:00 AM 12.46 54.428 0.405 7.68 71.91 8.9
11/2/2022 11:45:00 AM 12.55 54.59 0.406 7.68 9.05 8.88
11/2/2022 12:00:00 PM 12.67 54.806 0.405 7.71 10.04 9.05
11/2/2022 12:15:00 PM 12.75 54.95 0.406 7.7 8.06 9.06
11/2/2022 12:30:00 PM 12.84 55.112 0.406 7.7 325.49 9.11
11/2/2022 12:45:00 PM 12.96 55.328 0.407 7.71 427.4 9.38
11/2/2022 1:00:00 PM 13.07 55.526 0.407 7.71 472.82 9.17
11/2/2022 1:15:00 PM 13.19 55.742 0.408 7.7 545.47 8.94
11/2/2022 1:30:00 PM 13.28 55.904 0.408 7.71 289.22 8.21
11/2/2022 1:45:00 PM 13.39 56.102 0.409 7.71 422.05 8.85
11/2/2022 2:00:00 PM 13.51 56.318 0.409 7.72 533.21 8.94
11/2/2022 2:15:00 PM 13.57 56.426 0.41 7.73 678.33 9.12
11/2/2022 2:30:00 PM 13.62 56.516 0.41 7.74 580.24 9.02
11/2/2022 2:45:00 PM 13.65 56.57 0.411 7.75 589.82 9.26
11/2/2022 3:00:00 PM 13.69 56.642 0.411 7.73 587.64 9
11/2/2022 3:15:00 PM 13.66 56.588 0.412 7.74 600.06 9.02
11/2/2022 3:30:00 PM 13.64 56.552 0.412 7.74 604.98 8.91
11/2/2022 3:45:00 PM 13.62 56.516 0.413 7.74 605 8.97
11/2/2022 4:00:00 PM 13.59 56.462 0.413 7.73 614.16 8.9
11/2/2022 4:15:00 PM 13.6 56.48 0.413 7.74 627.53 9.36
11/2/2022 4:30:00 PM 13.58 56.444 0.413 7.76 631.09 9.36
11/2/2022 4:45:00 PM 13.57 56.426 0.414 7.73 646.87 9.13
11/2/2022 5:00:00 PM 13.54 56.372 0.414 7.74 658 9.1
11/2/2022 5:15:00 PM 13.48 56.264 0.414 7.75 664.66 9.17
11/2/2022 5:30:00 PM 13.49 56.282 0.415 7.75 663.64 9.14
11/2/2022 5:45:00 PM 13.44 56.192 0.415 7.75 678.4 9.18
11/2/2022 6:00:00 PM 13.42 56.156 0.416 7.73 397.32 8.97
11/2/2022 6:15:00 PM 13.37 56.066 0.416 7.71 401.62 8.77
11/2/2022 6:30:00 PM 13.33 55.994 0.417 7.72 422.52 8.77
11/2/2022 6:45:00 PM 13.25 55.85 0.417 7.72 401.57 8.73
11/2/2022 7:00:00 PM 13.24 55.832 0.418 7.7 581.35 8.66
11/2/2022 7:15:00 PM 13.16 55.688 0.418 7.71 391.94 8.54
11/2/2022 7:30:00 PM 13.15 55.67 0.419 7.71 369.41 8.55
11/2/2022 7:45:00 PM 13.12 55.616 0.419 7.7 357.95 8.49
11/2/2022 8:00:00 PM 13.07 55.526 0.42 7.68 481 8.45
11/2/2022 8:15:00 PM 13.05 55.49 0.42 7.69 398.9 8.44
11/2/2022 8:30:00 PM 13.01 55.418 0.421 7.69 590.06 8.48
11/2/2022 8:45:00 PM 13 55.4 0.421 7.69 648.88 8.36
11/2/2022 9:00:00 PM 12.96 55.328 0.421 7.68 600.66 8.47
11/2/2022 9:15:00 PM 12.93 55.274 0.423 7.66 693.78 8.19
11/2/2022 9:30:00 PM 12.88 55.184 0.423 7.68 348.4 8.28
11/2/2022 9:45:00 PM 12.85 55.13 0.423 7.68 361.62 8.17
11/2/2022 10:00:00 PM 12.81 55.058 0.425 7.68 391.98 8.41
11/2/2022 10:15:00 PM 12.74 54.932 0.424 7.68 384.34 8.4
11/2/2022 10:30:00 PM 12.7 54.86 0.424 7.67 376.81 8.47
11/2/2022 10:45:00 PM 12.65 54.77 0.425 7.68 366.95 8.38
11/2/2022 11:00:00 PM 12.63 54.734 0.425 7.68 370.51 8.24
11/2/2022 11:15:00 PM 12.54 54.572 0.426 7.68 376.33 8.43
11/2/2022 11:30:00 PM 12.48 54.464 0.426 7.67 371.22 8.38
11/2/2022 11:45:00 PM 12.4 54.32 0.426 7.67 467.94 7.97
11/3/2022 12:00:00 AM 12.37 54.266 0.427 7.66 394.05 8.41
11/3/2022 12:15:00 AM 12.32 54.176 0.427 7.66 413.27 8.29
11/3/2022 12:30:00 AM 12.23 54.014 0.427 7.66 165.18 8.44
11/3/2022 12:45:00 AM 12.21 53.978 0.427 7.61 636.42 8.33
11/3/2022 1:00:00 AM 12.16 53.888 0.428 7.66 708.76 8.34
11/3/2022 1:15:00 AM 12.06 53.708 0.429 7.65 715.8 8.46
11/3/2022 1:30:00 AM 12.03 53.654 0.429 7.66 709.39 8.3
11/3/2022 1:45:00 AM 11.97 53.546 0.429 7.65 713.06 8.55
11/3/2022 2:00:00 AM 11.95 53.51 0.429 7.66 749.99 8.56
11/3/2022 2:15:00 AM 11.9 53.42 0.43 7.66 755.2 8.44
11/3/2022 2:30:00 AM 11.84 53.312 0.43 7.66 739.93 8.48
11/3/2022 2:45:00 AM 11.85 53.33 0.43 7.65 747.63 8.52
11/3/2022 3:00:00 AM 11.74 53.132 0.431 7.66 741.42 8.64
11/3/2022 3:15:00 AM 11.7 53.06 0.431 7.67 727.3 8.5
11/3/2022 3:30:00 AM 11.66 52.988 0.432 7.66 736.69 8.51
11/3/2022 3:45:00 AM 11.6 52.88 0.432 7.67 828.25 8.63
11/3/2022 4:00:00 AM 11.53 52.754 0.432 7.65 823.36 8.32
11/3/2022 4:15:00 AM 11.51 52.718 0.433 7.65 813.89 8.55
11/3/2022 4:30:00 AM 11.45 52.61 0.433 7.65 813.31 8.44
11/3/2022 4:45:00 AM 11.4 52.52 0.433 7.67 817.96 8.54
11/3/2022 5:00:00 AM 11.31 52.358 0.434 7.65 813.71 8.51
11/3/2022 5:15:00 AM 11.28 52.304 0.434 7.66 815.36 8.44
11/3/2022 5:30:00 AM 11.22 52.196 0.434 7.65 817.37 8.51
11/3/2022 5:45:00 AM 11.17 52.106 0.434 7.67 817.38 8.57
11/3/2022 6:00:00 AM 11.12 52.016 0.435 7.64 814.64 8.59
11/3/2022 6:15:00 AM 11.11 51.998 0.435 7.67 817.52 8.63
11/3/2022 6:30:00 AM 11.05 51.89 0.436 7.66 870.28 8.6
11/3/2022 6:45:00 AM 11 51.8 0.435 7.66 891.25 8.66
11/3/2022 7:00:00 AM 10.91 51.638 0.435 7.66 870.97 8.71
11/3/2022 7:15:00 AM 10.83 51.494 0.436 7.66 868.95 8.72
11/3/2022 7:30:00 AM 10.83 51.494 0.436 7.65 865.06 8.71
11/3/2022 7:45:00 AM 10.78 51.404 0.436 7.65 866.05 8.68
11/3/2022 8:00:00 AM 10.72 51.296 0.437 7.64 865.57 8.7
11/3/2022 8:15:00 AM 10.68 51.224 0.436 7.67 864.69 8.71
11/3/2022 8:30:00 AM 10.65 51.17 0.437 7.67 864.35 8.86
11/3/2022 8:45:00 AM 10.64 51.152 0.437 7.66 864.09 8.82
11/3/2022 9:00:00 AM 10.6 51.08 0.437 7.67 861.38 8.91
11/3/2022 9:15:00 AM 10.61 51.098 0.439 7.63 859.13 8.97
11/3/2022 9:30:00 AM 10.64 51.152 0.438 7.66 859.88 8.96
11/3/2022 9:45:00 AM 10.75 51.35 0.438 7.65 859.45 9.06
11/3/2022 10:00:00 AM 10.72 51.296 0.438 7.67 861.21 8.99
11/3/2022 10:15:00 AM 10.81 51.458 0.438 7.68 859.28 9
11/3/2022 10:30:00 AM 10.83 51.494 0.438 7.66 853.51 9.1
11/3/2022 10:45:00 AM 10.93 51.674 0.438 7.7 854.2 9.34
11/3/2022 11:00:00 AM 11.03 51.854 0.437 7.71 851.41 9.34
11/3/2022 11:15:00 AM 11.21 52.178 0.437 7.72 849.4 9.43
11/3/2022 11:30:00 AM 11.35 52.43 0.437 7.73 846.69 9.52
11/3/2022 11:45:00 AM 11.52 52.736 0.437 7.75 841.47 9.75
11/3/2022 12:00:00 PM 11.65 52.97 0.437 7.76 838.84 9.7
11/3/2022 12:15:00 PM 11.76 53.168 0.438 7.76 835.62 9.65
11/3/2022 12:30:00 PM 11.92 53.456 0.438 7.77 833.23 9.85
11/3/2022 12:45:00 PM 12.03 53.654 0.438 7.8 829.6 10.11
11/3/2022 1:00:00 PM 12.19 53.942 0.439 7.8 832.33 10.27
11/3/2022 1:15:00 PM 12.33 54.194 0.439 7.81 831.19 10.36
11/3/2022 1:30:00 PM 12.44 54.392 0.439 7.82 830.45 10.35
11/3/2022 1:45:00 PM 12.58 54.644 0.439 7.82 828.22 10.31
11/3/2022 2:00:00 PM 12.69 54.842 0.439 7.84 827.31 10.45
11/3/2022 2:15:00 PM 12.75 54.95 0.44 7.84 825.05 10.34
11/3/2022 2:30:00 PM 12.82 55.076 0.44 7.83 822.5 10.42
11/3/2022 2:45:00 PM 12.86 55.148 0.44 7.84 823.15 10.45
11/3/2022 3:00:00 PM 12.91 55.238 0.441 7.85 822.41 10.36
11/3/2022 3:15:00 PM 12.89 55.202 0.441 7.83 818.72 10.27
11/3/2022 3:30:00 PM 12.87 55.166 0.441 7.84 809.29 10.32
11/3/2022 3:45:00 PM 12.89 55.202 0.441 7.85 811.41 10.45
11/3/2022 4:00:00 PM 12.87 55.166 0.442 7.83 814.53 10.34
11/3/2022 4:15:00 PM 12.85 55.13 0.442 7.84 809.72 10.25
11/3/2022 4:30:00 PM 12.81 55.058 0.442 7.84 809.97 9.99
11/3/2022 4:45:00 PM 12.76 54.968 0.442 7.84 807.99 10.09
11/3/2022 5:00:00 PM 12.72 54.896 0.442 7.83 649.9 10.05
11/3/2022 5:15:00 PM 12.71 54.878 0.442 7.82 659.02 9.89
11/3/2022 5:30:00 PM 12.65 54.77 0.442 7.83 712.36 9.81
11/3/2022 5:45:00 PM 12.58 54.644 0.442 7.82 705.65 9.84
11/3/2022 6:00:00 PM 12.5 54.5 0.442 7.81 706.11 9.73
11/3/2022 6:15:00 PM 12.47 54.446 0.443 7.8 707.68 9.68
11/3/2022 6:30:00 PM 12.42 54.356 0.442 7.8 707.12 9.71
11/3/2022 6:45:00 PM 12.37 54.266 0.443 7.8 709.95 9.57
11/3/2022 7:00:00 PM 12.32 54.176 0.443 7.79 710.75 9.44
11/3/2022 7:15:00 PM 12.24 54.032 0.443 7.78 716.77 9.33
11/3/2022 7:30:00 PM 12.18 53.924 0.443 7.78 709.93 9.33
11/3/2022 7:45:00 PM 12.16 53.888 0.443 7.77 704.4 9.2
11/3/2022 8:00:00 PM 12.14 53.852 0.443 7.77 711.06 9.25
11/3/2022 8:15:00 PM 12.07 53.726 0.443 7.77 715.85 9.21
11/3/2022 8:30:00 PM 12.04 53.672 0.443 7.76 712.39 9.18
11/3/2022 8:45:00 PM 12 53.6 0.444 7.76 711.69 9.13
11/3/2022 9:00:00 PM 11.98 53.564 0.444 7.75 711.41 8.96
11/3/2022 9:15:00 PM 11.92 53.456 0.444 7.75 708.9 9.15
11/3/2022 9:30:00 PM 11.94 53.492 0.444 7.76 706.15 8.98
11/3/2022 9:45:00 PM 0 32 0 0 0 0
11/3/2022 10:00:00 PM 11.87 53.366 0.444 7.75 712.61 8.98
11/3/2022 10:15:00 PM 11.84 53.312 0.445 7.75 710.61 9
11/3/2022 10:30:00 PM 11.8 53.24 0.445 7.75 711.42 8.97
11/3/2022 10:45:00 PM 11.72 53.096 0.445 7.75 718.15 8.98
11/3/2022 11:00:00 PM 11.71 53.078 0.445 7.74 721.07 8.81
11/3/2022 11:15:00 PM 11.64 52.952 0.445 7.73 724.65 8.88
11/3/2022 11:30:00 PM 11.59 52.862 0.445 7.74 722.03 8.99
11/3/2022 11:45:00 PM 11.57 52.826 0.446 7.74 726.61 8.91
11/4/2022 12:00:00 AM 11.51 52.718 0.446 7.73 722.29 8.95
11/4/2022 12:15:00 AM 11.44 52.592 0.446 7.73 726.6 8.86
11/4/2022 12:30:00 AM 11.38 52.484 0.446 7.73 728.46 8.91
11/4/2022 12:45:00 AM 11.36 52.448 0.446 7.73 730.98 8.97
11/4/2022 1:00:00 AM 11.31 52.358 0.447 7.73 733.71 9.01
11/4/2022 1:15:00 AM 11.26 52.268 0.447 7.72 731.14 8.94
11/4/2022 1:30:00 AM 11.17 52.106 0.447 7.72 735.2 8.79
11/4/2022 1:45:00 AM 11.12 52.016 0.447 7.71 719.51 8.83
11/4/2022 2:00:00 AM 11.09 51.962 0.447 7.72 720.3 8.89
11/4/2022 2:15:00 AM 11.03 51.854 0.448 7.72 724.02 8.93
11/4/2022 2:30:00 AM 11.01 51.818 0.448 7.71 722.39 8.91
11/4/2022 2:45:00 AM 10.93 51.674 0.448 7.71 728.4 8.93
11/4/2022 3:00:00 AM 10.95 51.71 0.448 7.71 725.09 8.99
11/4/2022 3:15:00 AM 10.8 51.44 0.448 7.71 721.85 8.98
11/4/2022 3:30:00 AM 10.84 51.512 0.449 7.71 724.29 8.98
11/4/2022 3:45:00 AM 10.72 51.296 0.449 7.72 731.71 8.97
11/4/2022 4:00:00 AM 10.7 51.26 0.449 7.71 732.81 8.99
11/4/2022 4:15:00 AM 10.62 51.116 0.449 7.71 730.41 8.97
11/4/2022 4:30:00 AM 10.59 51.062 0.449 7.71 729.67 8.99
11/4/2022 4:45:00 AM 10.59 51.062 0.449 7.72 731.69 8.95
11/4/2022 5:00:00 AM 10.56 51.008 0.45 7.71 728.87 8.99
11/4/2022 5:15:00 AM 10.53 50.954 0.45 7.71 733.46 9.04
11/4/2022 5:30:00 AM 10.51 50.918 0.452 7.72 732.28 8.95
11/4/2022 5:45:00 AM 10.43 50.774 0.45 7.71 733.24 9.02
11/4/2022 6:00:00 AM 10.42 50.756 0.45 7.71 731.03 8.98
11/4/2022 6:15:00 AM 10.37 50.666 0.45 7.71 735.04 8.99
11/4/2022 6:30:00 AM 10.31 50.558 0.45 7.71 736.64 8.91
11/4/2022 6:45:00 AM 10.3 50.54 0.451 7.71 737.53 9.07
11/4/2022 7:00:00 AM 10.23 50.414 0.45 7.71 737.88 9.12
11/4/2022 7:15:00 AM 10.19 50.342 0.451 7.71 738.27 9.06
11/4/2022 7:30:00 AM 10.21 50.378 0.451 7.71 740.75 9.05
11/4/2022 7:45:00 AM 10.21 50.378 0.451 7.71 747.39 9.09
11/4/2022 8:00:00 AM 10.13 50.234 0.451 7.71 735.62 9.02
11/4/2022 8:15:00 AM 10.12 50.216 0.451 7.71 729.97 9.14
11/4/2022 8:30:00 AM 10.13 50.234 0.451 7.72 728.85 9.24
11/4/2022 8:45:00 AM 10.14 50.252 0.451 7.72 720.2 9.31
11/4/2022 9:00:00 AM 10.19 50.342 0.452 7.72 724.95 9.38
11/4/2022 9:15:00 AM 10.2 50.36 0.452 7.73 724.91 9.38
11/4/2022 9:30:00 AM 10.24 50.432 0.452 7.74 720.92 9.62
11/4/2022 9:45:00 AM 10.33 50.594 0.453 7.75 719.67 9.7
11/4/2022 10:00:00 AM 10.43 50.774 0.452 7.75 720.39 9.79
11/4/2022 10:15:00 AM 10.52 50.936 0.453 7.76 715.99 9.87
11/4/2022 10:30:00 AM 10.61 51.098 0.452 7.78 703.22 10.05
11/4/2022 10:45:00 AM 10.7 51.26 0.452 7.79 699.82 10.27
11/4/2022 11:00:00 AM 10.84 51.512 0.452 7.8 710.24 10.37
11/4/2022 11:15:00 AM 11.01 51.818 0.452 7.81 706.31 10.49
11/4/2022 11:30:00 AM 11.16 52.088 0.452 7.82 703.05 10.55
11/4/2022 11:45:00 AM 11.31 52.358 0.452 7.84 698.37 10.71
11/4/2022 12:00:00 PM 11.41 52.538 0.452 7.86 697.52 10.73
11/4/2022 12:15:00 PM 11.59 52.862 0.452 7.86 703.55 10.72
11/4/2022 12:30:00 PM 11.74 53.132 0.452 7.87 703.25 10.83
11/4/2022 12:45:00 PM 11.89 53.402 0.452 7.87 694.2 10.82
11/4/2022 1:00:00 PM 12.02 53.636 0.452 7.88 688.08 10.91
11/4/2022 1:15:00 PM 12.19 53.942 0.452 7.89 697.51 10.9
11/4/2022 1:30:00 PM 12.35 54.23 0.452 7.9 686.22 11.06
11/4/2022 1:45:00 PM 12.48 54.464 0.452 7.91 683.54 11.08
11/4/2022 2:00:00 PM 12.6 54.68 0.452 7.9 684.23 11.04
11/4/2022 2:15:00 PM 12.68 54.824 0.451 7.91 674.17 11.1
11/4/2022 2:30:00 PM 12.78 55.004 0.451 7.92 672.48 11.06
11/4/2022 2:45:00 PM 12.81 55.058 0.451 7.93 674.45 11.03
11/4/2022 3:00:00 PM 12.91 55.238 0.451 7.93 672.83 11.14
11/4/2022 3:15:00 PM 12.89 55.202 0.452 7.94 675.44 11.06
11/4/2022 3:30:00 PM 12.92 55.256 0.451 7.94 669.88 11.08
11/4/2022 3:45:00 PM 12.93 55.274 0.452 7.94 669.75 10.96
11/4/2022 4:00:00 PM 12.92 55.256 0.452 7.94 675.52 10.97
11/4/2022 4:15:00 PM 12.93 55.274 0.453 7.93 676.25 10.83
11/4/2022 4:30:00 PM 12.93 55.274 0.453 7.93 674.36 10.79
11/4/2022 4:45:00 PM 12.92 55.256 0.453 7.92 674.38 10.78
11/4/2022 5:00:00 PM 12.88 55.184 0.453 7.91 669.57 10.62
11/4/2022 5:15:00 PM 12.85 55.13 0.453 7.91 673.89 10.61
11/4/2022 5:30:00 PM 12.8 55.04 0.453 7.89 672.07 10.46
11/4/2022 5:45:00 PM 12.77 54.986 0.454 7.89 672.62 10.36
11/4/2022 6:00:00 PM 12.71 54.878 0.454 7.88 674.54 10.12
11/4/2022 6:15:00 PM 12.7 54.86 0.453 7.87 673.94 10.13
11/4/2022 6:30:00 PM 12.65 54.77 0.453 7.85 677.2 9.87
11/4/2022 6:45:00 PM 12.61 54.698 0.453 7.85 677.76 9.72
11/4/2022 7:00:00 PM 12.59 54.662 0.453 7.83 679.11 9.44
11/4/2022 7:15:00 PM 12.56 54.608 0.455 7.83 677.66 9.57
11/4/2022 7:30:00 PM 12.55 54.59 0.454 7.82 678.84 9.43
11/4/2022 7:45:00 PM 12.53 54.554 0.454 7.81 676.85 9.38
11/4/2022 8:00:00 PM 12.47 54.446 0.453 7.81 682.1 9.42
11/4/2022 8:15:00 PM 12.47 54.446 0.454 7.8 680.28 9.2
11/4/2022 8:30:00 PM 12.49 54.482 0.454 7.8 678.4 9.31
11/4/2022 8:45:00 PM 12.48 54.464 0.454 7.79 674.81 9.16
11/4/2022 9:00:00 PM 12.46 54.428 0.454 7.79 674.95 9.08
11/4/2022 9:15:00 PM 12.44 54.392 0.454 7.79 687.01 9.22
11/4/2022 9:30:00 PM 12.45 54.41 0.454 7.77 681.98 8.92
11/4/2022 9:45:00 PM 12.43 54.374 0.454 7.78 683.78 9.02
11/4/2022 10:00:00 PM 12.44 54.392 0.454 7.78 684.22 9.06
11/4/2022 10:15:00 PM 12.44 54.392 0.454 7.77 678.02 8.92
11/4/2022 10:30:00 PM 12.43 54.374 0.454 7.77 679.82 8.93
11/4/2022 10:45:00 PM 12.44 54.392 0.454 7.76 686.01 8.81
11/4/2022 11:00:00 PM 12.43 54.374 0.454 7.76 476.59 8.82
11/4/2022 11:15:00 PM 12.44 54.392 0.455 7.75 510.93 8.83
11/4/2022 11:30:00 PM 12.4 54.32 0.455 7.76 517.78 8.81
11/4/2022 11:45:00 PM 12.39 54.302 0.455 7.76 520.68 8.81
11/5/2022 12:00:00 AM 12.38 54.284 0.455 7.75 563.87 8.76
11/5/2022 12:15:00 AM 12.39 54.302 0.455 7.75 560.97 8.71
11/5/2022 12:30:00 AM 12.34 54.212 0.455 7.75 556.64 8.7
11/5/2022 12:45:00 AM 12.34 54.212 0.455 7.75 563.56 8.65
11/5/2022 1:00:00 AM 12.31 54.158 0.456 7.74 563.13 8.51
11/5/2022 1:15:00 AM 12.23 54.014 0.455 7.74 568.06 8.66
11/5/2022 1:30:00 AM 12.23 54.014 0.455 7.74 544.81 8.62
11/5/2022 1:45:00 AM 12.21 53.978 0.456 7.73 573.78 8.72
11/5/2022 2:00:00 AM 12.18 53.924 0.456 7.74 578.2 8.65
11/5/2022 2:15:00 AM 12.15 53.87 0.455 7.74 574.81 8.61
11/5/2022 2:30:00 AM 12.12 53.816 0.456 7.73 572.8 8.66
11/5/2022 2:45:00 AM 12.09 53.762 0.456 7.73 572.42 8.64
11/5/2022 3:00:00 AM 12.09 53.762 0.456 7.72 574.23 8.61
11/5/2022 3:15:00 AM 12.09 53.762 0.456 7.72 565.98 8.41
11/5/2022 3:30:00 AM 12.04 53.672 0.456 7.72 572.07 8.5
11/5/2022 3:45:00 AM 12.05 53.69 0.456 7.72 572.73 8.51
11/5/2022 4:00:00 AM 12.06 53.708 0.459 7.72 577.4 8.61
11/5/2022 4:15:00 AM 12.01 53.618 0.456 7.72 577.09 8.61
11/5/2022 4:30:00 AM 12.03 53.654 0.457 7.71 578.52 8.55
11/5/2022 4:45:00 AM 12.05 53.69 0.457 7.71 578.25 8.56
11/5/2022 5:00:00 AM 12.06 53.708 0.457 7.72 578.67 8.58
11/5/2022 5:15:00 AM 12.06 53.708 0.457 7.72 575.15 8.56
11/5/2022 5:30:00 AM 12.06 53.708 0.456 7.71 583.9 8.48
11/5/2022 5:45:00 AM 12.09 53.762 0.457 7.7 591.28 8.51
11/5/2022 6:00:00 AM 12.1 53.78 0.457 7.71 580.43 8.52
11/5/2022 6:15:00 AM 12.12 53.816 0.457 7.7 588.74 8.5
11/5/2022 6:30:00 AM 12.14 53.852 0.457 7.71 585.99 8.44
11/5/2022 6:45:00 AM 12.11 53.798 0.457 7.7 573.41 8.58
11/5/2022 7:00:00 AM 12.15 53.87 0.457 7.71 575.04 8.44
11/5/2022 7:15:00 AM 12.15 53.87 0.457 7.71 582.62 8.54
11/5/2022 7:30:00 AM 12.16 53.888 0.457 7.71 581.64 8.49
11/5/2022 7:45:00 AM 12.17 53.906 0.457 7.71 580.6 8.58
11/5/2022 8:00:00 AM 12.21 53.978 0.457 7.71 504.65 8.56
11/5/2022 8:15:00 AM 12.23 54.014 0.457 7.71 503.75 8.55
11/5/2022 8:30:00 AM 12.28 54.104 0.457 7.71 503.09 8.6
11/5/2022 8:45:00 AM 12.29 54.122 0.457 7.72 502.78 8.61
11/5/2022 9:00:00 AM 12.34 54.212 0.457 7.72 501.59 8.61
11/5/2022 9:15:00 AM 12.39 54.302 0.457 7.72 499.57 8.69
11/5/2022 9:30:00 AM 12.45 54.41 0.457 7.73 498.48 8.81
11/5/2022 9:45:00 AM 12.55 54.59 0.457 7.74 498.14 9.04
11/5/2022 10:00:00 AM 12.67 54.806 0.457 7.76 497.19 9.26
11/5/2022 10:15:00 AM 12.75 54.95 0.457 7.76 495.42 9.13
11/5/2022 10:30:00 AM 12.84 55.112 0.457 7.78 542.22 9.48
11/5/2022 10:45:00 AM 12.96 55.328 0.456 7.8 539.27 9.69
11/5/2022 11:00:00 AM 13.12 55.616 0.456 7.81 537.54 9.89
11/5/2022 11:15:00 AM 13.29 55.922 0.456 7.83 535.78 10
11/5/2022 11:30:00 AM 13.51 56.318 0.456 7.84 534.52 10.22
11/5/2022 11:45:00 AM 13.71 56.678 0.456 7.86 532.38 10.33
11/5/2022 12:00:00 PM 13.9 57.02 0.456 7.87 553.98 10.46
11/5/2022 12:15:00 PM 14.1 57.38 0.456 7.88 551.11 10.52
11/5/2022 12:30:00 PM 14.26 57.668 0.456 7.9 549.96 10.62
11/5/2022 12:45:00 PM 14.42 57.956 0.456 7.91 522.58 10.52
11/5/2022 1:00:00 PM 14.63 58.334 0.456 7.92 521.44 10.75
11/5/2022 1:15:00 PM 14.77 58.586 0.456 7.93 519.1 10.66
11/5/2022 1:30:00 PM 14.9 58.82 0.456 7.94 518.55 10.9
11/5/2022 1:45:00 PM 15.04 59.072 0.456 7.95 508.97 10.77
11/5/2022 2:00:00 PM 15.17 59.306 0.456 7.96 506.07 10.99
11/5/2022 2:15:00 PM 15.26 59.468 0.456 7.97 522.93 10.98
11/5/2022 2:30:00 PM 15.32 59.576 0.456 7.96 520.3 10.9
11/5/2022 2:45:00 PM 15.39 59.702 0.456 7.97 520 11
11/5/2022 3:00:00 PM 15.45 59.81 0.456 7.98 519.07 10.95
11/5/2022 3:15:00 PM 15.47 59.846 0.456 7.98 517.73 10.88
11/5/2022 3:30:00 PM 15.47 59.846 0.455 7.98 515.99 10.86
11/5/2022 3:45:00 PM 15.54 59.972 0.456 7.98 519.28 10.85
11/5/2022 4:00:00 PM 15.54 59.972 0.456 7.98 509.59 10.85
11/5/2022 4:15:00 PM 15.54 59.972 0.456 7.98 512.56 10.78
11/5/2022 4:30:00 PM 15.55 59.99 0.456 7.97 507.73 10.6
11/5/2022 4:45:00 PM 15.54 59.972 0.456 7.98 509.38 10.62
11/5/2022 5:00:00 PM 15.52 59.936 0.456 7.96 508.96 10.3
11/5/2022 5:15:00 PM 15.47 59.846 0.456 7.95 507.64 10.21
11/5/2022 5:30:00 PM 15.45 59.81 0.456 7.94 507.29 10.2
11/5/2022 5:45:00 PM 15.42 59.756 0.456 7.92 504.54 10.1
11/5/2022 6:00:00 PM 15.38 59.684 0.456 7.91 509.22 9.74
11/5/2022 6:15:00 PM 15.35 59.63 0.457 7.9 511.16 9.75
11/5/2022 6:30:00 PM 15.32 59.576 0.457 7.88 513.86 9.5
11/5/2022 6:45:00 PM 15.29 59.522 0.457 7.87 513.28 9.25
11/5/2022 7:00:00 PM 15.27 59.486 0.458 7.85 511.61 9.01
11/5/2022 7:15:00 PM 15.22 59.396 0.458 7.84 517.59 8.83
11/5/2022 7:30:00 PM 15.24 59.432 0.458 7.83 517.5 8.68
11/5/2022 7:45:00 PM 15.22 59.396 0.458 7.81 513.69 8.45
11/5/2022 8:00:00 PM 15.2 59.36 0.458 7.8 516 8.57
11/5/2022 8:15:00 PM 15.18 59.324 0.458 7.77 515.64 8.45
11/5/2022 8:30:00 PM 15.17 59.306 0.458 7.78 515.26 8.17
11/5/2022 8:45:00 PM 15.18 59.324 0.458 7.76 515.16 8.2
11/5/2022 9:00:00 PM 15.19 59.342 0.458 7.78 513.3 8.37
11/5/2022 9:15:00 PM 15.19 59.342 0.458 7.78 514.17 8.29
11/5/2022 9:30:00 PM 15.21 59.378 0.458 7.76 511.28 8.13
11/5/2022 9:45:00 PM 15.22 59.396 0.458 7.77 569.27 8.16
11/5/2022 10:00:00 PM 15.21 59.378 0.459 7.75 509.4 8.18
11/5/2022 10:15:00 PM 15.18 59.324 0.458 7.74 509.21 8.01
11/5/2022 10:30:00 PM 15.19 59.342 0.459 7.75 508.6 8.01
11/5/2022 10:45:00 PM 15.17 59.306 0.459 7.74 503.36 7.89
11/5/2022 11:00:00 PM 15.18 59.324 0.459 7.74 504.25 7.97
11/5/2022 11:15:00 PM 15.17 59.306 0.459 7.73 504.21 7.79
11/5/2022 11:30:00 PM 15.17 59.306 0.459 7.73 503.46 7.63
11/5/2022 11:45:00 PM 15.15 59.27 0.459 7.73 501.69 7.57
11/6/2022 12:00:00 AM 15.14 59.252 0.459 7.73 500.98 7.74
11/6/2022 12:15:00 AM 15.09 59.162 0.459 7.72 499.91 7.5
11/6/2022 12:30:00 AM 15.07 59.126 0.46 7.72 500.24 7.64
11/6/2022 12:45:00 AM 15.05 59.09 0.46 7.72 500.35 7.6
11/6/2022 1:00:00 AM 15.06 59.108 0.459 7.72 501.05 7.57
11/6/2022 1:15:00 AM 15.03 59.054 0.459 7.72 500.07 7.6
11/6/2022 1:30:00 AM 15.02 59.036 0.46 7.73 500.81 7.58
11/6/2022 1:45:00 AM 15.01 59.018 0.46 7.7 500.54 7.53
11/6/2022 2:00:00 AM 15.04 59.072 0.46 7.71 500.69 7.36
11/6/2022 2:15:00 AM 15.01 59.018 0.46 7.71 500.02 7.48
11/6/2022 2:30:00 AM 14.97 58.946 0.46 7.71 497.57 7.47
11/6/2022 2:45:00 AM 14.95 58.91 0.46 7.69 498.56 7.55
11/6/2022 3:00:00 AM 14.96 58.928 0.46 7.7 500.83 7.49
11/6/2022 3:15:00 AM 14.94 58.892 0.46 7.69 564.59 7.25
11/6/2022 3:30:00 AM 14.91 58.838 0.46 7.69 564.1 7.3
11/6/2022 3:45:00 AM 14.89 58.802 0.46 7.68 567.13 7.27
11/6/2022 4:00:00 AM 14.85 58.73 0.46 7.7 569.02 7.39
11/6/2022 4:15:00 AM 14.83 58.694 0.46 7.68 575.84 7.04
11/6/2022 4:30:00 AM 14.83 58.694 0.46 7.69 574.33 7.33
11/6/2022 4:45:00 AM 14.8 58.64 0.46 7.68 567.65 7.18
11/6/2022 5:00:00 AM 14.81 58.658 0.46 7.69 568.33 7.23
11/6/2022 5:15:00 AM 14.78 58.604 0.46 7.69 571.05 7.37
11/6/2022 5:30:00 AM 14.78 58.604 0.46 7.69 574.58 7.31
11/6/2022 5:45:00 AM 14.82 58.676 0.46 7.68 575.99 6.92
11/6/2022 6:00:00 AM 14.8 58.64 0.46 7.69 575.44 7.39
11/6/2022 6:15:00 AM 14.81 58.658 0.46 7.68 571.61 6.99
11/6/2022 6:30:00 AM 14.79 58.622 0.46 7.69 575.07 7.36
11/6/2022 6:45:00 AM 14.83 58.694 0.459 7.68 577.63 7.36
11/6/2022 7:00:00 AM 14.84 58.712 0.46 7.69 569.51 7.43
11/6/2022 7:15:00 AM 14.85 58.73 0.459 7.68 567.92 7.3
11/6/2022 7:30:00 AM 14.84 58.712 0.459 7.69 566.94 7.26
11/6/2022 7:45:00 AM 14.84 58.712 0.459 7.68 567.33 7.33
11/6/2022 8:00:00 AM 14.85 58.73 0.459 7.69 566.92 7.28
11/6/2022 8:15:00 AM 14.89 58.802 0.459 7.67 568.65 7.37
11/6/2022 8:30:00 AM 14.89 58.802 0.458 7.68 571.23 7.31
11/6/2022 8:45:00 AM 14.87 58.766 0.457 7.68 570.77 7.39
11/6/2022 9:00:00 AM 14.88 58.784 0.457 7.68 558.89 7.26
11/6/2022 9:15:00 AM 14.91 58.838 0.457 7.68 563.72 7.32
11/6/2022 9:30:00 AM 14.9 58.82 0.457 7.69 566.03 7.31
11/6/2022 9:45:00 AM 14.93 58.874 0.457 7.69 561.64 7.52
11/6/2022 10:00:00 AM 14.97 58.946 0.457 7.7 561 7.55
11/6/2022 10:15:00 AM 15.01 59.018 0.457 7.7 559.81 7.89
11/6/2022 10:30:00 AM 15.07 59.126 0.458 7.71 558.61 7.87
11/6/2022 10:45:00 AM 15.13 59.234 0.457 7.72 559.04 8.15
11/6/2022 11:00:00 AM 15.16 59.288 0.458 7.73 369.52 8.31
11/6/2022 11:15:00 AM 15.23 59.414 0.457 7.75 347.33 8.47
11/6/2022 11:30:00 AM 15.28 59.504 0.457 7.76 346.63 8.65
11/6/2022 11:45:00 AM 15.32 59.576 0.457 7.77 345.84 8.64
11/6/2022 12:00:00 PM 15.35 59.63 0.457 7.78 345.8 8.79
11/6/2022 12:15:00 PM 15.39 59.702 0.457 7.77 338.08 8.73
11/6/2022 12:30:00 PM 15.42 59.756 0.456 7.79 335.97 8.99
11/6/2022 12:45:00 PM 15.52 59.936 0.456 7.8 330.28 9.04
11/6/2022 1:00:00 PM 15.56 60.008 0.456 7.79 329.12 9.03
11/6/2022 1:15:00 PM 15.59 60.062 0.456 7.82 329 9.11
11/6/2022 1:30:00 PM 15.65 60.17 0.455 7.81 322.92 8.94
11/6/2022 1:45:00 PM 15.66 60.188 0.455 7.82 318.4 9.11
11/6/2022 2:00:00 PM 15.66 60.188 0.455 7.81 294.48 9.07
11/6/2022 2:15:00 PM 15.71 60.278 0.455 7.82 308.48 8.98
11/6/2022 2:30:00 PM 15.72 60.296 0.454 7.82 298.32 9.19
11/6/2022 2:45:00 PM 15.72 60.296 0.454 7.84 297.09 9.09
11/6/2022 3:00:00 PM 15.75 60.35 0.454 7.82 3945.38 8.99
11/6/2022 3:15:00 PM 15.74 60.332 0.454 7.83 200.57 9.01
11/6/2022 3:30:00 PM 15.77 60.386 0.454 7.83 199.78 9.03
11/6/2022 3:45:00 PM 15.78 60.404 0.453 7.84 199.77 8.84
11/6/2022 4:00:00 PM 15.77 60.386 0.453 7.84 199.64 9.08
11/6/2022 4:15:00 PM 15.79 60.422 0.452 7.84 199.28 8.88
11/6/2022 4:30:00 PM 15.76 60.368 0.452 7.84 199.2 8.9
11/6/2022 4:45:00 PM 15.79 60.422 0.452 7.81 199.33 8.74
11/6/2022 5:00:00 PM 15.85 60.53 0.452 7.82 198.73 8.93
11/6/2022 5:15:00 PM 15.84 60.512 0.452 7.81 204.66 8.89
11/6/2022 5:30:00 PM 15.83 60.494 0.454 7.82 202.9 8.79
11/6/2022 5:45:00 PM 15.84 60.512 0.452 7.82 202.24 8.68
11/6/2022 6:00:00 PM 15.8 60.44 0.452 7.81 201.38 8.69
11/6/2022 6:15:00 PM 15.79 60.422 0.452 7.81 201.34 8.5
11/6/2022 6:30:00 PM 15.79 60.422 0.452 7.79 202.08 8.39
11/6/2022 6:45:00 PM 15.78 60.404 0.452 7.78 201.41 8.02
11/6/2022 7:00:00 PM 15.77 60.386 0.452 7.77 201.49 7.86
11/6/2022 7:15:00 PM 15.76 60.368 0.452 7.75 201.53 7.82
11/6/2022 7:30:00 PM 15.74 60.332 0.453 7.75 207.45 7.59
11/6/2022 7:45:00 PM 15.75 60.35 0.452 7.75 207.74 7.54
11/6/2022 8:00:00 PM 15.71 60.278 0.452 7.74 207.04 7.76
11/6/2022 8:15:00 PM 15.74 60.332 0.452 7.75 206.79 7.6
11/6/2022 8:30:00 PM 15.72 60.296 0.452 7.73 206.83 7.6
11/6/2022 8:45:00 PM 15.72 60.296 0.452 7.73 206.36 7.64
11/6/2022 9:00:00 PM 15.71 60.278 0.452 7.73 205.34 7.66
11/6/2022 9:15:00 PM 15.71 60.278 0.452 7.73 205.57 7.67
11/6/2022 9:30:00 PM 15.71 60.278 0.452 7.72 205.37 7.37
11/6/2022 9:45:00 PM 15.71 60.278 0.452 7.71 205.45 7.31
11/6/2022 10:00:00 PM 15.69 60.242 0.452 7.71 206.13 7.45
11/6/2022 10:15:00 PM 15.65 60.17 0.452 7.72 205.86 7.37
11/6/2022 10:30:00 PM 15.63 60.134 0.452 7.71 205.66 7.32
11/6/2022 10:45:00 PM 15.6 60.08 0.452 7.71 205.56 7.34
11/6/2022 11:00:00 PM 15.57 60.026 0.451 7.71 204.21 7.1
11/6/2022 11:15:00 PM 15.54 59.972 0.452 7.7 203.96 7.06
11/6/2022 11:30:00 PM 15.52 59.936 0.452 7.7 203.82 6.99
11/6/2022 11:45:00 PM 15.48 59.864 0.452 7.7 203.74 7.14
11/7/2022 12:00:00 AM 15.49 59.882 0.451 7.71 203.98 6.78
11/7/2022 12:15:00 AM 15.46 59.828 0.451 7.7 203.9 6.6
11/7/2022 12:30:00 AM 15.44 59.792 0.451 7.7 203.48 6.7
11/7/2022 12:45:00 AM 15.44 59.792 0.451 7.69 203.28 6.93
11/7/2022 1:00:00 AM 15.4 59.72 0.452 7.7 203.2 6.79
11/7/2022 1:15:00 AM 15.41 59.738 0.451 7.68 202.75 6.23
11/7/2022 1:30:00 AM 15.38 59.684 0.452 7.69 202.06 6.28
11/7/2022 1:45:00 AM 15.36 59.648 0.452 7.68 201.92 6.41
11/7/2022 2:00:00 AM 15.37 59.666 0.452 7.68 201.65 6.93
11/7/2022 2:15:00 AM 15.32 59.576 0.452 7.68 201.91 6.82
11/7/2022 2:30:00 AM 15.31 59.558 0.452 7.69 201.3 6.73
11/7/2022 2:45:00 AM 15.28 59.504 0.451 7.69 201.38 6.63
11/7/2022 3:00:00 AM 15.24 59.432 0.451 7.67 201.28 6.85
11/7/2022 3:15:00 AM 15.23 59.414 0.452 7.68 201.67 6.2
11/7/2022 3:30:00 AM 15.2 59.36 0.452 7.69 200.56 6.71
11/7/2022 3:45:00 AM 15.19 59.342 0.452 7.68 200.5 6.85
11/7/2022 4:00:00 AM 15.16 59.288 0.452 7.67 200.4 6.24
11/7/2022 4:15:00 AM 15.15 59.27 0.453 7.67 200.47 6.42
11/7/2022 4:30:00 AM 15.11 59.198 0.452 7.67 199.23 6.31
11/7/2022 4:45:00 AM 15.06 59.108 0.451 7.67 199.31 6.53
11/7/2022 5:00:00 AM 15.02 59.036 0.452 7.67 198.95 6.31
11/7/2022 5:15:00 AM 14.98 58.964 0.452 7.68 198.61 6.28
11/7/2022 5:30:00 AM 14.94 58.892 0.451 7.68 198.32 6.63
11/7/2022 5:45:00 AM 14.93 58.874 0.452 7.68 198.23 6.24
11/7/2022 6:00:00 AM 14.9 58.82 0.452 7.67 198.33 5.33
11/7/2022 6:15:00 AM 14.83 58.694 0.451 7.67 197.43 6.58
11/7/2022 6:30:00 AM 14.85 58.73 0.453 7.67 198.09 6.91
11/7/2022 6:45:00 AM 14.82 58.676 0.451 7.68 197.23 6.67
11/7/2022 7:00:00 AM 14.8 58.64 0.452 7.68 197.27 7.11
11/7/2022 7:15:00 AM 14.8 58.64 0.452 7.68 355.34 6.7
11/7/2022 7:30:00 AM 14.82 58.676 0.451 7.67 714.73 6.62
11/7/2022 7:45:00 AM 14.82 58.676 0.451 7.65 803.76 6.36
11/7/2022 8:00:00 AM 14.8 58.64 0.452 7.67 865.65 6.77
11/7/2022 8:15:00 AM 14.79 58.622 0.452 7.67 695.41 6.49
11/7/2022 8:30:00 AM 14.81 58.658 0.451 7.66 655.51 6.97
11/7/2022 8:45:00 AM 14.83 58.694 0.452 7.66 628.7 6.17
11/7/2022 9:00:00 AM 14.85 58.73 0.451 7.66 617.44 6.43
11/7/2022 9:15:00 AM 14.88 58.784 0.451 7.68 608.48 6.83
11/7/2022 9:30:00 AM 14.9 58.82 0.451 7.68 604.1 6.95
11/7/2022 9:45:00 AM 14.96 58.928 0.451 7.7 606.17 6.96
11/7/2022 10:00:00 AM 14.97 58.946 0.451 7.69 605.34 7.39
11/7/2022 10:15:00 AM 15.01 59.018 0.451 7.71 602.73 7.69
11/7/2022 10:30:00 AM 15.05 59.09 0.451 7.71 601.39 8.04
11/7/2022 10:45:00 AM 15.11 59.198 0.45 7.72 598.88 8.02
11/7/2022 11:00:00 AM 15.19 59.342 0.45 7.75 590.74 8.26
11/7/2022 11:15:00 AM 15.29 59.522 0.45 7.78 583.44 8.82
11/7/2022 11:30:00 AM 15.36 59.648 0.449 7.79 574.23 9.04
11/7/2022 11:45:00 AM 15.48 59.864 0.45 7.78 574.24 9.1
11/7/2022 12:00:00 PM 15.6 60.08 0.45 7.8 572.38 9.21
11/7/2022 12:15:00 PM 16.09 60.962 0.449 7.89 571.9 9.96
11/7/2022 12:30:00 PM 16.22 61.196 0.449 7.88 510.04 9.49
11/7/2022 12:45:00 PM 16.31 61.358 0.449 7.91 505.71 10.11
11/7/2022 1:00:00 PM 16.41 61.538 0.449 7.93 477.58 10.01
11/7/2022 1:15:00 PM 16.46 61.628 0.449 7.93 484.04 9.93
11/7/2022 1:30:00 PM 16.52 61.736 0.449 7.95 437.61 10.25
11/7/2022 1:45:00 PM 16.53 61.754 0.449 7.96 457.84 10.1
11/7/2022 2:00:00 PM 16.56 61.808 0.449 7.95 466.23 10.15
11/7/2022 2:15:00 PM 16.51 61.718 0.449 7.95 488.47 10.07
11/7/2022 2:30:00 PM 16.48 61.664 0.449 7.95 490.17 9.9
11/7/2022 2:45:00 PM 16.45 61.61 0.449 7.97 443.75 9.57
11/7/2022 3:00:00 PM 16.39 61.502 0.449 7.94 440.02 9.56
11/7/2022 3:15:00 PM 16.36 61.448 0.449 7.94 444.62 9.23
11/7/2022 3:30:00 PM 16.28 61.304 0.449 7.92 477.81 9.39
11/7/2022 3:45:00 PM 16.23 61.214 0.449 7.91 464.6 9.41
11/7/2022 4:00:00 PM 16.17 61.106 0.449 7.91 471.44 9.36
11/7/2022 4:15:00 PM 16.09 60.962 0.45 7.9 472.2 9.41
11/7/2022 4:30:00 PM 16.03 60.854 0.449 7.89 477.7 8.85
11/7/2022 4:45:00 PM 15.92 60.656 0.45 7.88 298.5 8.89
11/7/2022 5:00:00 PM 15.81 60.458 0.45 7.86 296.5 8.33
11/7/2022 5:15:00 PM 15.73 60.314 0.451 7.85 296.93 8.78
11/7/2022 5:30:00 PM 15.65 60.17 0.451 7.85 421.41 8.67
11/7/2022 5:45:00 PM 15.55 59.99 0.451 7.84 405.75 8.69
11/7/2022 6:00:00 PM 15.46 59.828 0.451 7.82 405.38 8.5
11/7/2022 6:15:00 PM 15.33 59.594 0.451 7.81 405.66 8.23
11/7/2022 6:30:00 PM 15.25 59.45 0.451 7.81 408.78 8.5
11/7/2022 6:45:00 PM 15.14 59.252 0.451 7.81 400.81 8.1
11/7/2022 7:00:00 PM 15.08 59.144 0.451 7.79 388.89 7.95
11/7/2022 7:15:00 PM 14.99 58.982 0.452 7.79 314.09 8.04
11/7/2022 7:30:00 PM 14.87 58.766 0.452 7.78 316.29 7.9
11/7/2022 7:45:00 PM 14.81 58.658 0.453 7.78 313.43 7.57
11/7/2022 8:00:00 PM 14.72 58.496 0.452 7.77 314.57 7.87
11/7/2022 8:15:00 PM 14.66 58.388 0.453 7.77 314.88 7.91
11/7/2022 8:30:00 PM 14.6 58.28 0.454 7.76 326.48 7.97
11/7/2022 8:45:00 PM 14.53 58.154 0.453 7.76 324.79 8.07
11/7/2022 9:00:00 PM 14.45 58.01 0.454 7.76 324.95 7.97
11/7/2022 9:15:00 PM 14.32 57.776 0.453 7.76 322.87 7.95
11/7/2022 9:30:00 PM 14.3 57.74 0.453 7.76 319.25 7.66
11/7/2022 9:45:00 PM 14.25 57.65 0.453 7.76 317.99 7.67
11/7/2022 10:00:00 PM 14.17 57.506 0.452 7.75 317.42 7.8
11/7/2022 10:15:00 PM 14.08 57.344 0.453 7.75 317.97 8.1
11/7/2022 10:30:00 PM 14.06 57.308 0.453 7.75 317.1 7.96
11/7/2022 10:45:00 PM 13.99 57.182 0.452 7.75 316.72 7.97
11/7/2022 11:00:00 PM 13.91 57.038 0.453 7.75 324.34 7.9
11/7/2022 11:15:00 PM 13.88 56.984 0.453 7.75 323.99 7.84
11/7/2022 11:30:00 PM 13.79 56.822 0.452 7.76 323.15 7.99
11/7/2022 11:45:00 PM 13.72 56.696 0.453 7.75 323.24 8
11/8/2022 12:00:00 AM 13.65 56.57 0.452 7.76 322.98 7.66
11/8/2022 12:15:00 AM 13.6 56.48 0.452 7.75 322.72 7.83
11/8/2022 12:30:00 AM 13.49 56.282 0.452 7.75 322.04 7.78
11/8/2022 12:45:00 AM 13.45 56.21 0.452 7.75 322.25 7.87
11/8/2022 1:00:00 AM 13.4 56.12 0.452 7.74 323.26 7.79
11/8/2022 1:15:00 AM 13.32 55.976 0.453 7.74 323.52 7.81
11/8/2022 1:30:00 AM 13.23 55.814 0.453 7.74 323.49 7.74
11/8/2022 1:45:00 AM 13.19 55.742 0.453 7.74 322.56 7.82
11/8/2022 2:00:00 AM 13.08 55.544 0.452 7.74 324.5 7.94
11/8/2022 2:15:00 AM 13.02 55.436 0.453 7.73 324.53 7.87
11/8/2022 2:30:00 AM 12.91 55.238 0.453 7.73 325.15 7.99
11/8/2022 2:45:00 AM 12.86 55.148 0.454 7.73 325.42 7.98
11/8/2022 3:00:00 AM 12.8 55.04 0.454 7.72 325.13 7.95
11/8/2022 3:15:00 AM 12.76 54.968 0.454 7.72 324.8 7.85
11/8/2022 3:30:00 AM 12.64 54.752 0.454 7.73 324.57 7.91
11/8/2022 3:45:00 AM 12.55 54.59 0.454 7.73 325.07 7.99
11/8/2022 4:00:00 AM 12.51 54.518 0.454 7.73 693.02 7.87
11/8/2022 4:15:00 AM 12.46 54.428 0.454 7.72 601.05 7.95
11/8/2022 4:30:00 AM 12.35 54.23 0.454 7.72 583.85 7.97
11/8/2022 4:45:00 AM 12.27 54.086 0.454 7.72 320.31 7.94
11/8/2022 5:00:00 AM 12.18 53.924 0.454 7.73 316.27 8.02
11/8/2022 5:15:00 AM 12.16 53.888 0.455 7.72 558.81 8.09
11/8/2022 5:30:00 AM 12.09 53.762 0.455 7.72 473.56 7.99
11/8/2022 5:45:00 AM 11.99 53.582 0.455 7.72 5374.72 7.63
11/8/2022 6:00:00 AM 11.92 53.456 0.455 7.73 441.68 7.62
11/8/2022 6:15:00 AM 11.87 53.366 0.455 7.72 440.58 8.1
11/8/2022 6:30:00 AM 11.78 53.204 0.455 7.72 439.65 7.52
11/8/2022 6:45:00 AM 11.73 53.114 0.455 7.72 438.88 7.49
11/8/2022 7:00:00 AM 11.66 52.988 0.455 7.73 432.71 8.12
11/8/2022 7:15:00 AM 11.6 52.88 0.455 7.73 416.79 8.15
11/8/2022 7:30:00 AM 11.55 52.79 0.456 7.74 415.63 8.27
11/8/2022 7:45:00 AM 11.51 52.718 0.455 7.74 419.72 8.4
11/8/2022 8:00:00 AM 11.51 52.718 0.455 7.73 418.21 7.89
11/8/2022 8:15:00 AM 11.53 52.754 0.455 7.74 414.87 8.22
11/8/2022 8:30:00 AM 11.52 52.736 0.455 7.75 415.04 8.71
11/8/2022 8:45:00 AM 11.56 52.808 0.455 7.77 415.78 8.94
11/8/2022 9:00:00 AM 11.56 52.808 0.455 7.79 412.41 9.26
11/8/2022 9:15:00 AM 11.59 52.862 0.455 7.8 412.32 8.89
11/8/2022 9:30:00 AM 11.63 52.934 0.455 7.81 410.75 9.67
11/8/2022 9:45:00 AM 11.7 53.06 0.455 7.81 410.21 9.36
11/8/2022 10:00:00 AM 11.77 53.186 0.455 7.84 408.37 10
11/8/2022 10:15:00 AM 11.87 53.366 0.455 7.85 405.93 10.09
11/8/2022 10:30:00 AM 11.98 53.564 0.454 7.85 404.37 10.16
11/8/2022 10:45:00 AM 12.09 53.762 0.455 7.88 403.75 10.31
11/8/2022 11:00:00 AM 12.19 53.942 0.454 7.9 401.61 10.64
11/8/2022 11:15:00 AM 12.31 54.158 0.454 7.9 400.6 10.18
11/8/2022 11:30:00 AM 12.41 54.338 0.454 7.92 398.64 10.71
11/8/2022 11:45:00 AM 12.49 54.482 0.454 7.95 397.13 10.98
11/8/2022 12:00:00 PM 12.62 54.716 0.454 7.96 399.39 11.19
11/8/2022 12:15:00 PM 12.75 54.95 0.454 7.96 396.54 11.28
11/8/2022 12:30:00 PM 12.84 55.112 0.454 7.97 395.46 11.26
11/8/2022 12:45:00 PM 12.93 55.274 0.454 7.97 393.42 11.56
11/8/2022 1:00:00 PM 13 55.4 0.454 7.97 391.71 11.42
11/8/2022 1:15:00 PM 13.03 55.454 0.453 8.01 389.92 11.63
11/8/2022 1:30:00 PM 13.07 55.526 0.453 8 388.32 11.68
11/8/2022 1:45:00 PM 13.09 55.562 0.453 8.01 387.87 11.5
11/8/2022 2:00:00 PM 13.1 55.58 0.453 8.02 387.48 11.66
11/8/2022 2:15:00 PM 13.06 55.508 0.453 8.01 385.94 11.57
11/8/2022 2:30:00 PM 13.04 55.472 0.453 7.99 383.39 10.01
11/8/2022 2:45:00 PM 13.01 55.418 0.454 8 381.84 10.98
11/8/2022 3:00:00 PM 12.96 55.328 0.454 7.93 379.57 10.69
11/8/2022 3:15:00 PM 12.85 55.13 0.454 8 378.39 11.29
11/8/2022 3:30:00 PM 12.82 55.076 0.454 7.99 377.99 10.71
11/8/2022 3:45:00 PM 12.76 54.968 0.455 7.98 378.22 10.89
11/8/2022 4:00:00 PM 12.64 54.752 0.454 7.98 378.16 10.93
11/8/2022 4:15:00 PM 12.58 54.644 0.454 7.97 378.39 10.71
11/8/2022 4:30:00 PM 12.54 54.572 0.455 7.95 378.48 10.38
11/8/2022 4:45:00 PM 12.42 54.356 0.455 7.93 378.07 10.47
11/8/2022 5:00:00 PM 12.37 54.266 0.455 7.93 377.36 10.16
11/8/2022 5:15:00 PM 12.27 54.086 0.455 7.9 378.47 10.22
11/8/2022 5:30:00 PM 12.22 53.996 0.457 7.9 379.47 10.16
11/8/2022 5:45:00 PM 12.1 53.78 0.455 7.88 378.94 9.95
11/8/2022 6:00:00 PM 12.07 53.726 0.456 7.87 379.35 9.78
11/8/2022 6:15:00 PM 11.92 53.456 0.455 7.86 378.82 9.53
11/8/2022 6:30:00 PM 11.82 53.276 0.456 7.86 397.01 9.65
11/8/2022 6:45:00 PM 11.78 53.204 0.456 7.83 378.43 9.04
11/8/2022 7:00:00 PM 11.72 53.096 0.456 7.83 411.11 9.02
11/8/2022 7:15:00 PM 11.64 52.952 0.456 7.83 383.24 8.98
11/8/2022 7:30:00 PM 11.59 52.862 0.456 7.82 373.07 9.43
11/8/2022 7:45:00 PM 11.5 52.7 0.456 7.82 390.87 9.22
11/8/2022 8:00:00 PM 11.45 52.61 0.456 7.82 379.86 9.28
11/8/2022 8:15:00 PM 11.4 52.52 0.456 7.82 369.88 9.2
11/8/2022 8:30:00 PM 11.31 52.358 0.456 7.81 366.95 9.41
11/8/2022 8:45:00 PM 11.3 52.34 0.456 7.8 365.21 9.21
11/8/2022 9:00:00 PM 11.21 52.178 0.456 7.8 363.2 9.25
11/8/2022 9:15:00 PM 11.17 52.106 0.456 7.8 332.11 9.34
11/8/2022 9:30:00 PM 11.1 51.98 0.456 7.8 334.82 9.27
11/8/2022 9:45:00 PM 11.02 51.836 0.456 7.8 331.66 9.19
11/8/2022 10:00:00 PM 11 51.8 0.457 7.8 338.68 8.89
11/8/2022 10:15:00 PM 11.03 51.854 0.456 7.8 341.55 9.09
11/8/2022 10:30:00 PM 10.89 51.602 0.455 7.8 339.8 8.87
11/8/2022 10:45:00 PM 10.84 51.512 0.456 7.8 338.25 9.03
11/8/2022 11:00:00 PM 10.77 51.386 0.457 7.8 333.33 9.07
11/8/2022 11:15:00 PM 10.69 51.242 0.457 7.79 594.76 8.97
11/8/2022 11:30:00 PM 10.59 51.062 0.457 7.79 584.49 9.22
11/8/2022 11:45:00 PM 10.52 50.936 0.458 7.8 556.67 9.13
11/9/2022 12:00:00 AM 10.47 50.846 0.458 7.78 520.85 9.07
11/9/2022 12:15:00 AM 10.45 50.81 0.458 7.78 499.02 9.03
11/9/2022 12:30:00 AM 10.35 50.63 0.458 7.78 526.6 9.08
11/9/2022 12:45:00 AM 10.29 50.522 0.458 7.78 490.41 9.22
11/9/2022 1:00:00 AM 10.2 50.36 0.458 7.77 515.69 8.85
11/9/2022 1:15:00 AM 10.19 50.342 0.459 7.77 515.05 9.07
11/9/2022 1:30:00 AM 10.07 50.126 0.459 7.76 515.35 9.12
11/9/2022 1:45:00 AM 10.05 50.09 0.458 7.78 469.06 9.08
11/9/2022 2:00:00 AM 9.94 49.892 0.459 7.77 453.74 9.13
11/9/2022 2:15:00 AM 9.91 49.838 0.458 7.77 480.83 9.06
11/9/2022 2:30:00 AM 9.8 49.64 0.459 7.77 462.73 9.08
11/9/2022 2:45:00 AM 9.76 49.568 0.459 7.76 483.38 9.09
11/9/2022 3:00:00 AM 9.67 49.406 0.458 7.76 494.27 9.19
11/9/2022 3:15:00 AM 9.57 49.226 0.458 7.77 469.34 9.1
11/9/2022 3:30:00 AM 9.54 49.172 0.458 7.77 498.51 9.17
11/9/2022 3:45:00 AM 9.44 48.992 0.458 7.78 503.74 9.22
11/9/2022 4:00:00 AM 9.38 48.884 0.459 7.77 489.31 9.24
11/9/2022 4:15:00 AM 9.32 48.776 0.46 7.77 525.52 9.27
11/9/2022 4:30:00 AM 9.22 48.596 0.459 7.77 500.16 9.24
11/9/2022 4:45:00 AM 9.17 48.506 0.46 7.77 509.48 9.28
11/9/2022 5:00:00 AM 9.1 48.38 0.46 7.76 507.59 9.32
11/9/2022 5:15:00 AM 9.05 48.29 0.46 7.75 408.03 9.33
11/9/2022 5:30:00 AM 9.01 48.218 0.46 7.76 398.1 9.3
11/9/2022 5:45:00 AM 8.92 48.056 0.461 7.76 390.04 9.25
11/9/2022 6:00:00 AM 8.85 47.93 0.461 7.76 381.6 9.31
11/9/2022 6:15:00 AM 8.79 47.822 0.461 7.76 328.67 9.22
11/9/2022 6:30:00 AM 8.72 47.696 0.461 7.76 327.55 9.34
11/9/2022 6:45:00 AM 8.71 47.678 0.462 7.77 344.45 9.4
11/9/2022 7:00:00 AM 8.62 47.516 0.462 7.76 345.97 9.46
11/9/2022 7:15:00 AM 8.57 47.426 0.461 7.76 447.19 9.43
11/9/2022 7:30:00 AM 8.51 47.318 0.462 7.76 407.36 9.5
11/9/2022 7:45:00 AM 8.49 47.282 0.462 7.77 382.16 9.66
11/9/2022 8:00:00 AM 8.49 47.282 0.462 7.77 381.33 9.62
11/9/2022 8:15:00 AM 8.46 47.228 0.462 7.78 369.21 9.82
11/9/2022 8:30:00 AM 8.52 47.336 0.462 7.78 364.28 9.94
11/9/2022 8:45:00 AM 8.55 47.39 0.462 7.8 355.57 9.91
11/9/2022 9:00:00 AM 8.6 47.48 0.461 7.81 375.79 10.04
11/9/2022 9:15:00 AM 8.71 47.678 0.461 7.81 356.53 10.43
11/9/2022 9:30:00 AM 8.73 47.714 0.461 7.83 373.57 10.59
11/9/2022 9:45:00 AM 8.79 47.822 0.461 7.85 428.74 10.74
11/9/2022 10:00:00 AM 8.9 48.02 0.46 7.84 436.3 10.93
11/9/2022 10:15:00 AM 9.01 48.218 0.46 7.86 336.24 11.1
11/9/2022 10:30:00 AM 9.14 48.452 0.46 7.89 323.73 11.32
11/9/2022 10:45:00 AM 9.28 48.704 0.459 7.9 312.68 11.43
11/9/2022 11:00:00 AM 9.42 48.956 0.459 7.91 303.94 11.64
11/9/2022 11:15:00 AM 9.57 49.226 0.459 7.94 224.22 11.8
11/9/2022 11:30:00 AM 9.76 49.568 0.459 7.95 251.57 11.8
11/9/2022 11:45:00 AM 9.88 49.784 0.459 7.97 241.04 11.96
11/9/2022 12:00:00 PM 10.04 50.072 0.458 0 254.85 0
11/9/2022 12:15:00 PM 10.19 50.342 0.458 7.95 279.48 12.25
11/9/2022 12:30:00 PM 10.33 50.594 0.458 8.02 254 12.26
11/9/2022 12:45:00 PM 10.42 50.756 0.458 8.03 252.71 12.39
11/9/2022 1:00:00 PM 10.55 50.99 0.458 8.04 252.21 12.44
11/9/2022 1:15:00 PM 10.61 51.098 0.457 8.05 251.55 12.39
11/9/2022 1:30:00 PM 10.67 51.206 0.457 8.06 251.31 12.44
11/9/2022 1:45:00 PM 10.72 51.296 0.457 8.05 251.4 12.49
11/9/2022 2:00:00 PM 10.75 51.35 0.457 8.06 250.91 12.49
11/9/2022 2:15:00 PM 10.75 51.35 0.457 8.07 249.31 12.42
11/9/2022 2:30:00 PM 10.74 51.332 0.457 8.06 251.61 12.47
11/9/2022 2:45:00 PM 10.72 51.296 0.457 8.06 251.84 12.3
11/9/2022 3:00:00 PM 10.67 51.206 0.457 8.05 266.39 12.25
11/9/2022 3:15:00 PM 10.63 51.134 0.457 8.06 293.05 12.05
11/9/2022 3:30:00 PM 10.56 51.008 0.457 8.05 292.3 12.05
11/9/2022 3:45:00 PM 10.53 50.954 0.457 8.03 285.3 12.05
11/9/2022 4:00:00 PM 10.48 50.864 0.457 8.03 285.32 11.95
11/9/2022 4:15:00 PM 10.43 50.774 0.457 8.04 324.33 11.93
11/9/2022 4:30:00 PM 10.33 50.594 0.457 8 305.16 11.87
11/9/2022 4:45:00 PM 10.26 50.468 0.457 7.99 269.47 11.64
11/9/2022 5:00:00 PM 10.22 50.396 0.458 7.99 262.65 11.58
11/9/2022 5:15:00 PM 10.14 50.252 0.456 7.98 258.95 11.2
11/9/2022 5:30:00 PM 10.04 50.072 0.458 7.96 172.34 11.23
11/9/2022 5:45:00 PM 9.98 49.964 0.458 7.93 257 11.03
11/9/2022 6:00:00 PM 9.92 49.856 0.459 7.93 288.64 10.75
11/9/2022 6:15:00 PM 9.89 49.802 0.459 7.91 249.74 10.78
11/9/2022 6:30:00 PM 9.83 49.694 0.459 7.89 221.57 10.69
11/9/2022 6:45:00 PM 9.77 49.586 0.459 7.89 222.23 10.44
11/9/2022 7:00:00 PM 9.7 49.46 0.459 7.89 224.82 10.42
11/9/2022 7:15:00 PM 9.65 49.37 0.46 7.88 217.17 10.43
11/9/2022 7:30:00 PM 9.62 49.316 0.459 7.86 218.92 10.26
11/9/2022 7:45:00 PM 9.57 49.226 0.459 7.86 216.14 10.39
11/9/2022 8:00:00 PM 9.53 49.154 0.459 7.85 215.59 10.33
11/9/2022 8:15:00 PM 9.49 49.082 0.459 7.85 216.68 10.25
11/9/2022 8:30:00 PM 9.48 49.064 0.459 7.85 218.87 10.26
11/9/2022 8:45:00 PM 9.4 48.92 0.459 7.84 220.13 10.24
11/9/2022 9:00:00 PM 9.38 48.884 0.459 7.84 223.09 10.25
11/9/2022 9:15:00 PM 9.37 48.866 0.46 7.84 211.98 10.13
11/9/2022 9:30:00 PM 9.32 48.776 0.459 7.84 217.25 10.18
11/9/2022 9:45:00 PM 9.34 48.812 0.46 7.84 216.2 10.08
11/9/2022 10:00:00 PM 9.27 48.686 0.459 7.83 204.98 10.07
11/9/2022 10:15:00 PM 9.24 48.632 0.459 7.83 213.22 10.11
11/9/2022 10:30:00 PM 9.23 48.614 0.46 7.83 213.21 10.09
11/9/2022 10:45:00 PM 9.15 48.47 0.46 7.82 211.27 9.99
11/9/2022 11:00:00 PM 9.15 48.47 0.46 7.83 207.48 9.99
11/9/2022 11:15:00 PM 9.13 48.434 0.46 7.82 210.47 9.95
11/9/2022 11:30:00 PM 9.03 48.254 0.46 7.83 211.89 9.94
11/9/2022 11:45:00 PM 9.02 48.236 0.46 7.82 213.52 9.49
11/10/2022 12:00:00 AM 9 48.2 0.461 7.82 213.92 9.84
11/10/2022 12:15:00 AM 8.95 48.11 0.46 7.8 213.74 9.92
11/10/2022 12:30:00 AM 8.93 48.074 0.46 7.81 239.18 9.86
11/10/2022 12:45:00 AM 8.88 47.984 0.461 7.81 483.41 9.76
11/10/2022 1:00:00 AM 8.83 47.894 0.461 7.81 447.62 9.8
11/10/2022 1:15:00 AM 8.82 47.876 0.461 7.81 454.29 9.78
11/10/2022 1:30:00 AM 8.8 47.84 0.46 7.81 418.7 9.82
11/10/2022 1:45:00 AM 8.73 47.714 0.461 7.8 785.61 9.81
11/10/2022 2:00:00 AM 8.69 47.642 0.462 7.8 609.38 9.81
11/10/2022 2:15:00 AM 8.68 47.624 0.462 7.8 542.26 9.68
11/10/2022 2:30:00 AM 8.68 47.624 0.462 7.79 461.69 9.76
11/10/2022 2:45:00 AM 8.56 47.408 0.462 7.8 444.17 9.77
11/10/2022 3:00:00 AM 8.56 47.408 0.462 7.8 424.62 9.67
11/10/2022 3:15:00 AM 8.46 47.228 0.462 7.79 449.95 9.73
11/10/2022 3:30:00 AM 8.37 47.066 0.462 7.78 397.17 9.62
11/10/2022 3:45:00 AM 8.4 47.12 0.462 7.8 408.22 9.72
11/10/2022 4:00:00 AM 8.31 46.958 0.462 7.79 492.26 9.75
11/10/2022 4:15:00 AM 8.27 46.886 0.462 7.79 423.75 9.74
11/10/2022 4:30:00 AM 8.23 46.814 0.463 7.78 1201.11 9.74
11/10/2022 4:45:00 AM 8.17 46.706 0.462 7.79 1002.88 9.82
11/10/2022 5:00:00 AM 8.15 46.67 0.462 7.78 970.4 9.75
11/10/2022 5:15:00 AM 8.14 46.652 0.462 7.78 869.7 9.82
11/10/2022 5:30:00 AM 8.07 46.526 0.462 7.78 325.76 9.83
11/10/2022 5:45:00 AM 8.04 46.472 0.462 7.78 317.33 9.73
11/10/2022 6:00:00 AM 7.99 46.382 0.463 7.78 484.51 9.71
11/10/2022 6:15:00 AM 7.95 46.31 0.463 7.77 416.13 9.79
11/10/2022 6:30:00 AM 7.95 46.31 0.463 7.77 693.05 9.79
11/10/2022 6:45:00 AM 7.91 46.238 0.463 7.77 695.42 9.73
11/10/2022 7:00:00 AM 7.83 46.094 0.463 7.77 701.39 9.84
11/10/2022 7:15:00 AM 7.81 46.058 0.463 7.78 615.28 9.91
11/10/2022 7:30:00 AM 7.83 46.094 0.463 7.78 578.93 9.9
11/10/2022 7:45:00 AM 7.8 46.04 0.463 7.78 623.24 9.94
11/10/2022 8:00:00 AM 7.85 46.13 0.461 7.79 540.49 10.08
11/10/2022 8:15:00 AM 7.85 46.13 0.463 7.79 560.19 10.11
11/10/2022 8:30:00 AM 7.89 46.202 0.463 7.79 542.73 10.32
11/10/2022 8:45:00 AM 7.91 46.238 0.463 7.82 501.25 10.49
11/10/2022 9:00:00 AM 8.01 46.418 0.463 7.81 513.39 10.62
11/10/2022 9:15:00 AM 8.07 46.526 0.463 7.83 543.33 10.97
11/10/2022 9:30:00 AM 8.18 46.724 0.462 7.85 412.82 11.09
11/10/2022 9:45:00 AM 8.3 46.94 0.462 7.83 448.92 11.04
11/10/2022 10:00:00 AM 8.44 47.192 0.462 7.86 333.99 11.18
11/10/2022 10:15:00 AM 8.58 47.444 0.461 7.91 341.56 11.38
11/10/2022 10:30:00 AM 8.74 47.732 0.461 7.91 353.71 11.57
11/10/2022 10:45:00 AM 8.95 48.11 0.461 7.94 897.74 11.79
11/10/2022 11:00:00 AM 9.06 48.308 0.46 7.94 376.22 11.77
11/10/2022 11:15:00 AM 9.27 48.686 0.459 7.99 355.26 12.24
11/10/2022 11:30:00 AM 9.48 49.064 0.459 8 317.79 12.45
11/10/2022 11:45:00 AM 9.64 49.352 0.459 8.01 316.02 12.41
11/10/2022 12:00:00 PM 9.78 49.604 0.459 8.02 328.24 12.43
11/10/2022 12:15:00 PM 9.98 49.964 0.459 8.03 328.83 12.56
11/10/2022 12:30:00 PM 10.12 50.216 0.459 8.06 322.67 12.67
11/10/2022 12:45:00 PM 10.25 50.45 0.458 8.06 330.92 12.66
11/10/2022 1:00:00 PM 10.41 50.738 0.458 8.06 393.82 12.78
11/10/2022 1:15:00 PM 10.53 50.954 0.457 8.08 387.23 12.91
11/10/2022 1:30:00 PM 10.6 51.08 0.458 8.09 410.68 12.75
11/10/2022 1:45:00 PM 10.69 51.242 0.457 8.09 759.59 12.93
11/10/2022 2:00:00 PM 10.8 51.44 0.457 8.09 406.9 12.9
11/10/2022 2:15:00 PM 10.8 51.44 0.457 8.11 367.42 12.89
11/10/2022 2:30:00 PM 10.82 51.476 0.449 8.09 1564 12.78
11/10/2022 2:45:00 PM 10.85 51.53 0.456 8.1 186.56 12.7
11/10/2022 3:00:00 PM 10.84 51.512 0.456 8.09 226.1 12.49
11/10/2022 3:15:00 PM 10.84 51.512 0.456 8.1 316.69 12.48
11/10/2022 3:30:00 PM 10.79 51.422 0.422 8.08 662.39 12.57
11/10/2022 3:45:00 PM 10.78 51.404 0.387 8.07 453.27 12.57
11/10/2022 4:00:00 PM 10.73 51.314 0.457 8.07 336.9 12.43
11/10/2022 4:15:00 PM 10.67 51.206 0.457 8.06 332.76 12.26
11/10/2022 4:30:00 PM 10.63 51.134 0.458 8.04 1157.39 12.12
11/10/2022 4:45:00 PM 10.6 51.08 0.454 8.04 524 11.93
11/10/2022 5:00:00 PM 10.58 51.044 0.458 8.01 398.29 11.78
11/10/2022 5:15:00 PM 10.52 50.936 0.458 8 356.44 11.57
11/10/2022 5:30:00 PM 10.53 50.954 0.458 7.98 312.19 11.37
11/10/2022 5:45:00 PM 10.46 50.828 0.459 7.96 297.59 11.2
11/10/2022 6:00:00 PM 10.46 50.828 0.459 7.95 214.37 10.89
11/10/2022 6:15:00 PM 10.44 50.792 0.459 7.93 340.05 10.84
11/10/2022 6:30:00 PM 10.45 50.81 0.459 7.92 257.93 10.76
11/10/2022 6:45:00 PM 10.44 50.792 0.459 7.91 329.66 10.68
11/10/2022 7:00:00 PM 10.44 50.792 0.459 7.9 262.44 10.49
11/10/2022 7:15:00 PM 10.44 50.792 0.459 7.9 492.56 10.41
11/10/2022 7:30:00 PM 10.47 50.846 0.459 7.89 551.45 10.29
11/10/2022 7:45:00 PM 10.51 50.918 0.454 7.88 411.76 10.17
11/10/2022 8:00:00 PM 10.52 50.936 0.458 7.84 392.53 10.22
11/10/2022 8:15:00 PM 10.57 51.026 0.458 7.86 428.18 9.95
11/10/2022 8:30:00 PM 10.62 51.116 0.458 7.86 268.07 10.01
11/10/2022 8:45:00 PM 10.62 51.116 0.458 7.85 259.33 9.73
11/10/2022 9:00:00 PM 10.66 51.188 0.458 7.86 262.02 10
11/10/2022 9:15:00 PM 10.67 51.206 0.458 7.86 257.41 9.93
11/10/2022 9:30:00 PM 10.69 51.242 0.458 7.85 309.4 9.8
11/10/2022 9:45:00 PM 10.75 51.35 0.458 7.84 259.88 9.85
11/10/2022 10:00:00 PM 10.76 51.368 0.458 7.85 254.68 9.83
11/10/2022 10:15:00 PM 10.8 51.44 0.458 7.84 249.03 9.81
11/10/2022 10:30:00 PM 10.79 51.422 0.458 7.86 247.43 9.66
11/10/2022 10:45:00 PM 10.84 51.512 0.458 7.83 242.93 9.68
11/10/2022 11:00:00 PM 10.84 51.512 0.458 7.83 266.57 9.64
11/10/2022 11:15:00 PM 10.86 51.548 0.458 7.84 266.97 9.64
11/10/2022 11:30:00 PM 10.88 51.584 0.459 7.83 253.41 9.56
11/10/2022 11:45:00 PM 10.89 51.602 0.46 7.84 252.86 9.48
11/11/2022 12:00:00 AM 10.89 51.602 0.46 7.83 248.46 9.29
11/11/2022 12:15:00 AM 10.88 51.584 0.46 7.82 246.98 9.3
11/11/2022 12:30:00 AM 10.92 51.656 0.46 7.81 250.43 9.32
11/11/2022 12:45:00 AM 10.93 51.674 0.46 7.8 229.37 9.08
11/11/2022 1:00:00 AM 10.95 51.71 0.46 7.81 220.1 9.27
11/11/2022 1:15:00 AM 10.94 51.692 0.46 7.79 218.51 8.9
11/11/2022 1:30:00 AM 10.96 51.728 0.46 7.8 217.27 9.19
11/11/2022 1:45:00 AM 10.99 51.782 0.46 7.8 323.02 9.07
11/11/2022 2:00:00 AM 10.98 51.764 0.46 7.8 390.46 9.15
11/11/2022 2:15:00 AM 11 51.8 0.461 7.8 238.39 9.07
11/11/2022 2:30:00 AM 10.99 51.782 0.46 7.79 256.94 8.79
11/11/2022 2:45:00 AM 11 51.8 0.461 7.79 242.47 8.68
11/11/2022 3:00:00 AM 11.01 51.818 0.461 7.79 271.83 8.73
11/11/2022 3:15:00 AM 10.95 51.71 0.46 7.78 423.16 8.79
11/11/2022 3:30:00 AM 10.97 51.746 0.46 7.77 450.77 8.65
11/11/2022 3:45:00 AM 10.94 51.692 0.461 7.77 500.54 8.9
11/11/2022 4:00:00 AM 10.97 51.746 0.461 7.78 476.86 8.79
11/11/2022 4:15:00 AM 10.94 51.692 0.461 7.77 493.98 8.84
11/11/2022 4:30:00 AM 10.91 51.638 0.461 7.76 424.82 8.74
11/11/2022 4:45:00 AM 10.89 51.602 0.461 7.77 247.61 8.86
11/11/2022 5:00:00 AM 10.88 51.584 0.461 7.77 232.18 8.73
11/11/2022 5:15:00 AM 10.9 51.62 0.461 7.76 233.43 8.79
11/11/2022 5:30:00 AM 10.88 51.584 0.461 7.77 233.19 8.82
11/11/2022 5:45:00 AM 10.91 51.638 0.461 7.76 227.69 8.82
11/11/2022 6:00:00 AM 10.91 51.638 0.461 7.76 226.56 8.8
11/11/2022 6:15:00 AM 10.91 51.638 0.461 7.76 245.53 8.57
11/11/2022 6:30:00 AM 10.94 51.692 0.461 7.76 237.95 8.67
11/11/2022 6:45:00 AM 10.94 51.692 0.461 7.76 230.56 8.72
11/11/2022 7:00:00 AM 10.94 51.692 0.462 7.75 225.75 8.56
11/11/2022 7:15:00 AM 10.99 51.782 0.462 7.75 223.69 8.66
11/11/2022 7:30:00 AM 10.99 51.782 0.462 7.75 233.55 8.65
11/11/2022 7:45:00 AM 11 51.8 0.462 7.76 223.19 8.71
11/11/2022 8:00:00 AM 11.04 51.872 0.462 7.76 220.25 8.57
11/11/2022 8:15:00 AM 11.08 51.944 0.462 7.76 219.31 8.24
11/11/2022 8:30:00 AM 11.11 51.998 0.462 7.77 264.22 8.25
11/11/2022 8:45:00 AM 11.15 52.07 0.461 7.76 219.72 7.94
11/11/2022 9:00:00 AM 11.17 52.106 0.46 7.73 240.45 7.94
11/11/2022 9:15:00 AM 11.22 52.196 0.46 7.77 252.27 8.18
11/11/2022 9:30:00 AM 11.27 52.286 0.459 7.76 251.07 8.77
11/11/2022 9:45:00 AM 11.33 52.394 0.458 7.78 265.55 8.25
11/11/2022 10:00:00 AM 11.38 52.484 0.458 7.78 257.82 8.91
11/11/2022 10:15:00 AM 11.45 52.61 0.458 7.81 257.17 8.47
11/11/2022 10:30:00 AM 11.51 52.718 0.457 7.82 270.68 8.59
11/11/2022 10:45:00 AM 11.58 52.844 0.455 7.82 264.67 8.96
11/11/2022 11:00:00 AM 11.64 52.952 0.454 7.8 259.98 9.16
11/11/2022 11:15:00 AM 11.66 52.988 0.454 7.83 260.34 8.69
11/11/2022 11:30:00 AM 11.74 53.132 0.453 7.83 257.12 9.5
11/11/2022 11:45:00 AM 11.78 53.204 0.452 7.84 253.93 9.34
11/11/2022 12:00:00 PM 11.82 53.276 0.452 7.81 253.06 8.96
11/11/2022 12:15:00 PM 11.87 53.366 0.452 7.83 258.93 9.05
11/11/2022 12:30:00 PM 11.88 53.384 0.451 7.84 257.23 9.28
11/11/2022 12:45:00 PM 11.96 53.528 0.45 7.82 269.63 8.98
11/11/2022 1:00:00 PM 12.04 53.672 0.449 7.85 259.97 9.04
11/11/2022 1:15:00 PM 12.16 53.888 0.445 7.86 254.01 9.34
11/11/2022 1:30:00 PM 12.25 54.05 0.444 7.85 250.63 9.43
11/11/2022 1:45:00 PM 12.32 54.176 0.444 7.87 248.7 9.38
11/11/2022 2:00:00 PM 12.39 54.302 0.443 7.87 247.9 9.54
11/11/2022 2:15:00 PM 12.47 54.446 0.443 7.89 246.91 9.5
11/11/2022 2:30:00 PM 12.53 54.554 0.443 7.9 246.59 9.78
11/11/2022 2:45:00 PM 12.59 54.662 0.443 7.9 257.27 9.57
11/11/2022 3:00:00 PM 12.58 54.644 0.443 7.89 263.09 9.74
11/11/2022 3:15:00 PM 12.65 54.77 0.442 7.88 276.53 9.73
11/11/2022 3:30:00 PM 12.68 54.824 0.442 7.89 264.55 10.06
11/11/2022 3:45:00 PM 12.73 54.914 0.443 7.86 258.25 9.68
11/11/2022 4:00:00 PM 12.76 54.968 0.443 7.85 241.74 9.49
11/11/2022 4:15:00 PM 12.76 54.968 0.444 7.88 252.54 9.26
11/11/2022 4:30:00 PM 12.77 54.986 0.444 7.85 252.81 9.33
11/11/2022 4:45:00 PM 12.81 55.058 0.444 7.85 251.28 9.31
11/11/2022 5:00:00 PM 12.82 55.076 0.444 7.84 250.62 9.01
11/11/2022 5:15:00 PM 12.84 55.112 0.443 7.82 248.94 8.83
11/11/2022 5:30:00 PM 12.85 55.13 0.443 7.83 249.26 8.31
11/11/2022 5:45:00 PM 12.92 55.256 0.442 7.82 249.5 8.63
11/11/2022 6:00:00 PM 12.93 55.274 0.44 7.81 258.83 8.55
11/11/2022 6:15:00 PM 12.97 55.346 0.44 7.8 254.09 8.51
11/11/2022 6:30:00 PM 13.03 55.454 0.44 7.79 247.1 8.02
11/11/2022 6:45:00 PM 13.06 55.508 0.438 7.8 251.94 8.36
11/11/2022 7:00:00 PM 13.08 55.544 0.439 7.76 196.91 7.66
11/11/2022 7:15:00 PM 13.12 55.616 0.438 7.73 275.48 7.68
11/11/2022 7:30:00 PM 13.18 55.724 0.437 7.75 335.64 7.53
11/11/2022 7:45:00 PM 13.23 55.814 0.436 7.77 347.62 7.62
11/11/2022 8:00:00 PM 13.26 55.868 0.433 7.78 337.57 7.94
11/11/2022 8:15:00 PM 13.31 55.958 0.432 7.73 332.86 7.45
11/11/2022 8:30:00 PM 13.39 56.102 0.429 7.69 350.94 8.02
11/11/2022 8:45:00 PM 13.48 56.264 0.425 7.74 339.47 8.39
11/11/2022 9:00:00 PM 13.54 56.372 0.424 7.77 334.67 7.96
11/11/2022 9:15:00 PM 13.56 56.408 0.423 7.79 358.72 8.44
11/11/2022 9:30:00 PM 13.61 56.498 0.421 7.79 293.51 8.43
11/11/2022 9:45:00 PM 13.65 56.57 0.421 7.79 272.81 8.4
11/11/2022 10:00:00 PM 13.69 56.642 0.421 7.79 266.8 8.38
11/11/2022 10:15:00 PM 13.74 56.732 0.42 7.8 258.59 8.39
11/11/2022 10:30:00 PM 13.8 56.84 0.419 7.8 257.15 8.33
11/11/2022 10:45:00 PM 13.83 56.894 0.419 7.8 260.31 8.43
11/11/2022 11:00:00 PM 13.87 56.966 0.418 7.8 258.45 8.32
11/11/2022 11:15:00 PM 13.89 57.002 0.417 7.8 261.87 8.23
11/11/2022 11:30:00 PM 13.93 57.074 0.416 7.79 265.01 8.09
11/11/2022 11:45:00 PM 13.97 57.146 0.415 7.78 279.54 8.02
11/12/2022 12:00:00 AM 14 57.2 0.414 7.79 301.69 8.16
11/12/2022 12:15:00 AM 14.05 57.29 0.413 7.79 153.22 8.15
11/12/2022 12:30:00 AM 14.09 57.362 0.412 7.79 263.6 8.09
11/12/2022 12:45:00 AM 14.11 57.398 0.412 7.79 373.08 8.09
11/12/2022 1:00:00 AM 14.14 57.452 0.411 7.78 556.57 8.03
11/12/2022 1:15:00 AM 14.18 57.524 0.411 7.79 814.93 8.02
11/12/2022 1:30:00 AM 14.2 57.56 0.41 7.78 1241.31 8.11
11/12/2022 1:45:00 AM 14.23 57.614 0.409 7.79 684.39 8
11/12/2022 2:00:00 AM 14.26 57.668 0.353 7.79 629.7 7.99
11/12/2022 2:15:00 AM 14.26 57.668 0.408 7.79 589.78 8.03
11/12/2022 2:30:00 AM 14.29 57.722 0.408 7.78 566.7 7.95
11/12/2022 2:45:00 AM 14.34 57.812 0.405 7.78 543.84 7.96
11/12/2022 3:00:00 AM 14.38 57.884 0.404 7.78 524.04 7.99
11/12/2022 3:15:00 AM 14.4 57.92 0.404 7.77 520.56 7.87
11/12/2022 3:30:00 AM 14.39 57.902 0.404 7.77 513.47 7.95
11/12/2022 3:45:00 AM 14.39 57.902 0.403 7.77 511.75 7.92
11/12/2022 4:00:00 AM 14.39 57.902 0.403 7.77 502.5 7.84
11/12/2022 4:15:00 AM 14.4 57.92 0.403 7.77 499.33 7.94
11/12/2022 4:30:00 AM 14.39 57.902 0.403 7.77 494.75 7.92
11/12/2022 4:45:00 AM 14.39 57.902 0.403 7.77 493.35 7.96
11/12/2022 5:00:00 AM 14.38 57.884 0.403 7.77 488.63 7.88
11/12/2022 5:15:00 AM 14.37 57.866 0.402 7.76 490.56 7.91
11/12/2022 5:30:00 AM 14.37 57.866 0.402 7.77 486.83 7.9
11/12/2022 5:45:00 AM 14.37 57.866 0.401 7.77 329.62 7.97
11/12/2022 6:00:00 AM 14.4 57.92 0.4 7.76 325.69 7.9
11/12/2022 6:15:00 AM 14.44 57.992 0.399 7.76 322.48 7.9
11/12/2022 6:30:00 AM 14.44 57.992 0.398 7.76 321.32 7.92
11/12/2022 6:45:00 AM 14.45 58.01 0.397 7.76 316.89 7.9
11/12/2022 7:00:00 AM 14.44 57.992 0.396 7.76 341.72 7.95
11/12/2022 7:15:00 AM 14.45 58.01 0.395 7.75 337.38 7.88
11/12/2022 7:30:00 AM 14.44 57.992 0.394 7.75 328.97 7.93
11/12/2022 7:45:00 AM 14.43 57.974 0.394 7.75 324.77 7.97
11/12/2022 8:00:00 AM 14.43 57.974 0.393 7.74 320.65 7.77
11/12/2022 8:15:00 AM 14.41 57.938 0.393 7.75 325.96 7.96
11/12/2022 8:30:00 AM 14.38 57.884 0.392 7.75 425.81 7.94
11/12/2022 8:45:00 AM 14.38 57.884 0.392 7.73 410.34 8.08
11/12/2022 9:00:00 AM 14.39 57.902 0.392 7.75 405.7 8.37
11/12/2022 9:15:00 AM 14.41 57.938 0.392 7.75 446.55 8.38
11/12/2022 9:30:00 AM 14.43 57.974 0.392 7.76 465.92 8.47
11/12/2022 9:45:00 AM 14.46 58.028 0.392 7.79 482.41 8.52
11/12/2022 10:00:00 AM 14.51 58.118 0.391 7.77 494 8.59
11/12/2022 10:15:00 AM 14.58 58.244 0.392 7.79 503.16 8.62
11/12/2022 10:30:00 AM 14.67 58.406 0.391 7.82 484.66 8.53
11/12/2022 10:45:00 AM 14.8 58.64 0.391 7.8 481.9 8.91
11/12/2022 11:00:00 AM 14.83 58.694 0.391 7.82 479.11 9.12
11/12/2022 11:15:00 AM 14.94 58.892 0.391 7.84 476.52 9.21
11/12/2022 11:30:00 AM 15.06 59.108 0.391 7.82 605.62 9.12
11/12/2022 11:45:00 AM 15.11 59.198 0.391 7.87 577.91 9.4
11/12/2022 12:00:00 PM 15.15 59.27 0.391 7.87 564.28 9.36
11/12/2022 12:15:00 PM 15.19 59.342 0.391 7.88 717.69 9.33
11/12/2022 12:30:00 PM 15.17 59.306 0.391 7.88 520.37 9.22
11/12/2022 12:45:00 PM 15.16 59.288 0.391 7.86 467.86 8.9
11/12/2022 1:00:00 PM 15.18 59.324 0.391 7.86 356 9.27
11/12/2022 1:15:00 PM 15.19 59.342 0.391 7.87 353.92 9.19
11/12/2022 1:30:00 PM 15.22 59.396 0.391 7.87 352.71 9.19
11/12/2022 1:45:00 PM 15.23 59.414 0.391 7.89 353.08 9.28
11/12/2022 2:00:00 PM 15.26 59.468 0.391 7.9 352.45 9.31
11/12/2022 2:15:00 PM 15.28 59.504 0.391 7.91 352.39 9.37
11/12/2022 2:30:00 PM 15.31 59.558 0.39 7.9 352.92 9.28
11/12/2022 2:45:00 PM 15.35 59.63 0.39 7.92 352.33 9.36
11/12/2022 3:00:00 PM 15.35 59.63 0.39 7.92 350.06 9.31
11/12/2022 3:15:00 PM 15.36 59.648 0.39 7.91 350.25 9.36
11/12/2022 3:30:00 PM 15.37 59.666 0.39 7.91 348.06 9.25
11/12/2022 3:45:00 PM 15.34 59.612 0.391 7.87 252.83 8.52
11/12/2022 4:00:00 PM 15.34 59.612 0.39 7.88 239.94 8.66
11/12/2022 4:15:00 PM 15.35 59.63 0.39 7.86 243.43 8.92
11/12/2022 4:30:00 PM 15.31 59.558 0.39 7.85 245.67 8.34
11/12/2022 4:45:00 PM 15.31 59.558 0.39 7.84 244.8 8.7
11/12/2022 5:00:00 PM 15.28 59.504 0.39 7.84 4205.45 8.43
11/12/2022 5:15:00 PM 15.29 59.522 0.39 7.8 237.82 8.28
11/12/2022 5:30:00 PM 15.28 59.504 0.39 7.77 245 8.36
11/12/2022 5:45:00 PM 15.27 59.486 0.389 7.78 244.45 8.25
11/12/2022 6:00:00 PM 15.24 59.432 0.39 7.77 244.35 7.92
11/12/2022 6:15:00 PM 15.25 59.45 0.39 7.77 245.01 8.29
11/12/2022 6:30:00 PM 15.23 59.414 0.39 7.76 244.85 8.16
11/12/2022 6:45:00 PM 15.23 59.414 0.39 7.74 244.08 7.93
11/12/2022 7:00:00 PM 15.2 59.36 0.391 7.75 679.83 7.83
11/12/2022 7:15:00 PM 15.19 59.342 0.391 7.77 751.23 7.52
11/12/2022 7:30:00 PM 15.17 59.306 0.391 7.77 710.44 7.66
11/12/2022 7:45:00 PM 15.17 59.306 0.391 7.73 1278.56 7.83
11/12/2022 8:00:00 PM 15.12 59.216 0.392 7.73 1837.07 7.51
11/12/2022 8:15:00 PM 15.13 59.234 0.392 7.73 2039.48 7.89
11/12/2022 8:30:00 PM 15.09 59.162 0.392 7.71 2028.47 7.94
11/12/2022 8:45:00 PM 15.06 59.108 0.393 7.72 1855.01 7.65
11/12/2022 9:00:00 PM 15.03 59.054 0.393 7.71 2121.07 7.79
11/12/2022 9:15:00 PM 14.96 58.928 0.393 7.7 312.33 7.67
11/12/2022 9:30:00 PM 14.92 58.856 0.393 7.71 608.48 7.58
11/12/2022 9:45:00 PM 14.89 58.802 0.394 7.71 554.87 7.65
11/12/2022 10:00:00 PM 14.84 58.712 0.394 7.71 551.96 7.43
11/12/2022 10:15:00 PM 14.8 58.64 0.394 7.7 535.3 7.43
11/12/2022 10:30:00 PM 14.75 58.55 0.395 7.7 533.58 7.38
11/12/2022 10:45:00 PM 14.69 58.442 0.395 7.69 531.66 7.09
11/12/2022 11:00:00 PM 14.62 58.316 0.395 7.7 532.09 7.71
11/12/2022 11:15:00 PM 14.56 58.208 0.395 7.69 531.02 7.43
11/12/2022 11:30:00 PM 14.48 58.064 0.395 7.7 424.92 7.72
11/12/2022 11:45:00 PM 14.4 57.92 0.395 7.7 424.52 7.62
11/13/2022 12:00:00 AM 14.32 57.776 0.396 7.69 425.54 7.74
11/13/2022 12:15:00 AM 14.25 57.65 0.396 7.7 424.75 7.63
11/13/2022 12:30:00 AM 14.18 57.524 0.396 7.7 425.29 7.6
11/13/2022 12:45:00 AM 14.12 57.416 0.396 7.69 422.82 7.65
11/13/2022 1:00:00 AM 14.05 57.29 0.396 7.69 422.5 7.68
11/13/2022 1:15:00 AM 13.99 57.182 0.397 7.7 424.79 7.79
11/13/2022 1:30:00 AM 13.91 57.038 0.397 7.7 426.51 7.79
11/13/2022 1:45:00 AM 13.84 56.912 0.397 7.69 426.66 7.83
11/13/2022 2:00:00 AM 13.77 56.786 0.397 7.69 426.82 7.8
11/13/2022 2:15:00 AM 13.7 56.66 0.398 7.69 423.5 7.84
11/13/2022 2:30:00 AM 13.62 56.516 0.398 7.69 422.48 7.76
11/13/2022 2:45:00 AM 13.54 56.372 0.398 7.69 423.58 7.82
11/13/2022 3:00:00 AM 13.47 56.246 0.399 7.69 422.27 7.79
11/13/2022 3:15:00 AM 13.4 56.12 0.399 7.68 420.62 7.74
11/13/2022 3:30:00 AM 13.3 55.94 0.399 7.69 421.67 7.78
11/13/2022 3:45:00 AM 13.2 55.76 0.4 7.69 421.55 7.83
11/13/2022 4:00:00 AM 13.13 55.634 0.4 7.69 421.28 7.88
11/13/2022 4:15:00 AM 13.04 55.472 0.4 7.69 421.34 7.91
11/13/2022 4:30:00 AM 12.97 55.346 0.401 7.69 421.91 7.91
11/13/2022 4:45:00 AM 12.91 55.238 0.401 7.69 421.8 7.88
11/13/2022 5:00:00 AM 12.85 55.13 0.402 7.69 422.02 7.94
11/13/2022 5:15:00 AM 12.79 55.022 0.402 7.69 423.32 7.89
11/13/2022 5:30:00 AM 12.72 54.896 0.403 7.69 421.87 7.94
11/13/2022 5:45:00 AM 12.65 54.77 0.403 7.69 422.16 7.89
11/13/2022 6:00:00 AM 12.59 54.662 0.403 7.69 419.04 7.94
11/13/2022 6:15:00 AM 12.53 54.554 0.404 7.69 419.94 8
11/13/2022 6:30:00 AM 12.48 54.464 0.404 7.69 419.37 7.86
11/13/2022 6:45:00 AM 12.4 54.32 0.405 7.69 420.13 7.94
11/13/2022 7:00:00 AM 12.35 54.23 0.405 7.69 421.22 7.91
11/13/2022 7:15:00 AM 12.31 54.158 0.405 7.69 421.13 7.85
11/13/2022 7:30:00 AM 12.24 54.032 0.406 7.69 421.67 7.94
11/13/2022 7:45:00 AM 12.15 53.87 0.406 7.69 423.67 7.99
11/13/2022 8:00:00 AM 12.09 53.762 0.406 7.69 423.23 8.09
11/13/2022 8:15:00 AM 12.02 53.636 0.407 7.7 422.8 8.27
11/13/2022 8:30:00 AM 11.97 53.546 0.407 7.71 423.4 8.42
11/13/2022 8:45:00 AM 11.94 53.492 0.408 7.72 422.75 8.53
11/13/2022 9:00:00 AM 11.91 53.438 0.408 7.72 424.23 8.57
11/13/2022 9:15:00 AM 11.87 53.366 0.408 7.73 422.45 8.79
11/13/2022 9:30:00 AM 11.86 53.348 0.408 7.74 422.14 8.9
11/13/2022 9:45:00 AM 11.86 53.348 0.409 7.75 422.16 9.07
11/13/2022 10:00:00 AM 11.87 53.366 0.409 7.77 422.58 9.22
11/13/2022 10:15:00 AM 11.88 53.384 0.409 7.76 421.57 9.16
11/13/2022 10:30:00 AM 11.88 53.384 0.409 7.79 421.46 9.58
11/13/2022 10:45:00 AM 11.9 53.42 0.41 7.8 421.27 9.53
11/13/2022 11:00:00 AM 11.92 53.456 0.41 7.81 420.73 9.73
11/13/2022 11:15:00 AM 11.93 53.474 0.41 7.83 420.82 9.86
11/13/2022 11:30:00 AM 11.93 53.474 0.41 7.84 415.37 9.82
11/13/2022 11:45:00 AM 11.95 53.51 0.41 7.85 420.71 9.66
11/13/2022 12:00:00 PM 11.92 53.456 0.41 7.84 411.64 9.93
11/13/2022 12:15:00 PM 11.91 53.438 0.411 7.86 435.71 10.01
11/13/2022 12:30:00 PM 11.9 53.42 0.411 7.87 432.24 9.86
11/13/2022 12:45:00 PM 11.93 53.474 0.412 7.86 431.53 10.06
11/13/2022 1:00:00 PM 11.88 53.384 0.412 7.88 431.18 10.07
11/13/2022 1:15:00 PM 11.91 53.438 0.412 7.88 445.12 10.04
11/13/2022 1:30:00 PM 11.92 53.456 0.412 7.89 424.5 10.33
11/13/2022 1:45:00 PM 11.92 53.456 0.413 7.9 406.08 10.2
11/13/2022 2:00:00 PM 11.9 53.42 0.413 7.9 401 10.01
11/13/2022 2:15:00 PM 11.85 53.33 0.413 7.92 398.71 10.25
11/13/2022 2:30:00 PM 11.78 53.204 0.413 7.89 390.3 10.11
11/13/2022 2:45:00 PM 11.73 53.114 0.414 7.91 1354.36 10.19
11/13/2022 3:00:00 PM 11.66 52.988 0.414 7.93 1274.79 10.47
11/13/2022 3:15:00 PM 11.59 52.862 0.414 7.93 1201.42 10.28
11/13/2022 3:30:00 PM 11.53 52.754 0.415 7.92 2184.8 10.01
11/13/2022 3:45:00 PM 11.47 52.646 0.415 7.92 2040.33 10.08
11/13/2022 4:00:00 PM 11.41 52.538 0.415 7.92 1752.6 10.24
11/13/2022 4:15:00 PM 11.33 52.394 0.416 7.88 2106.03 9.9
11/13/2022 4:30:00 PM 11.27 52.286 0.416 7.9 2260.02 9.97
11/13/2022 4:45:00 PM 11.15 52.07 0.416 7.89 2278.31 9.91
11/13/2022 5:00:00 PM 11.08 51.944 0.417 7.87 2381.37 9.97
11/13/2022 5:15:00 PM 11.03 51.854 0.417 7.86 2434.31 9.72
11/13/2022 5:30:00 PM 10.88 51.584 0.417 7.86 2508.31 9.69
11/13/2022 5:45:00 PM 10.86 51.548 0.417 7.84 2462.41 9.67
11/13/2022 6:00:00 PM 10.72 51.296 0.417 7.83 2364.81 9.52
11/13/2022 6:15:00 PM 10.68 51.224 0.417 7.82 2226.57 9.51
11/13/2022 6:30:00 PM 10.64 51.152 0.417 7.81 2253.04 9.46
11/13/2022 6:45:00 PM 10.59 51.062 0.418 7.81 2249.11 9.34
11/13/2022 7:00:00 PM 10.57 51.026 0.419 7.79 2248.57 9.12
11/13/2022 7:15:00 PM 10.54 50.972 0.42 7.81 2805.92 9.44
11/13/2022 7:30:00 PM 10.47 50.846 0.419 7.8 2661.38 9.02
11/13/2022 7:45:00 PM 10.43 50.774 0.419 7.81 2734.6 9.38
11/13/2022 8:00:00 PM 10.4 50.72 0.419 7.81 2771.97 9.27
11/13/2022 8:15:00 PM 10.36 50.648 0.42 7.8 2813.7 9.32
11/13/2022 8:30:00 PM 10.31 50.558 0.42 7.81 2852.99 9.4
11/13/2022 8:45:00 PM 10.26 50.468 0.42 7.81 2820.08 9.26
11/13/2022 9:00:00 PM 10.17 50.306 0.42 7.79 2773.42 9.25
11/13/2022 9:15:00 PM 10.14 50.252 0.42 7.8 2790.73 9.25
11/13/2022 9:30:00 PM 10.04 50.072 0.421 7.79 2733.56 9.09
11/13/2022 9:45:00 PM 9.98 49.964 0.42 7.81 2798.25 9.27
11/13/2022 10:00:00 PM 9.89 49.802 0.422 7.8 2770.17 9.39
11/13/2022 10:15:00 PM 9.84 49.712 0.422 7.8 2954.24 9.33
11/13/2022 10:30:00 PM 9.79 49.622 0.422 7.78 2975.7 9.35
11/13/2022 10:45:00 PM 9.71 49.478 0.422 7.79 2999.04 9.21
11/13/2022 11:00:00 PM 9.66 49.388 0.422 7.79 3015.94 9.35
11/13/2022 11:15:00 PM 9.59 49.262 0.423 7.79 2962.69 9.31
11/13/2022 11:30:00 PM 9.55 49.19 0.424 7.78 2938.07 9.37
11/13/2022 11:45:00 PM 9.48 49.064 0.424 7.76 3607.39 9.19
11/14/2022 12:00:00 AM 9.39 48.902 0.425 7.78 3619 9.34
11/14/2022 12:15:00 AM 9.31 48.758 0.425 7.78 3620.83 9.39
11/14/2022 12:30:00 AM 9.25 48.65 0.425 7.78 3619.95 9.44
11/14/2022 12:45:00 AM 9.18 48.524 0.426 7.78 3588.51 9.25
11/14/2022 1:00:00 AM 9.13 48.434 0.426 7.77 3573.16 9.27
11/14/2022 1:15:00 AM 9.08 48.344 0.426 7.77 3575.16 9.34
11/14/2022 1:30:00 AM 9.01 48.218 0.427 7.76 3602.37 9.36
11/14/2022 1:45:00 AM 8.99 48.182 0.427 7.75 2063 9.21
11/14/2022 2:00:00 AM 8.89 48.002 0.419 7.75 1957.3 9.45
11/14/2022 2:15:00 AM 8.84 47.912 0.427 7.76 963.39 8.63
11/14/2022 2:30:00 AM 8.79 47.822 0.427 7.76 1205.75 9.46
11/14/2022 2:45:00 AM 8.75 47.75 0.428 7.76 1288.57 9.43
11/14/2022 3:00:00 AM 8.71 47.678 0.428 7.73 1201.38 9.44
11/14/2022 3:15:00 AM 8.63 47.534 0.428 7.73 1150.4 9.41
11/14/2022 3:30:00 AM 8.6 47.48 0.429 7.76 1008.6 9.46
11/14/2022 3:45:00 AM 8.52 47.336 0.429 7.75 946.98 9.5
11/14/2022 4:00:00 AM 8.47 47.246 0.429 7.75 946.23 9.55
11/14/2022 4:15:00 AM 8.41 47.138 0.429 7.76 924.56 9.56
11/14/2022 4:30:00 AM 8.36 47.048 0.429 7.75 848.3 9.62
11/14/2022 4:45:00 AM 8.32 46.976 0.43 7.74 830.19 9.61
11/14/2022 5:00:00 AM 8.28 46.904 0.43 7.75 817.86 9.64
11/14/2022 5:15:00 AM 8.22 46.796 0.43 7.75 815.25 9.67
11/14/2022 5:30:00 AM 8.19 46.742 0.43 7.74 822.52 9.7
11/14/2022 5:45:00 AM 8.17 46.706 0.431 7.77 1012.34 9.66
11/14/2022 6:00:00 AM 8.13 46.634 0.431 7.75 1054.98 9.65
11/14/2022 6:15:00 AM 8.12 46.616 0.431 7.76 1044.65 9.76
11/14/2022 6:30:00 AM 8.09 46.562 0.431 7.76 1015.74 9.76
11/14/2022 6:45:00 AM 8.09 46.562 0.431 7.75 1013.79 9.78
11/14/2022 7:00:00 AM 8.05 46.49 0.431 7.75 1005.55 9.8
11/14/2022 7:15:00 AM 8.04 46.472 0.431 7.76 1017.19 9.83
11/14/2022 7:30:00 AM 8.06 46.508 0.431 7.73 1039.85 9.66
11/14/2022 7:45:00 AM 8.08 46.544 0.43 7.7 1007.8 9.68
11/14/2022 8:00:00 AM 8.06 46.508 0.413 7.76 1014.19 9.94
11/14/2022 8:15:00 AM 8.05 46.49 0.411 7.77 1004.37 10.02
11/14/2022 8:30:00 AM 8.05 46.49 0.417 7.78 1008.76 10.14
11/14/2022 8:45:00 AM 8.06 46.508 0.43 7.73 1009.14 10.12
11/14/2022 9:00:00 AM 8.11 46.598 0.431 7.77 1018.49 10.42
11/14/2022 9:15:00 AM 8.1 46.58 0.433 7.82 3075.25 10.4
11/14/2022 9:30:00 AM 8.12 46.616 0.433 7.81 12488.47 10.65
11/14/2022 9:45:00 AM 8.17 46.706 0.433 7.82 12295.05 10.96
11/14/2022 10:00:00 AM 8.19 46.742 0.432 7.85 12154.19 10.94
11/14/2022 10:15:00 AM 8.28 46.904 0.404 7.85 12164.37 10.9
11/14/2022 10:30:00 AM 8.33 46.994 0.401 7.84 12097.22 11.24
11/14/2022 10:45:00 AM 8.34 47.012 0.431 7.86 11460.42 11.28
11/14/2022 11:00:00 AM 8.41 47.138 0.432 7.88 11795.21 11.61
11/14/2022 11:15:00 AM 8.49 47.282 0.433 7.92 12438.19 11.69
11/14/2022 11:30:00 AM 8.58 47.444 0.432 7.92 12285.59 11.71
11/14/2022 11:45:00 AM 8.63 47.534 0.432 7.91 11270.19 11.86
11/14/2022 12:00:00 PM 8.68 47.624 0.432 7.92 11082.8 11.94
11/14/2022 12:15:00 PM 8.73 47.714 0.432 7.95 11185.36 11.89
11/14/2022 12:30:00 PM 8.77 47.786 0.433 7.97 11225.55 12.1
11/14/2022 12:45:00 PM 8.8 47.84 0.433 7.96 11220.11 12.29
11/14/2022 1:00:00 PM 8.82 47.876 0.429 8 11215.56 12.14
11/14/2022 1:15:00 PM 8.83 47.894 0.433 7.99 11175.62 12.1
11/14/2022 1:30:00 PM 8.89 48.002 0.433 8 11204.48 12.11
11/14/2022 1:45:00 PM 8.84 47.912 0.433 8 11163.23 12.33
11/14/2022 2:00:00 PM 8.84 47.912 0.433 7.98 11097.17 12.27
11/14/2022 2:15:00 PM 8.78 47.804 0.434 7.99 11177.29 12.26
11/14/2022 2:30:00 PM 8.78 47.804 0.433 8 11110.46 12.16
11/14/2022 2:45:00 PM 8.74 47.732 0.434 7.99 11092.47 12.17
11/14/2022 3:00:00 PM 8.65 47.57 0.434 7.97 10995 12.06
11/14/2022 3:15:00 PM 8.61 47.498 0.434 7.98 10986.07 11.99
11/14/2022 3:30:00 PM 8.6 47.48 0.435 7.96 11004.95 11.99
11/14/2022 3:45:00 PM 8.57 47.426 0.435 7.97 11030.43 11.8
11/14/2022 4:00:00 PM 8.49 47.282 0.435 7.93 11045.17 11.7
11/14/2022 4:15:00 PM 8.48 47.264 0.435 7.95 11039.22 11.83
11/14/2022 4:30:00 PM 8.41 47.138 0.435 7.95 10511.68 11.58
11/14/2022 4:45:00 PM 8.41 47.138 0.435 7.94 10761.8 11.55
11/14/2022 5:00:00 PM 8.31 46.958 0.436 7.91 10705.26 11.55
11/14/2022 5:15:00 PM 8.33 46.994 0.435 7.91 10823.29 11.38
11/14/2022 5:30:00 PM 8.21 46.778 0.436 7.91 10797.5 11.21
11/14/2022 5:45:00 PM 8.16 46.688 0.436 7.87 10669.69 11.21
11/14/2022 6:00:00 PM 8.13 46.634 0.436 7.87 10738.21 11.1
11/14/2022 6:15:00 PM 8.06 46.508 0.436 7.88 10699.16 11.1
11/14/2022 6:30:00 PM 8.05 46.49 0.436 7.87 10667.81 11.01
11/14/2022 6:45:00 PM 7.99 46.382 0.437 7.86 10616.19 10.98
11/14/2022 7:00:00 PM 7.95 46.31 0.437 7.85 10688.46 10.91
11/14/2022 7:15:00 PM 7.91 46.238 0.437 7.85 10647.95 10.85
11/14/2022 7:30:00 PM 7.87 46.166 0.437 7.83 10654.3 10.88
11/14/2022 7:45:00 PM 7.84 46.112 0.437 7.82 10680.07 10.94
11/14/2022 8:00:00 PM 7.79 46.022 0.437 7.81 10682.7 10.88
11/14/2022 8:15:00 PM 7.75 45.95 0.437 7.85 10636.76 10.91
11/14/2022 8:30:00 PM 7.73 45.914 0.438 7.84 10692.25 10.9
11/14/2022 8:45:00 PM 7.68 45.824 0.437 7.84 10696.79 10.8
11/14/2022 9:00:00 PM 7.69 45.842 0.437 7.83 10745.33 10.77
11/14/2022 9:15:00 PM 7.6 45.68 0.438 7.86 10674.97 10.89
11/14/2022 9:30:00 PM 7.56 45.608 0.438 7.86 10685.2 10.9
11/14/2022 9:45:00 PM 7.52 45.536 0.438 7.84 10698.7 10.79
11/14/2022 10:00:00 PM 7.49 45.482 0.438 7.86 10700.98 10.82
11/14/2022 10:15:00 PM 7.41 45.338 0.438 7.86 10694.37 10.81
11/14/2022 10:30:00 PM 7.41 45.338 0.439 7.84 10763.84 10.75
11/14/2022 10:45:00 PM 7.35 45.23 0.439 7.82 10748.5 10.67
11/14/2022 11:00:00 PM 7.3 45.14 0.439 7.83 10815.36 10.68
11/14/2022 11:15:00 PM 7.27 45.086 0.439 7.81 10782.45 10.73
11/14/2022 11:30:00 PM 7.18 44.924 0.44 7.84 10705.75 10.59
11/14/2022 11:45:00 PM 7.11 44.798 0.44 7.83 10668.73 10.69
11/15/2022 12:00:00 AM 7.12 44.816 0.44 7.84 10693.83 10.64
11/15/2022 12:15:00 AM 7.06 44.708 0.44 7.81 10668.36 10.67
11/15/2022 12:30:00 AM 6.98 44.564 0.44 7.83 10741.56 10.57
11/15/2022 12:45:00 AM 6.94 44.492 0.441 7.79 10688.13 10.61
11/15/2022 1:00:00 AM 6.88 44.384 0.441 7.81 10593.5 10.57
11/15/2022 1:15:00 AM 6.82 44.276 0.441 7.81 10619.54 10.52
11/15/2022 1:30:00 AM 6.74 44.132 0.441 7.8 10634.37 10.5
11/15/2022 1:45:00 AM 6.72 44.096 0.441 7.78 10642.45 10.48
11/15/2022 2:00:00 AM 6.66 43.988 0.441 7.83 10707.87 10.44
11/15/2022 2:15:00 AM 6.61 43.898 0.441 7.77 10631.55 10.54
11/15/2022 2:30:00 AM 6.55 43.79 0.442 7.78 10702.46 10.49
11/15/2022 2:45:00 AM 6.47 43.646 0.442 7.8 10721.29 10.53
11/15/2022 3:00:00 AM 6.51 43.718 0.442 7.77 10743.89 10.48
11/15/2022 3:15:00 AM 6.4 43.52 0.442 7.8 10766.75 10.59
11/15/2022 3:30:00 AM 6.31 43.358 0.442 7.8 10679.01 10.52
11/15/2022 3:45:00 AM 6.28 43.304 0.442 7.8 10645.81 10.56
11/15/2022 4:00:00 AM 6.23 43.214 0.443 7.81 10657.71 10.59
11/15/2022 4:15:00 AM 6.23 43.214 0.443 7.76 10640.8 10.55
11/15/2022 4:30:00 AM 6.15 43.07 0.443 7.78 10745.82 10.62
11/15/2022 4:45:00 AM 6.15 43.07 0.443 7.77 10766.75 10.61
11/15/2022 5:00:00 AM 6.11 42.998 0.443 7.8 10663.54 10.62
11/15/2022 5:15:00 AM 6.08 42.944 0.444 7.79 10725.75 10.61
11/15/2022 5:30:00 AM 6.03 42.854 0.444 7.8 10711.23 10.7
11/15/2022 5:45:00 AM 5.97 42.746 0.444 7.79 10714.41 10.62
11/15/2022 6:00:00 AM 5.96 42.728 0.444 7.78 10698.02 10.68
11/15/2022 6:15:00 AM 5.89 42.602 0.444 7.75 10720.42 10.68
11/15/2022 6:30:00 AM 5.86 42.548 0.444 7.8 10729.83 10.69
11/15/2022 6:45:00 AM 5.77 42.386 0.444 7.8 10672.75 10.84
11/15/2022 7:00:00 AM 5.77 42.386 0.445 7.8 10609.45 10.79
11/15/2022 7:15:00 AM 5.74 42.332 0.445 7.81 10640.98 10.74
11/15/2022 7:30:00 AM 5.64 42.152 0.445 7.79 10636.6 10.76
11/15/2022 7:45:00 AM 5.68 42.224 0.445 7.79 10655.6 10.88
11/15/2022 8:00:00 AM 5.7 42.26 0.445 7.81 10654.61 10.78
11/15/2022 8:15:00 AM 5.68 42.224 0.445 7.81 10560.44 11.03
11/15/2022 8:30:00 AM 5.68 42.224 0.445 7.83 10562.38 11.04
11/15/2022 8:45:00 AM 5.71 42.278 0.445 7.82 10633.74 11.21
11/15/2022 9:00:00 AM 5.79 42.422 0.444 7.83 10586.05 11.44
11/15/2022 9:15:00 AM 5.82 42.476 0.444 7.84 10584.87 11.52
11/15/2022 9:30:00 AM 5.87 42.566 0.444 7.82 10571.03 11.6
11/15/2022 9:45:00 AM 5.91 42.638 0.444 7.86 10641.96 11.93
11/15/2022 10:00:00 AM 6 42.8 0.444 7.9 10813.11 12.2
11/15/2022 10:15:00 AM 6.08 42.944 0.444 7.92 10894.36 12.26
11/15/2022 10:30:00 AM 6.17 43.106 0.444 7.92 2375.36 12.21
11/15/2022 10:45:00 AM 6.23 43.214 0.444 7.93 2370.89 12.31
11/15/2022 11:00:00 AM 6.27 43.286 0.443 7.94 2347.33 12.46
11/15/2022 11:15:00 AM 6.31 43.358 0.443 7.92 2334.51 12.5
11/15/2022 11:30:00 AM 6.37 43.466 0.443 7.98 2304.17 12.62
11/15/2022 11:45:00 AM 6.4 43.52 0.444 7.95 2215.28 12.44
11/15/2022 12:00:00 PM 6.45 43.61 0.444 7.98 2307.13 12.63
11/15/2022 12:15:00 PM 6.47 43.646 0.444 7.95 2124.97 12.66
11/15/2022 12:30:00 PM 6.43 43.574 0.444 7.96 2113.09 12.6
11/15/2022 12:45:00 PM 6.4 43.52 0.444 7.97 2095.86 12.54
11/15/2022 1:00:00 PM 6.39 43.502 0.445 7.98 2334.3 12.42
11/15/2022 1:15:00 PM 6.43 43.574 0.445 7.96 2265.78 12.42
11/15/2022 1:30:00 PM 6.41 43.538 0.445 7.96 2239.45 12.4
11/15/2022 1:45:00 PM 6.38 43.484 0.445 7.96 2255.6 12.41
11/15/2022 2:00:00 PM 6.37 43.466 0.445 7.91 2311.63 12.37
11/15/2022 2:15:00 PM 6.39 43.502 0.445 7.92 2422.81 12.38
11/15/2022 2:30:00 PM 6.37 43.466 0.445 7.98 2723.69 12.48
11/15/2022 2:45:00 PM 6.37 43.466 0.445 7.92 2608.76 12.53
11/15/2022 3:00:00 PM 6.37 43.466 0.445 7.94 2576.18 12.29
11/15/2022 3:15:00 PM 6.38 43.484 0.445 7.95 2860.89 12.35
11/15/2022 3:30:00 PM 6.36 43.448 0.444 7.94 2914.42 12.47
11/15/2022 3:45:00 PM 6.38 43.484 0.445 7.9 3004.21 12.43
11/15/2022 4:00:00 PM 6.38 43.484 0.445 7.91 3062.23 12.4
11/15/2022 4:15:00 PM 6.36 43.448 0.445 7.88 3033.78 12.28
11/15/2022 4:30:00 PM 6.39 43.502 0.445 7.93 3096.71 12.25
11/15/2022 4:45:00 PM 6.35 43.43 0.444 7.93 3144.03 12.19
11/15/2022 5:00:00 PM 6.26 43.268 0.444 7.93 3141.69 12.07
11/15/2022 5:15:00 PM 6.14 43.052 0.442 7.9 3152.16 11.97
11/15/2022 5:30:00 PM 6.13 43.034 0.44 7.89 3142.19 11.84
11/15/2022 5:45:00 PM 6.16 43.088 0.439 7.91 3182.74 11.85
11/15/2022 6:00:00 PM 6.14 43.052 0.439 7.89 3179.49 11.74
11/15/2022 6:15:00 PM 6.1 42.98 0.438 7.84 3197.64 11.68
11/15/2022 6:30:00 PM 6.03 42.854 0.436 7.89 3229.7 11.66
11/15/2022 6:45:00 PM 6.03 42.854 0.436 7.87 3266.14 11.59
11/15/2022 7:00:00 PM 6.03 42.854 0.433 7.86 3306.77 11.45
11/15/2022 7:15:00 PM 6.04 42.872 0.433 7.88 3315.31 11.66
11/15/2022 7:30:00 PM 6.1 42.98 0.432 7.87 3320.9 11.6
11/15/2022 7:45:00 PM 6.07 42.926 0.431 7.86 3345.7 11.62
11/15/2022 8:00:00 PM 6.08 42.944 0.43 7.89 3333.34 11.57
11/15/2022 8:15:00 PM 6.13 43.034 0.429 7.9 3334.29 11.56
11/15/2022 8:30:00 PM 6.12 43.016 0.428 7.88 3332.04 11.4
11/15/2022 8:45:00 PM 6.13 43.034 0.427 7.9 3327.59 11.54
11/15/2022 9:00:00 PM 6.16 43.088 0.427 7.9 3335.12 11.55
11/15/2022 9:15:00 PM 6.19 43.142 0.426 7.87 3323.51 11.35
11/15/2022 9:30:00 PM 6.18 43.124 0.424 7.86 3325.77 11.35
11/15/2022 9:45:00 PM 6.18 43.124 0.422 7.85 3344.05 11.39
11/15/2022 10:00:00 PM 6.18 43.124 0.421 7.88 3063.31 11.31
11/15/2022 10:15:00 PM 6.16 43.088 0.42 7.88 3075.72 11.36
11/15/2022 10:30:00 PM 6.15 43.07 0.419 7.87 3346.79 11.21
11/15/2022 10:45:00 PM 6.15 43.07 0.419 7.83 3399.59 11.29
11/15/2022 11:00:00 PM 6.15 43.07 0.419 7.85 3421.54 11.35
11/15/2022 11:15:00 PM 6.16 43.088 0.418 7.83 3399.07 11.24
11/15/2022 11:30:00 PM 6.15 43.07 0.417 7.86 3393.83 11.26
11/15/2022 11:45:00 PM 6.1 42.98 0.417 7.86 3492.58 11.31
11/16/2022 12:00:00 AM 6.09 42.962 0.416 7.86 3520.48 11.32
11/16/2022 12:15:00 AM 6.08 42.944 0.415 7.84 3536.25 11.27
11/16/2022 12:30:00 AM 6.07 42.926 0.413 7.85 3534.64 11.28
11/16/2022 12:45:00 AM 6.06 42.908 0.412 7.85 3535.28 11.3
11/16/2022 1:00:00 AM 6.04 42.872 0.41 7.85 3527.76 11.28
11/16/2022 1:15:00 AM 6.03 42.854 0.408 7.81 3538.29 11.29
11/16/2022 1:30:00 AM 6.01 42.818 0.405 7.85 3513.37 11.3
11/16/2022 1:45:00 AM 5.99 42.782 0.402 7.85 3517.03 11.31
11/16/2022 2:00:00 AM 5.97 42.746 0.4 7.85 3501.89 11.34
11/16/2022 2:15:00 AM 5.97 42.746 0.397 7.84 3501.18 11.33
11/16/2022 2:30:00 AM 5.98 42.764 0.395 7.83 3499.73 11.28
11/16/2022 2:45:00 AM 5.97 42.746 0.394 7.83 3494 11.32
11/16/2022 3:00:00 AM 5.98 42.764 0.393 7.83 3491.1 11.31
11/16/2022 3:15:00 AM 5.98 42.764 0.391 7.83 3423.97 11.33
11/16/2022 3:30:00 AM 6 42.8 0.389 7.82 3409.49 11.34
11/16/2022 3:45:00 AM 6.02 42.836 0.387 7.82 3378.41 11.3
11/16/2022 4:00:00 AM 6.04 42.872 0.385 7.82 3395.69 11.31
11/16/2022 4:15:00 AM 6.06 42.908 0.383 7.82 3326.96 11.31
11/16/2022 4:30:00 AM 6.07 42.926 0.381 7.82 3275.3 11.32
11/16/2022 4:45:00 AM 6.07 42.926 0.378 7.82 3213.34 11.34
11/16/2022 5:00:00 AM 6.07 42.926 0.376 7.82 3227.1 11.35
11/16/2022 5:15:00 AM 6.07 42.926 0.374 7.82 3132.72 11.32
11/16/2022 5:30:00 AM 6.06 42.908 0.372 7.81 3113.13 11.32
11/16/2022 5:45:00 AM 6.04 42.872 0.371 7.82 3105.22 11.31
11/16/2022 6:00:00 AM 6.03 42.854 0.369 7.81 3100.07 11.33
11/16/2022 6:15:00 AM 6.02 42.836 0.368 7.82 2906.58 11.37
11/16/2022 6:30:00 AM 6 42.8 0.368 7.82 2905.53 11.48
11/16/2022 6:45:00 AM 5.98 42.764 0.367 7.82 3036.27 11.48
11/16/2022 7:00:00 AM 5.97 42.746 0.364 7.82 4159.37 11.49
11/16/2022 7:15:00 AM 5.96 42.728 0.361 7.81 4262.88 11.47
11/16/2022 7:30:00 AM 5.95 42.71 0.358 7.81 5462.21 11.51
11/16/2022 7:45:00 AM 5.95 42.71 0.355 7.78 5568.29 11.12
11/16/2022 8:00:00 AM 5.96 42.728 0.351 7.77 8470.79 10.34
11/16/2022 8:15:00 AM 5.99 42.782 0.349 7.76 160.46 11.21
11/16/2022 8:30:00 AM 6.02 42.836 0.344 7.67 142.84 10.7
11/16/2022 8:45:00 AM 6.07 42.926 0.341 7.79 127.94 5.43
11/16/2022 9:00:00 AM 6.12 43.016 0.343 7.76 140.14 7.29
11/16/2022 9:15:00 AM 6.19 43.142 0.342 7.74 143.58 8.64
11/16/2022 9:30:00 AM 6.28 43.304 0.34 7.73 141.37 5.62
11/16/2022 9:45:00 AM 6.37 43.466 0.337 7.75 144.61 5.64
11/16/2022 10:00:00 AM 6.46 43.628 0.337 7.72 1235.93 5.57
11/16/2022 10:15:00 AM 6.53 43.754 0.315 7.75 1561.24 4.18
11/16/2022 10:30:00 AM 6.61 43.898 0.307 7.75 85.52 5.95
11/16/2022 10:45:00 AM 6.68 44.024 0.277 7.74 94.44 8.89
11/16/2022 11:00:00 AM 6.79 44.222 0.273 7.74 106.4 9.26
11/16/2022 11:15:00 AM 6.86 44.348 0.273 7.74 92.72 9.44
11/16/2022 11:30:00 AM 6.95 44.51 0.274 7.74 98.34 9.04
11/16/2022 11:45:00 AM 6.99 44.582 0.271 7.74 99.87 9.09
11/16/2022 12:00:00 PM 7.04 44.672 0.272 7.74 105.83 8.79
11/16/2022 12:15:00 PM 7.11 44.798 0.258 7.74 108.85 8.42
11/16/2022 12:30:00 PM 7.18 44.924 0.258 7.74 111.55 8.39
11/16/2022 12:45:00 PM 7.23 45.014 0.259 7.74 112.91 8.77
11/16/2022 1:00:00 PM 7.29 45.122 0.26 7.74 112.73 9.24
11/16/2022 1:15:00 PM 7.38 45.284 0.261 7.74 142.59 9.85
11/16/2022 1:30:00 PM 7.42 45.356 0.261 7.75 293.8 10.07
11/16/2022 1:45:00 PM 7.46 45.428 0.258 7.74 107.43 10.11
11/16/2022 2:00:00 PM 7.46 45.428 0.257 7.73 131.81 10.19
11/16/2022 2:15:00 PM 7.47 45.446 0.341 7.73 117.06 9.68
11/16/2022 2:30:00 PM 7.48 45.464 0.342 7.72 837.73 8.84
11/16/2022 2:45:00 PM 7.5 45.5 0.343 7.71 171.34 8.8
11/16/2022 3:00:00 PM 7.54 45.572 0.344 7.7 330.56 8.71
11/16/2022 3:15:00 PM 7.57 45.626 0.344 7.69 104.03 8.99
11/16/2022 3:30:00 PM 7.58 45.644 0.344 7.69 146.09 9.85
11/16/2022 3:45:00 PM 7.59 45.662 0.345 7.69 188.56 10.21
11/16/2022 4:00:00 PM 7.59 45.662 0.345 7.74 665.98 10.58
11/16/2022 4:15:00 PM 7.59 45.662 0.345 7.75 2507.63 10.85
11/16/2022 4:30:00 PM 7.59 45.662 0.346 7.75 2457.84 10.94
11/16/2022 4:45:00 PM 7.6 45.68 0.346 7.74 2102.91 10.92
11/16/2022 5:00:00 PM 7.6 45.68 0.346 7.74 1506.16 10.85
11/16/2022 5:15:00 PM 7.6 45.68 0.346 7.74 1323.17 10.83
11/16/2022 5:30:00 PM 7.59 45.662 0.347 7.74 1266.52 10.77
11/16/2022 5:45:00 PM 7.6 45.68 0.347 7.74 1202.63 10.74
11/16/2022 6:00:00 PM 7.61 45.698 0.347 7.73 1262.59 10.48
11/16/2022 6:15:00 PM 7.62 45.716 0.348 7.73 1187.3 10.31
11/16/2022 6:30:00 PM 7.64 45.752 0.348 7.73 1166.03 9.86
11/16/2022 6:45:00 PM 7.65 45.77 0.348 7.72 3338.89 9.86
11/16/2022 7:00:00 PM 7.67 45.806 0.349 7.72 4528.52 10.25
11/16/2022 7:15:00 PM 7.69 45.842 0.35 7.72 6154.65 9.88
11/16/2022 7:30:00 PM 7.7 45.86 0.35 7.72 6692.24 9.59
11/16/2022 7:45:00 PM 7.71 45.878 0.351 7.71 6402.2 10.31
11/16/2022 8:00:00 PM 7.71 45.878 0.352 7.71 6442.58 9.98
11/16/2022 8:15:00 PM 7.71 45.878 0.352 7.71 6279.42 9.76
11/16/2022 8:30:00 PM 7.71 45.878 0.353 7.71 6594.38 10.18
11/16/2022 8:45:00 PM 7.7 45.86 0.354 7.71 6864.17 10.33
11/16/2022 9:00:00 PM 7.69 45.842 0.355 7.71 6851.73 8.42
11/16/2022 9:15:00 PM 7.69 45.842 0.355 7.71 6637 10.23
11/16/2022 9:30:00 PM 7.68 45.824 0.356 7.71 6332.56 9.92
11/16/2022 9:45:00 PM 7.66 45.788 0.357 7.71 6341.51 9.7
11/16/2022 10:00:00 PM 7.66 45.788 0.357 7.7 6010.34 9.39
11/16/2022 10:15:00 PM 7.64 45.752 0.358 7.7 5836.24 10.12
11/16/2022 10:30:00 PM 7.63 45.734 0.359 7.7 6299.47 9.63
11/16/2022 10:45:00 PM 7.62 45.716 0.359 7.7 6296.9 10.14
11/16/2022 11:00:00 PM 7.62 45.716 0.36 7.7 5651.74 9.62
11/16/2022 11:15:00 PM 7.61 45.698 0.361 7.7 5665.01 9.66
11/16/2022 11:30:00 PM 7.6 45.68 0.361 7.7 5675.63 9.48
11/16/2022 11:45:00 PM 7.59 45.662 0.362 7.7 5690 7.59
11/17/2022 12:00:00 AM 7.58 45.644 0.363 7.69 5963.27 8.87
11/17/2022 12:15:00 AM 7.57 45.626 0.363 7.7 6164.29 8.03
11/17/2022 12:30:00 AM 7.55 45.59 0.364 7.7 6242.24 8.87
11/17/2022 12:45:00 AM 7.51 45.518 0.364 7.69 6230.17 8.91
11/17/2022 1:00:00 AM 7.47 45.446 0.365 7.69 6113.84 9.45
11/17/2022 1:15:00 AM 7.43 45.374 0.366 7.69 6350.56 7.65
11/17/2022 1:30:00 AM 7.39 45.302 0.367 7.69 6438.99 8.21
11/17/2022 1:45:00 AM 7.37 45.266 0.367 7.69 6564.01 9.03
11/17/2022 2:00:00 AM 7.34 45.212 0.368 7.68 7145.21 7.99
11/17/2022 2:15:00 AM 7.29 45.122 0.369 7.67 7596.23 9
11/17/2022 2:30:00 AM 7.26 45.068 0.369 7.69 7995.46 7.69
11/17/2022 2:45:00 AM 7.25 45.05 0.37 7.69 8723.46 8.72
11/17/2022 3:00:00 AM 7.22 44.996 0.371 7.68 2266.4 8.39
11/17/2022 3:15:00 AM 7.19 44.942 0.372 7.66 2502.65 8.45
11/17/2022 3:30:00 AM 7.16 44.888 0.372 7.68 2905.66 8.26
11/17/2022 3:45:00 AM 7.13 44.834 0.372 7.67 2975.32 8.22
11/17/2022 4:00:00 AM 7.13 44.834 0.373 7.69 1787.64 8.96
11/17/2022 4:15:00 AM 7.1 44.78 0.373 7.67 2505.35 9.28
11/17/2022 4:30:00 AM 7.06 44.708 0.374 7.69 2583 9.46
11/17/2022 4:45:00 AM 7.04 44.672 0.375 7.68 1193.65 9.07
11/17/2022 5:00:00 AM 7 44.6 0.376 7.69 1243.09 9.55
11/17/2022 5:15:00 AM 6.98 44.564 0.376 7.7 1278.57 9.21
11/17/2022 5:30:00 AM 6.98 44.564 0.374 7.58 807.95 9.13
11/17/2022 5:45:00 AM 6.95 44.51 0.375 7.63 1455.81 8.75
11/17/2022 6:00:00 AM 6.92 44.456 0.378 7.65 1163 9.4
11/17/2022 6:15:00 AM 6.9 44.42 0.378 7.66 1240.4 9.48
11/17/2022 6:30:00 AM 6.85 44.33 0.38 7.68 1499.78 9.73
11/17/2022 6:45:00 AM 6.8 44.24 0.38 7.63 1690 9.44
11/17/2022 7:00:00 AM 6.76 44.168 0.38 7.69 2762.8 8.69
11/17/2022 7:15:00 AM 6.71 44.078 0.381 7.63 3534.76 9.22
11/17/2022 7:30:00 AM 6.69 44.042 0.381 7.63 2113.55 8.33
11/17/2022 7:45:00 AM 6.65 43.97 0.382 7.63 1922.77 9.98
11/17/2022 8:00:00 AM 6.68 44.024 0.382 7.63 2662.94 8.95
11/17/2022 8:15:00 AM 6.64 43.952 0.383 7.6 2872.76 9.25
11/17/2022 8:30:00 AM 6.68 44.024 0.383 7.61 3192.69 8.17
11/17/2022 8:45:00 AM 6.69 44.042 0.384 7.68 3238.99 9.66
11/17/2022 9:00:00 AM 6.7 44.06 0.384 7.69 3308.04 9.05
11/17/2022 9:15:00 AM 6.74 44.132 0.385 7.65 3660.29 9.18
11/17/2022 9:30:00 AM 6.76 44.168 0.385 7.69 3575.97 9.38
11/17/2022 9:45:00 AM 6.79 44.222 0.386 7.67 3630.93 10.05
11/17/2022 10:00:00 AM 6.78 44.204 0.386 7.62 3655.15 8.54
11/17/2022 10:15:00 AM 6.81 44.258 0.387 7.7 3711.18 7.35
11/17/2022 10:30:00 AM 6.87 44.366 0.388 7.7 3712.49 6.66
11/17/2022 10:45:00 AM 6.95 44.51 0.388 7.69 3776.16 6.98
11/17/2022 11:00:00 AM 7.04 44.672 0.388 7.63 3814.86 7.55
11/17/2022 11:15:00 AM 7.14 44.852 0.389 7.66 3863.66 7.13
11/17/2022 11:30:00 AM 7.22 44.996 0.389 7.68 3860.41 6.9
11/17/2022 11:45:00 AM 7.29 45.122 0.39 7.69 3721.81 6.96
11/17/2022 12:00:00 PM 7.36 45.248 0.39 7.66 4018.45 6.91
11/17/2022 12:15:00 PM 7.41 45.338 0.39 7.71 4053.11 7.05
11/17/2022 12:30:00 PM 7.42 45.356 0.391 7.62 3994.85 7.13
11/17/2022 12:45:00 PM 7.4 45.32 0.391 7.58 3960.93 7.81
11/17/2022 1:00:00 PM 7.35 45.23 0.392 7.57 4073.33 8.14
11/17/2022 1:15:00 PM 7.32 45.176 0.392 7.55 4126.7 7.69
11/17/2022 1:30:00 PM 7.28 45.104 0.393 7.56 4130.37 7.98
11/17/2022 1:45:00 PM 7.22 44.996 0.393 7.56 4136.79 8.14
11/17/2022 2:00:00 PM 7.19 44.942 0.394 7.52 4392.2 8.42
11/17/2022 2:15:00 PM 7.18 44.924 0.394 7.66 4697.18 8.45
11/17/2022 2:30:00 PM 7.19 44.942 0.394 7.56 4881.38 8.76
11/17/2022 2:45:00 PM 7.18 44.924 0.395 7.62 4773.17 9.05
11/17/2022 3:00:00 PM 7.19 44.942 0.395 7.65 880.43 8.66
11/17/2022 3:15:00 PM 7.21 44.978 0.395 7.64 1067.93 8.97
11/17/2022 3:30:00 PM 7.21 44.978 0.396 7.6 1490.87 8.47
11/17/2022 3:45:00 PM 7.23 45.014 0.396 7.62 1381.64 8.21
11/17/2022 4:00:00 PM 7.19 44.942 0.397 7.6 1401.12 7.88
11/17/2022 4:15:00 PM 7.19 44.942 0.397 7.62 1734.92 8.1
11/17/2022 4:30:00 PM 7.2 44.96 0.398 7.65 1753.43 7.94
11/17/2022 4:45:00 PM 7.15 44.87 0.398 7.64 1783.55 7.91
11/17/2022 5:00:00 PM 7.16 44.888 0.399 7.6 1835.92 7.97
11/17/2022 5:15:00 PM 7.09 44.762 0.399 7.63 3467.39 7.75
11/17/2022 5:30:00 PM 7.11 44.798 0.4 7.59 4428.6 7.62
11/17/2022 5:45:00 PM 7.08 44.744 0.4 7.61 4533.79 8.27
11/17/2022 6:00:00 PM 7.02 44.636 0.4 7.62 4676.42 8.92
11/17/2022 6:15:00 PM 6.96 44.528 0.401 7.6 4749.27 8.62
11/17/2022 6:30:00 PM 6.96 44.528 0.402 7.59 4782.82 7.73
11/17/2022 6:45:00 PM 6.89 44.402 0.402 7.6 4773.07 7.32
11/17/2022 7:00:00 PM 6.84 44.312 0.402 7.57 4788.42 8.46
11/17/2022 7:15:00 PM 6.84 44.312 0.403 7.56 4869.41 7.89
11/17/2022 7:30:00 PM 6.81 44.258 0.403 7.55 4972.94 7.99
11/17/2022 7:45:00 PM 6.76 44.168 0.404 7.53 3572.73 7.59
11/17/2022 8:00:00 PM 6.74 44.132 0.404 7.52 4460.57 8
11/17/2022 8:15:00 PM 6.69 44.042 0.404 7.54 4508.86 6.47
11/17/2022 8:30:00 PM 6.67 44.006 0.405 7.56 4573.57 6.6
11/17/2022 8:45:00 PM 6.67 44.006 0.405 7.48 4734.37 6.43
11/17/2022 9:00:00 PM 6.65 43.97 0.405 7.47 184.86 6.5
11/17/2022 9:15:00 PM 6.61 43.898 0.406 7.49 175.1 7.01
11/17/2022 9:30:00 PM 6.61 43.898 0.406 7.54 175.36 6.12
11/17/2022 9:45:00 PM 6.58 43.844 0.407 7.56 177.7 6.61
11/17/2022 10:00:00 PM 6.56 43.808 0.407 7.54 179.85 7.54
11/17/2022 10:15:00 PM 6.57 43.826 0.408 7.56 179.09 7.8
11/17/2022 10:30:00 PM 6.53 43.754 0.408 7.51 696.68 8
11/17/2022 10:45:00 PM 6.5 43.7 0.408 7.49 624.32 8.45
11/17/2022 11:00:00 PM 6.45 43.61 0.409 7.53 2932.21 7.98
11/17/2022 11:15:00 PM 6.4 43.52 0.409 7.52 2569.54 8.29
11/17/2022 11:30:00 PM 6.35 43.43 0.409 7.64 2259.97 8.72
11/17/2022 11:45:00 PM 6.32 43.376 0.41 7.61 2167.08 8.57
11/18/2022 12:00:00 AM 6.28 43.304 0.41 7.63 2118.13 8.61
11/18/2022 12:15:00 AM 6.21 43.178 0.41 7.67 2081.26 8.18
11/18/2022 12:30:00 AM 6.17 43.106 0.41 7.67 2051.04 8.31
11/18/2022 12:45:00 AM 6.13 43.034 0.411 7.67 2169.17 8.79
11/18/2022 1:00:00 AM 6.11 42.998 0.412 7.66 1955.83 9.37
11/18/2022 1:15:00 AM 6.1 42.98 0.412 7.63 1958.74 8.95
11/18/2022 1:30:00 AM 6.09 42.962 0.412 7.57 2220.82 9.44
11/18/2022 1:45:00 AM 6.04 42.872 0.412 7.46 3637.61 9.78
11/18/2022 2:00:00 AM 6.04 42.872 0.413 7.49 3044.79 8.58
11/18/2022 2:15:00 AM 5.98 42.764 0.413 7.53 2885.17 9.49
11/18/2022 2:30:00 AM 6.04 42.872 0.413 7.55 2029.68 8.65
11/18/2022 2:45:00 AM 6.08 42.944 0.414 7.71 1295.4 8.86
11/18/2022 3:00:00 AM 6 42.8 0.413 7.7 1227.49 9.77
11/18/2022 3:15:00 AM 6.05 42.89 0.413 7.67 1709.69 9.46
11/18/2022 3:30:00 AM 6.02 42.836 0.412 7.62 1236.18 9.52
11/18/2022 3:45:00 AM 6.01 42.818 0.414 7.55 607.69 9.2
11/18/2022 4:00:00 AM 5.99 42.782 0.415 7.52 583.24 9.92
11/18/2022 4:15:00 AM 5.99 42.782 0.415 7.47 1606.45 8.71
11/18/2022 4:30:00 AM 5.96 42.728 0.415 7.59 1338.07 9.27
11/18/2022 4:45:00 AM 5.92 42.656 0.416 7.55 1227.78 9.05
11/18/2022 5:00:00 AM 5.9 42.62 0.416 7.59 1274.03 10.76
11/18/2022 5:15:00 AM 5.83 42.494 0.416 7.59 947.72 10.26
11/18/2022 5:30:00 AM 5.81 42.458 0.416 7.63 911.96 10.05
11/18/2022 5:45:00 AM 5.79 42.422 0.417 7.65 862.07 9.97
11/18/2022 6:00:00 AM 5.7 42.26 0.416 7.65 852.3 10.19
11/18/2022 6:15:00 AM 5.71 42.278 0.417 7.62 830.57 10.22
11/18/2022 6:30:00 AM 5.68 42.224 0.418 7.57 1355.86 10.3
11/18/2022 6:45:00 AM 5.64 42.152 0.418 7.62 1473.91 10.58
11/18/2022 7:00:00 AM 5.59 42.062 0.418 7.53 1222.84 10.55
11/18/2022 7:15:00 AM 5.55 41.99 0.418 7.54 1102.67 10.87
11/18/2022 7:30:00 AM 5.54 41.972 0.418 7.52 1079.98 10.49
11/18/2022 7:45:00 AM 5.46 41.828 0.418 7.39 1078.64 10.48
11/18/2022 8:00:00 AM 5.48 41.864 0.419 7.5 277.39 9.95
11/18/2022 8:15:00 AM 5.5 41.9 0.419 7.59 188.61 10.74
11/18/2022 8:30:00 AM 5.53 41.954 0.419 7.54 531.51 10.95
11/18/2022 8:45:00 AM 5.54 41.972 0.419 7.57 470.54 11.1
11/18/2022 9:00:00 AM 5.58 42.044 0.419 7.64 288.63 10.74
11/18/2022 9:15:00 AM 5.65 42.17 0.42 7.63 552.79 10.37
11/18/2022 9:30:00 AM 5.68 42.224 0.42 7.57 220.29 10.82
11/18/2022 9:45:00 AM 5.72 42.296 0.42 7.54 1351.72 10.96
11/18/2022 10:00:00 AM 5.78 42.404 0.42 7.56 1311.43 11.38
11/18/2022 10:15:00 AM 5.86 42.548 0.42 7.64 1429.35 11.48
11/18/2022 10:30:00 AM 5.94 42.692 0.421 7.63 1147.01 11.5
11/18/2022 10:45:00 AM 6.01 42.818 0.42 7.64 1220.44 11.58
11/18/2022 11:00:00 AM 6.11 42.998 0.42 7.68 952.67 12.05
11/18/2022 11:15:00 AM 6.2 43.16 0.42 7.68 794.47 11.85
11/18/2022 11:30:00 AM 6.31 43.358 0.42 7.59 880.39 12.12
11/18/2022 11:45:00 AM 6.44 43.592 0.421 7.58 803.07 11.96
11/18/2022 12:00:00 PM 6.52 43.736 0.42 7.67 730.63 12.13
11/18/2022 12:15:00 PM 6.58 43.844 0.42 7.71 724.75 11.98
11/18/2022 12:30:00 PM 6.62 43.916 0.421 7.75 977.64 12.04
11/18/2022 12:45:00 PM 6.65 43.97 0.421 7.68 545.41 12.36
11/18/2022 1:00:00 PM 6.66 43.988 0.421 7.68 640.78 12.15
11/18/2022 1:15:00 PM 6.65 43.97 0.422 7.67 538.37 12.22
11/18/2022 1:30:00 PM 6.68 44.024 0.422 7.66 516.99 12.01
11/18/2022 1:45:00 PM 6.7 44.06 0.422 7.64 434.98 11.93
11/18/2022 2:00:00 PM 6.75 44.15 0.422 7.64 247.47 11.44
11/18/2022 2:15:00 PM 6.75 44.15 0.422 7.6 235.42 11.35
11/18/2022 2:30:00 PM 6.76 44.168 0.422 7.61 236.69 11.75
11/18/2022 2:45:00 PM 6.73 44.114 0.422 7.59 228.05 11.94
11/18/2022 3:00:00 PM 6.7 44.06 0.422 7.59 218.87 11.9
11/18/2022 3:15:00 PM 6.68 44.024 0.423 7.61 351.22 11.98
11/18/2022 3:30:00 PM 6.65 43.97 0.423 7.7 266.71 11.81
11/18/2022 3:45:00 PM 6.64 43.952 0.423 7.63 335.74 11.59
11/18/2022 4:00:00 PM 6.63 43.934 0.423 7.61 404.68 10.47
11/18/2022 4:15:00 PM 6.6 43.88 0.424 7.65 354.46 11.3
11/18/2022 4:30:00 PM 6.58 43.844 0.424 7.63 481.3 11.37
11/18/2022 4:45:00 PM 6.57 43.826 0.424 7.67 292.3 10.99
11/18/2022 5:00:00 PM 6.56 43.808 0.423 7.55 419.03 11.35
11/18/2022 5:15:00 PM 6.56 43.808 0.424 7.68 613.51 11.44
11/18/2022 5:30:00 PM 6.56 43.808 0.424 7.67 431.88 11.35
11/18/2022 5:45:00 PM 6.58 43.844 0.423 7.53 569.31 11.23
11/18/2022 6:00:00 PM 6.58 43.844 0.424 7.67 457.24 10.52
11/18/2022 6:15:00 PM 6.62 43.916 0.425 7.65 427.62 10.73
11/18/2022 6:30:00 PM 6.62 43.916 0.425 7.64 339.82 10.93
11/18/2022 6:45:00 PM 6.6 43.88 0.425 7.71 357.92 10.3
11/18/2022 7:00:00 PM 6.6 43.88 0.424 7.68 786.47 10.75
11/18/2022 7:15:00 PM 6.52 43.736 0.426 7.63 780.09 10.57
11/18/2022 7:30:00 PM 6.54 43.772 0.426 7.58 577.73 10.31
11/18/2022 7:45:00 PM 6.5 43.7 0.426 7.63 558.76 11.26
11/18/2022 8:00:00 PM 6.46 43.628 0.427 7.61 641.25 10.77
11/18/2022 8:15:00 PM 6.44 43.592 0.426 7.66 824.9 11.27
11/18/2022 8:30:00 PM 6.38 43.484 0.427 7.64 802.74 11.25
11/18/2022 8:45:00 PM 6.33 43.394 0.427 7.69 1584.46 10.7
11/18/2022 9:00:00 PM 6.28 43.304 0.427 7.68 1440.59 11.09
11/18/2022 9:15:00 PM 6.27 43.286 0.427 7.74 1332.64 10.87
11/18/2022 9:30:00 PM 6.21 43.178 0.428 7.75 1249.34 10.57
11/18/2022 9:45:00 PM 6.11 42.998 0.428 7.76 1178.13 10.49
11/18/2022 10:00:00 PM 6.09 42.962 0.428 7.68 1129.49 10.04
11/18/2022 10:15:00 PM 6.09 42.962 0.428 7.67 1103.22 10.67
11/18/2022 10:30:00 PM 6.07 42.926 0.428 7.62 1053.05 9.91
11/18/2022 10:45:00 PM 6.02 42.836 0.428 7.72 1038.18 10.1
11/18/2022 11:00:00 PM 5.99 42.782 0.428 7.74 1023.69 10.21
11/18/2022 11:15:00 PM 5.96 42.728 0.428 7.76 973.68 10.02
11/18/2022 11:30:00 PM 5.93 42.674 0.428 7.7 965.43 9.75
11/18/2022 11:45:00 PM 5.84 42.512 0.428 7.76 929.48 10.23
11/19/2022 12:00:00 AM 5.82 42.476 0.429 7.76 907.06 9.73
11/19/2022 12:15:00 AM 5.78 42.404 0.429 7.75 918.63 9.28
11/19/2022 12:30:00 AM 5.74 42.332 0.429 7.75 891.31 10.16
11/19/2022 12:45:00 AM 5.71 42.278 0.429 7.74 876.52 10.11
11/19/2022 1:00:00 AM 5.64 42.152 0.43 7.71 848.2 9.84
11/19/2022 1:15:00 AM 5.54 41.972 0.429 7.73 833.92 10.1
11/19/2022 1:30:00 AM 5.53 41.954 0.43 7.73 813.7 9.94
11/19/2022 1:45:00 AM 5.51 41.918 0.43 7.72 814.25 10.04
11/19/2022 2:00:00 AM 5.49 41.882 0.43 7.74 806.48 10.16
11/19/2022 2:15:00 AM 5.43 41.774 0.43 7.72 789.9 10.05
11/19/2022 2:30:00 AM 5.38 41.684 0.431 7.7 785.19 10.22
11/19/2022 2:45:00 AM 5.34 41.612 0.43 7.73 781.78 10.37
11/19/2022 3:00:00 AM 5.34 41.612 0.431 7.73 765.13 10.54
11/19/2022 3:15:00 AM 5.32 41.576 0.431 7.64 759.56 9.92
11/19/2022 3:30:00 AM 5.28 41.504 0.432 7.72 760.43 10.32
11/19/2022 3:45:00 AM 5.19 41.342 0.431 7.67 751.64 9.92
11/19/2022 4:00:00 AM 5.17 41.306 0.431 7.59 745.72 10
11/19/2022 4:15:00 AM 5.12 41.216 0.431 7.64 719.14 10.18
11/19/2022 4:30:00 AM 5.07 41.126 0.431 7.62 708.4 9.9
11/19/2022 4:45:00 AM 5.05 41.09 0.432 7.67 706.65 10.02
11/19/2022 5:00:00 AM 5 41 0.432 7.54 692.27 10.15
11/19/2022 5:15:00 AM 4.92 40.856 0.432 7.66 683.74 10.36
11/19/2022 5:30:00 AM 4.86 40.748 0.432 7.65 680.8 10.41
11/19/2022 5:45:00 AM 4.82 40.676 0.432 7.64 666.84 10.49
11/19/2022 6:00:00 AM 4.77 40.586 0.432 7.66 659.53 10.25
11/19/2022 6:15:00 AM 4.71 40.478 0.432 7.63 660.97 9.89
11/19/2022 6:30:00 AM 4.67 40.406 0.433 7.66 650.05 10.52
11/19/2022 6:45:00 AM 4.65 40.37 0.433 7.65 640.38 9.98
11/19/2022 7:00:00 AM 4.61 40.298 0.432 7.66 632.05 9.97
11/19/2022 7:15:00 AM 4.57 40.226 0.432 7.64 388.74 9.72
11/19/2022 7:30:00 AM 4.51 40.118 0.433 7.59 608.49 9.57
11/19/2022 7:45:00 AM 4.52 40.136 0.433 7.62 612.69 9.88
11/19/2022 8:00:00 AM 4.49 40.082 0.433 7.61 613.8 10.5
11/19/2022 8:15:00 AM 4.53 40.154 0.433 7.64 604.85 10.73
11/19/2022 8:30:00 AM 4.54 40.172 0.433 7.68 592.1 10.44
11/19/2022 8:45:00 AM 4.54 40.172 0.433 7.67 577.56 10.59
11/19/2022 9:00:00 AM 4.58 40.244 0.433 7.67 565.31 10.66
11/19/2022 9:15:00 AM 4.59 40.262 0.433 7.65 558.36 10.38
11/19/2022 9:30:00 AM 4.64 40.352 0.433 7.65 555.15 10.73
11/19/2022 9:45:00 AM 4.7 40.46 0.433 7.58 553.26 11.01
11/19/2022 10:00:00 AM 4.76 40.568 0.433 7.57 546.29 11.2
11/19/2022 10:15:00 AM 4.85 40.73 0.433 7.58 539.84 11.3
11/19/2022 10:30:00 AM 4.93 40.874 0.433 7.62 530.8 11.16
11/19/2022 10:45:00 AM 5 41 0.433 7.7 524.97 11.13
11/19/2022 11:00:00 AM 5.05 41.09 0.433 7.65 518.54 11.19
11/19/2022 11:15:00 AM 5.16 41.288 0.433 7.66 510.54 11.44
11/19/2022 11:30:00 AM 5.17 41.306 0.433 7.68 505.14 11.41
11/19/2022 11:45:00 AM 5.2 41.36 0.433 7.63 498.72 11.34
11/19/2022 12:00:00 PM 5.24 41.432 0.433 7.69 510.29 11
11/19/2022 12:15:00 PM 5.3 41.54 0.433 7.74 493.11 11.44
11/19/2022 12:30:00 PM 5.34 41.612 0.433 7.72 488.97 11.28
11/19/2022 12:45:00 PM 5.38 41.684 0.433 7.81 482.36 11.19
11/19/2022 1:00:00 PM 5.42 41.756 0.433 7.8 478.65 11.23
11/19/2022 1:15:00 PM 5.5 41.9 0.433 7.75 468.08 11.49
11/19/2022 1:30:00 PM 5.54 41.972 0.433 7.79 469.09 11.33
11/19/2022 1:45:00 PM 5.58 42.044 0.433 7.79 468.84 11.19
11/19/2022 2:00:00 PM 5.62 42.116 0.434 7.8 462.46 11.14
11/19/2022 2:15:00 PM 5.62 42.116 0.433 7.8 455.92 11.44
11/19/2022 2:30:00 PM 5.61 42.098 0.434 7.83 449.98 11.48
11/19/2022 2:45:00 PM 5.58 42.044 0.434 7.84 444.73 11.41
11/19/2022 3:00:00 PM 5.55 41.99 0.434 7.84 453.6 11.3
11/19/2022 3:15:00 PM 5.52 41.936 0.434 7.85 445.42 11.35
11/19/2022 3:30:00 PM 5.49 41.882 0.434 7.86 438.72 11.3
11/19/2022 3:45:00 PM 5.47 41.846 0.434 7.85 434.86 11.33
11/19/2022 4:00:00 PM 5.44 41.792 0.434 7.81 433.56 11.3
11/19/2022 4:15:00 PM 5.4 41.72 0.435 7.85 428.84 11.14
11/19/2022 4:30:00 PM 5.37 41.666 0.435 7.82 427.81 11.02
11/19/2022 4:45:00 PM 5.36 41.648 0.435 7.81 422 10.97
11/19/2022 5:00:00 PM 5.32 41.576 0.435 7.8 426.82 11.08
11/19/2022 5:15:00 PM 5.31 41.558 0.435 7.77 422.6 11.29
11/19/2022 5:30:00 PM 5.3 41.54 0.435 7.79 421.01 11.38
11/19/2022 5:45:00 PM 5.28 41.504 0.436 7.79 554.73 10.9
11/19/2022 6:00:00 PM 5.28 41.504 0.436 7.74 538.47 11.15
11/19/2022 6:15:00 PM 5.25 41.45 0.436 7.75 551.02 11.15
11/19/2022 6:30:00 PM 5.25 41.45 0.436 7.77 539.08 11.66
11/19/2022 6:45:00 PM 5.26 41.468 0.436 7.74 529.15 11.45
11/19/2022 7:00:00 PM 5.23 41.414 0.436 7.7 532.95 11.06
11/19/2022 7:15:00 PM 5.19 41.342 0.436 7.79 525.6 11.35
11/19/2022 7:30:00 PM 5.17 41.306 0.436 7.77 521.88 11.39
11/19/2022 7:45:00 PM 5.16 41.288 0.436 7.77 532.34 11.34
11/19/2022 8:00:00 PM 5.13 41.234 0.437 7.79 529.38 11.22
11/19/2022 8:15:00 PM 5.1 41.18 0.437 7.79 526.09 11.18
11/19/2022 8:30:00 PM 5.07 41.126 0.437 7.79 528.44 11.01
11/19/2022 8:45:00 PM 5.04 41.072 0.436 7.81 546.73 11.2
11/19/2022 9:00:00 PM 5.01 41.018 0.437 7.78 537.97 11.21
11/19/2022 9:15:00 PM 4.97 40.946 0.437 7.8 536.53 11.06
11/19/2022 9:30:00 PM 4.93 40.874 0.437 7.77 563.64 10.92
11/19/2022 9:45:00 PM 4.9 40.82 0.437 7.78 592.61 10.81
11/19/2022 10:00:00 PM 4.85 40.73 0.438 7.73 591.32 11
11/19/2022 10:15:00 PM 4.82 40.676 0.438 7.75 589.94 11.08
11/19/2022 10:30:00 PM 4.73 40.514 0.438 7.75 856.66 10.78
11/19/2022 10:45:00 PM 4.72 40.496 0.438 7.71 785.4 10.91
11/19/2022 11:00:00 PM 4.66 40.388 0.438 7.76 800.02 11.14
11/19/2022 11:15:00 PM 4.58 40.244 0.437 7.75 793.86 11.08
11/19/2022 11:30:00 PM 4.53 40.154 0.439 7.73 800.69 11.17
11/19/2022 11:45:00 PM 4.51 40.118 0.439 7.71 801.36 11.21
11/20/2022 12:00:00 AM 4.43 39.974 0.438 7.72 791.24 11.21
11/20/2022 12:15:00 AM 4.41 39.938 0.439 7.73 798.45 11.21
11/20/2022 12:30:00 AM 4.4 39.92 0.439 7.73 803.45 11.45
11/20/2022 12:45:00 AM 4.29 39.722 0.439 7.68 795.82 11.18
11/20/2022 1:00:00 AM 4.27 39.686 0.439 7.63 814.37 11.01
11/20/2022 1:15:00 AM 4.23 39.614 0.439 7.73 803.55 11.34
11/20/2022 1:30:00 AM 4.2 39.56 0.439 7.73 807.91 11.32
11/20/2022 1:45:00 AM 4.17 39.506 0.439 7.74 808.84 11.41
11/20/2022 2:00:00 AM 4.16 39.488 0.439 7.72 813.07 11.35
11/20/2022 2:15:00 AM 4.14 39.452 0.44 7.66 816.56 11.07
11/20/2022 2:30:00 AM 4.16 39.488 0.44 7.69 812.06 10.93
11/20/2022 2:45:00 AM 4.15 39.47 0.439 7.68 808.92 10.57
11/20/2022 3:00:00 AM 4.12 39.416 0.44 7.62 806.73 11.21
11/20/2022 3:15:00 AM 4.12 39.416 0.44 7.63 808.14 11.38
11/20/2022 3:30:00 AM 4.1 39.38 0.439 7.62 807.35 11.45
11/20/2022 3:45:00 AM 4.09 39.362 0.439 7.65 814.08 11.29
11/20/2022 4:00:00 AM 4.06 39.308 0.44 7.66 685.96 11.38
11/20/2022 4:15:00 AM 4.04 39.272 0.44 7.68 709.15 11.35
11/20/2022 4:30:00 AM 3.99 39.182 0.44 7.67 737.91 11.29
11/20/2022 4:45:00 AM 3.91 39.038 0.439 7.66 748.46 11.43
11/20/2022 5:00:00 AM 3.9 39.02 0.44 7.68 742.9 11.32
11/20/2022 5:15:00 AM 3.83 38.894 0.44 7.64 771.11 11.35
11/20/2022 5:30:00 AM 3.77 38.786 0.441 7.67 764.37 11.2
11/20/2022 5:45:00 AM 3.72 38.696 0.441 7.67 1214.43 11.25
11/20/2022 6:00:00 AM 3.67 38.606 0.441 7.71 1241.62 11.29
11/20/2022 6:15:00 AM 3.61 38.498 0.441 7.62 1256.62 11.28
11/20/2022 6:30:00 AM 3.54 38.372 0.441 7.65 1267.84 11.23
11/20/2022 6:45:00 AM 3.51 38.318 0.442 7.61 1267.71 11.46
11/20/2022 7:00:00 AM 3.47 38.246 0.442 7.57 1235.49 11.3
11/20/2022 7:15:00 AM 3.43 38.174 0.441 7.65 1225.61 11.49
11/20/2022 7:30:00 AM 3.4 38.12 0.442 7.63 1176.85 11.46
11/20/2022 7:45:00 AM 3.32 37.976 0.442 7.61 1154.53 11.33
11/20/2022 8:00:00 AM 3.3 37.94 0.442 7.61 1087.27 11.35
11/20/2022 8:15:00 AM 3.29 37.922 0.442 7.66 1128.85 11.49
11/20/2022 8:30:00 AM 3.28 37.904 0.442 7.58 1111.03 11.34
11/20/2022 8:45:00 AM 3.28 37.904 0.442 7.63 1131.06 11.56
11/20/2022 9:00:00 AM 3.28 37.904 0.442 7.64 1061.49 11.5
11/20/2022 9:15:00 AM 3.33 37.994 0.442 7.65 1099.47 11.79
11/20/2022 9:30:00 AM 3.36 38.048 0.442 7.66 1053.74 11.94
11/20/2022 9:45:00 AM 3.42 38.156 0.442 7.73 1056.55 11.95
11/20/2022 10:00:00 AM 3.52 38.336 0.442 7.7 1033.85 12
11/20/2022 10:15:00 AM 3.61 38.498 0.442 7.74 1011.41 12.03
11/20/2022 10:30:00 AM 3.73 38.714 0.441 7.74 950.69 12.05
11/20/2022 10:45:00 AM 3.89 39.002 0.441 7.74 917.17 12.12
11/20/2022 11:00:00 AM 3.9 39.02 0.441 7.75 898.04 12.13
11/20/2022 11:15:00 AM 3.98 39.164 0.441 7.78 872.27 12.31
11/20/2022 11:30:00 AM 4.07 39.326 0.442 7.63 908.83 11.77
11/20/2022 11:45:00 AM 4.09 39.362 0.441 7.62 889.26 11.22
11/20/2022 12:00:00 PM 4.14 39.452 0.441 7.66 901.43 11.25
11/20/2022 12:15:00 PM 4.24 39.632 0.441 7.73 904.19 11.7
11/20/2022 12:30:00 PM 4.28 39.704 0.441 7.74 898 11.5
11/20/2022 12:45:00 PM 4.31 39.758 0.441 7.74 822.2 11.89
11/20/2022 1:00:00 PM 4.35 39.83 0.441 7.75 796.96 11.75
11/20/2022 1:15:00 PM 4.37 39.866 0.441 7.71 812.69 11.48
11/20/2022 1:30:00 PM 4.4 39.92 0.441 7.77 795.47 11.55
11/20/2022 1:45:00 PM 4.4 39.92 0.441 7.73 801.78 11.3
11/20/2022 2:00:00 PM 4.41 39.938 0.442 7.76 805.45 11.1
11/20/2022 2:15:00 PM 4.33 39.794 0.441 7.78 806.6 11.06
11/20/2022 2:30:00 PM 4.32 39.776 0.441 7.89 811.75 11.36
11/20/2022 2:45:00 PM 4.25 39.65 0.442 7.85 780.14 11.94
11/20/2022 3:00:00 PM 4.22 39.596 0.443 7.89 783.54 11.75
11/20/2022 3:15:00 PM 4.15 39.47 0.442 7.91 789.08 11.73
11/20/2022 3:30:00 PM 4.07 39.326 0.442 7.91 789.35 11.56
11/20/2022 3:45:00 PM 4.04 39.272 0.442 7.91 784.05 11.44
11/20/2022 4:00:00 PM 3.96 39.128 0.443 7.86 749.62 11.67
11/20/2022 4:15:00 PM 3.89 39.002 0.442 7.84 759.3 11.34
11/20/2022 4:30:00 PM 3.88 38.984 0.443 7.86 764.65 11.79
11/20/2022 4:45:00 PM 3.87 38.966 0.443 7.87 774.96 11.21
11/20/2022 5:00:00 PM 3.82 38.876 0.443 7.77 777.93 10.98
11/20/2022 5:15:00 PM 3.77 38.786 0.442 7.84 923.26 10.68
11/20/2022 5:30:00 PM 3.8 38.84 0.443 7.83 933.55 10.5
11/20/2022 5:45:00 PM 3.75 38.75 0.442 7.79 769.88 10.51
11/20/2022 6:00:00 PM 3.74 38.732 0.442 7.83 763.7 9.9
11/20/2022 6:15:00 PM 3.73 38.714 0.443 7.84 758.63 9.51
11/20/2022 6:30:00 PM 3.7 38.66 0.443 7.84 749.94 9.09
11/20/2022 6:45:00 PM 3.74 38.732 0.443 7.82 757.16 10.17
11/20/2022 7:00:00 PM 3.7 38.66 0.443 7.83 753.95 9.27
11/20/2022 7:15:00 PM 3.69 38.642 0.443 7.76 773.97 9.21
11/20/2022 7:30:00 PM 3.69 38.642 0.443 7.83 1364.38 10.7
11/20/2022 7:45:00 PM 3.67 38.606 0.444 7.8 798.92 9.82
11/20/2022 8:00:00 PM 3.65 38.57 0.443 7.77 983.13 9.96
11/20/2022 8:15:00 PM 3.66 38.588 0.443 7.76 877.18 9.64
11/20/2022 8:30:00 PM 3.61 38.498 0.443 7.77 919.95 9.17
11/20/2022 8:45:00 PM 3.58 38.444 0.443 7.78 923.38 9.98
11/20/2022 9:00:00 PM 3.54 38.372 0.443 7.76 893.98 9.78
11/20/2022 9:15:00 PM 3.5 38.3 0.444 7.81 892.35 10
11/20/2022 9:30:00 PM 3.48 38.264 0.444 7.77 897.09 10.58
11/20/2022 9:45:00 PM 3.43 38.174 0.444 7.81 936.61 10.48
11/20/2022 10:00:00 PM 3.39 38.102 0.445 7.83 884.95 10.66
11/20/2022 10:15:00 PM 3.34 38.012 0.444 7.83 884.44 11.07
11/20/2022 10:30:00 PM 3.32 37.976 0.445 7.83 888.04 10.8
11/20/2022 10:45:00 PM 3.28 37.904 0.446 7.81 888.8 10.42
11/20/2022 11:00:00 PM 3.21 37.778 0.446 7.83 875.77 10.7
11/20/2022 11:15:00 PM 3.18 37.724 0.446 7.83 879.93 10.47
11/20/2022 11:30:00 PM 3.11 37.598 0.446 7.82 861.97 10.39
11/20/2022 11:45:00 PM 3.09 37.562 0.446 7.8 865.36 10.29
11/21/2022 12:00:00 AM 3.07 37.526 0.446 7.77 857.96 10.27
11/21/2022 12:15:00 AM 3.05 37.49 0.446 7.8 858.56 10.06
11/21/2022 12:30:00 AM 3.02 37.436 0.447 7.79 859.59 10.56
11/21/2022 12:45:00 AM 2.97 37.346 0.446 7.74 863.7 10.35
11/21/2022 1:00:00 AM 2.93 37.274 0.447 7.79 855.87 11
11/21/2022 1:15:00 AM 2.87 37.166 0.447 7.8 856.5 10.61
11/21/2022 1:30:00 AM 2.83 37.094 0.447 7.78 849.92 10.36
11/21/2022 1:45:00 AM 2.78 37.004 0.447 7.79 839.86 10.77
11/21/2022 2:00:00 AM 2.77 36.986 0.447 7.77 834.84 10.99
11/21/2022 2:15:00 AM 2.71 36.878 0.447 7.75 826.48 10.61
11/21/2022 2:30:00 AM 2.65 36.77 0.447 7.79 821.42 10.65
11/21/2022 2:45:00 AM 2.65 36.77 0.448 7.8 813.45 10.75
11/21/2022 3:00:00 AM 2.59 36.662 0.447 7.78 794.07 10.71
11/21/2022 3:15:00 AM 2.54 36.572 0.447 7.79 793.29 10.93
11/21/2022 3:30:00 AM 2.51 36.518 0.448 7.77 777.79 10.85
11/21/2022 3:45:00 AM 2.49 36.482 0.448 7.77 778.96 10.8
11/21/2022 4:00:00 AM 2.46 36.428 0.447 7.79 778.54 9.98
11/21/2022 4:15:00 AM 2.45 36.41 0.448 7.77 775.97 9.9
11/21/2022 4:30:00 AM 2.38 36.284 0.448 7.72 770.1 9.91
11/21/2022 4:45:00 AM 2.38 36.284 0.448 7.7 758.29 10.46
11/21/2022 5:00:00 AM 2.32 36.176 0.448 7.65 753.37 10.44
11/21/2022 5:15:00 AM 2.31 36.158 0.448 7.7 751.68 10.43
11/21/2022 5:30:00 AM 2.26 36.068 0.448 7.71 747.89 10.26
11/21/2022 5:45:00 AM 2.23 36.014 0.449 7.62 738.86 9.86
11/21/2022 6:00:00 AM 2.18 35.924 0.448 7.59 724.17 10.83
11/21/2022 6:15:00 AM 2.17 35.906 0.449 7.64 742.37 10.26
11/21/2022 6:30:00 AM 2.07 35.726 0.445 7.66 718.21 10.12
11/21/2022 6:45:00 AM 2.04 35.672 0.449 7.66 702.75 10.71
11/21/2022 7:00:00 AM 2.02 35.636 0.446 7.66 698.28 10.21
11/21/2022 7:15:00 AM 1.97 35.546 0.448 7.66 670.67 10.49
11/21/2022 7:30:00 AM 1.94 35.492 0.449 7.67 662.79 10.59
11/21/2022 7:45:00 AM 1.92 35.456 0.449 7.68 659.73 10.67
11/21/2022 8:00:00 AM 1.92 35.456 0.449 7.68 647.77 10.74
11/21/2022 8:15:00 AM 1.95 35.51 0.449 7.69 625.6 11.06
11/21/2022 8:30:00 AM 1.99 35.582 0.448 7.69 604.57 11.15
11/21/2022 8:45:00 AM 2.06 35.708 0.449 7.72 105.26 11.19
11/21/2022 9:00:00 AM 2.12 35.816 0.446 7.75 75.2 12.9
11/21/2022 9:15:00 AM 2.18 35.924 0.449 7.81 533.57 12.79
11/21/2022 9:30:00 AM 2.26 36.068 0.449 7.84 68.51 12.59
11/21/2022 9:45:00 AM 2.34 36.212 0.449 7.71 68.27 12.95
11/21/2022 10:00:00 AM 2.44 36.392 0.449 7.77 72.7 13.27
11/21/2022 10:15:00 AM 2.57 36.626 0.449 7.74 72.75 13.35
11/21/2022 10:30:00 AM 2.7 36.86 0.448 7.8 72.09 13.31
11/21/2022 10:45:00 AM 2.81 37.058 0.448 7.79 1179.81 13.25
11/21/2022 11:00:00 AM 2.95 37.31 0.448 7.86 873.13 13.45
11/21/2022 11:15:00 AM 3.09 37.562 0.447 7.88 92.87 12.99
11/21/2022 11:30:00 AM 3.21 37.778 0.448 7.89 91.88 13.54
11/21/2022 11:45:00 AM 3.32 37.976 0.447 7.85 91.6 13.65
11/21/2022 12:00:00 PM 3.41 38.138 0.447 7.91 91.17 13.07
11/21/2022 12:15:00 PM 3.52 38.336 0.447 7.87 90.7 13.36
11/21/2022 12:30:00 PM 3.62 38.516 0.447 7.92 90.37 13.59
11/21/2022 12:45:00 PM 3.71 38.678 0.447 7.91 90.11 13.55
11/21/2022 1:00:00 PM 3.79 38.822 0.447 7.93 90 13.53
11/21/2022 1:15:00 PM 3.85 38.93 0.448 7.88 89.78 13.05
11/21/2022 1:30:00 PM 3.89 39.002 0.448 7.93 89.51 13.45
11/21/2022 1:45:00 PM 3.93 39.074 0.448 7.93 89.44 13.34
11/21/2022 2:00:00 PM 3.97 39.146 0.448 7.93 88.87 13.18
11/21/2022 2:15:00 PM 3.93 39.074 0.448 7.93 88.81 13.29
11/21/2022 2:30:00 PM 3.93 39.074 0.448 7.91 88.74 12.87
11/21/2022 2:45:00 PM 3.88 38.984 0.448 7.93 88.6 13.43
11/21/2022 3:00:00 PM 3.85 38.93 0.448 7.89 88.56 13.11
11/21/2022 3:15:00 PM 3.84 38.912 0.449 7.9 123.19 13.22
11/21/2022 3:30:00 PM 3.79 38.822 0.448 7.91 95.62 13.27
11/21/2022 3:45:00 PM 3.75 38.75 0.448 7.92 93.95 13.13
11/21/2022 4:00:00 PM 3.72 38.696 0.448 7.92 93.08 13.38
11/21/2022 4:15:00 PM 3.71 38.678 0.447 7.92 92.51 13.53
11/21/2022 4:30:00 PM 3.66 38.588 0.448 7.91 92.01 13.43
11/21/2022 4:45:00 PM 3.63 38.534 0.448 7.91 91.42 13.39
11/21/2022 5:00:00 PM 3.64 38.552 0.447 7.86 91.15 13.21
11/21/2022 5:15:00 PM 3.6 38.48 0.448 7.89 92.01 13.27
11/21/2022 5:30:00 PM 3.59 38.462 0.448 7.9 91.31 12.69
11/21/2022 5:45:00 PM 3.59 38.462 0.448 7.89 87.74 12.99
11/21/2022 6:00:00 PM 3.6 38.48 0.448 7.89 88.43 12.68
11/21/2022 6:15:00 PM 3.6 38.48 0.448 7.88 88.26 12.72
11/21/2022 6:30:00 PM 3.59 38.462 0.447 7.88 89.04 12.33
11/21/2022 6:45:00 PM 3.61 38.498 0.448 7.88 88.66 12.23
11/21/2022 7:00:00 PM 3.61 38.498 0.448 7.87 89.73 12.76
11/21/2022 7:15:00 PM 3.61 38.498 0.448 7.87 89.64 12.67
11/21/2022 7:30:00 PM 3.61 38.498 0.448 7.87 89.71 12.45
11/21/2022 7:45:00 PM 3.63 38.534 0.448 7.87 89.37 12.6
11/21/2022 8:00:00 PM 3.6 38.48 0.448 7.87 85.04 12.42
11/21/2022 8:15:00 PM 3.59 38.462 0.448 7.86 83.94 12.69
11/21/2022 8:30:00 PM 3.59 38.462 0.448 7.86 83.43 12.34
11/21/2022 8:45:00 PM 3.57 38.426 0.448 7.86 83.09 12.73
11/21/2022 9:00:00 PM 3.55 38.39 0.448 7.86 81.03 12.82
11/21/2022 9:15:00 PM 3.52 38.336 0.448 7.86 97.89 12.78
11/21/2022 9:30:00 PM 3.51 38.318 0.448 7.86 80.54 12.74
11/21/2022 9:45:00 PM 3.47 38.246 0.448 7.86 80.23 12.17
11/21/2022 10:00:00 PM 3.47 38.246 0.448 7.86 80.33 12.49
11/21/2022 10:15:00 PM 3.45 38.21 0.448 7.85 80.36 12.72
11/21/2022 10:30:00 PM 3.42 38.156 0.448 7.85 80.24 12.6
11/21/2022 10:45:00 PM 3.37 38.066 0.448 7.84 80.05 12.67
11/21/2022 11:00:00 PM 3.34 38.012 0.448 7.83 80.32 12.58
11/21/2022 11:15:00 PM 3.31 37.958 0.448 7.83 84.72 12.61
11/21/2022 11:30:00 PM 3.28 37.904 0.448 7.82 80.88 12.68
11/21/2022 11:45:00 PM 3.23 37.814 0.448 7.82 80.39 12.68
11/22/2022 12:00:00 AM 3.18 37.724 0.449 7.78 80.34 12.7
11/22/2022 12:15:00 AM 3.16 37.688 0.448 7.84 80 12.66
11/22/2022 12:30:00 AM 3.11 37.598 0.449 7.84 79.74 12.66
11/22/2022 12:45:00 AM 3.05 37.49 0.449 7.84 79.46 12.63
11/22/2022 1:00:00 AM 3.02 37.436 0.449 7.78 79.37 12.66
11/22/2022 1:15:00 AM 2.99 37.382 0.449 7.83 79.29 12.67
11/22/2022 1:30:00 AM 2.97 37.346 0.449 7.83 79.48 12.64
11/22/2022 1:45:00 AM 2.91 37.238 0.449 7.82 79.47 12.35
11/22/2022 2:00:00 AM 2.86 37.148 0.449 7.83 79.17 12.63
11/22/2022 2:15:00 AM 2.89 37.202 0.449 7.83 79.43 12.5
11/22/2022 2:30:00 AM 2.84 37.112 0.449 7.83 79.3 12.68
11/22/2022 2:45:00 AM 2.79 37.022 0.449 7.83 79.3 12.67
11/22/2022 3:00:00 AM 2.81 37.058 0.449 7.83 79.85 12.63
11/22/2022 3:15:00 AM 2.78 37.004 0.449 7.83 79.53 12.7
11/22/2022 3:30:00 AM 2.74 36.932 0.449 7.83 79.48 12.71
11/22/2022 3:45:00 AM 2.76 36.968 0.45 7.82 79.71 12.64
11/22/2022 4:00:00 AM 2.7 36.86 0.449 7.83 79.5 12.7
11/22/2022 4:15:00 AM 2.69 36.842 0.45 7.82 79.36 12.71
11/22/2022 4:30:00 AM 2.68 36.824 0.45 7.82 79.32 12.64
11/22/2022 4:45:00 AM 2.63 36.734 0.45 7.82 79.03 12.68
11/22/2022 5:00:00 AM 2.63 36.734 0.45 7.82 79.03 12.73
11/22/2022 5:15:00 AM 2.59 36.662 0.45 7.82 79.11 12.76
11/22/2022 5:30:00 AM 2.59 36.662 0.45 7.82 79.27 12.75
11/22/2022 5:45:00 AM 2.54 36.572 0.45 7.82 79.24 12.71
11/22/2022 6:00:00 AM 2.5 36.5 0.45 7.82 78.83 12.67
11/22/2022 6:15:00 AM 2.47 36.446 0.45 7.82 78.72 12.72
11/22/2022 6:30:00 AM 2.45 36.41 0.45 7.82 78.54 12.74
11/22/2022 6:45:00 AM 2.43 36.374 0.45 7.82 79.08 12.73
11/22/2022 7:00:00 AM 2.44 36.392 0.45 7.82 78.82 12.74
11/22/2022 7:15:00 AM 2.4 36.32 0.45 7.82 78.96 12.73
11/22/2022 7:30:00 AM 2.38 36.284 0.45 7.82 79.02 12.83
11/22/2022 7:45:00 AM 2.37 36.266 0.45 7.82 79.01 12.82
11/22/2022 8:00:00 AM 2.38 36.284 0.45 7.83 79.12 12.88
11/22/2022 8:15:00 AM 2.4 36.32 0.45 7.83 79.23 12.92
11/22/2022 8:30:00 AM 2.44 36.392 0.449 7.83 78.86 12.97
11/22/2022 8:45:00 AM 2.52 36.536 0.449 7.84 79.04 13.1
11/22/2022 9:00:00 AM 2.6 36.68 0.449 7.84 79.11 13.15
11/22/2022 9:15:00 AM 2.67 36.806 0.449 7.85 78.87 13.25
11/22/2022 9:30:00 AM 2.75 36.95 0.449 7.86 78.75 13.21
11/22/2022 9:45:00 AM 2.87 37.166 0.449 7.86 78.73 13.24
11/22/2022 10:00:00 AM 2.99 37.382 0.448 7.87 78.74 13.42
11/22/2022 10:15:00 AM 3.13 37.634 0.448 7.88 78.84 13.48
11/22/2022 10:30:00 AM 3.28 37.904 0.448 7.88 78.42 13.47
11/22/2022 10:45:00 AM 3.43 38.174 0.448 7.89 78.67 13.58
11/22/2022 11:00:00 AM 3.58 38.444 0.448 7.9 78.43 13.61
11/22/2022 11:15:00 AM 3.71 38.678 0.447 7.9 78.52 13.58
11/22/2022 11:30:00 AM 3.86 38.948 0.447 7.89 85.25 13.62
11/22/2022 11:45:00 AM 3.99 39.182 0.447 7.9 67.39 13.51
11/22/2022 12:00:00 PM 4.14 39.452 0.447 7.91 74.54 13.53
11/22/2022 12:15:00 PM 4.25 39.65 0.447 7.92 73.1 13.6
11/22/2022 12:30:00 PM 4.41 39.938 0.447 7.92 81.77 13.56
11/22/2022 12:45:00 PM 4.51 40.118 0.447 7.92 3167.85 13.36
11/22/2022 1:00:00 PM 4.59 40.262 0.447 7.93 64.49 13.47
11/22/2022 1:15:00 PM 4.62 40.316 0.447 7.93 60.24 13.25
11/22/2022 1:30:00 PM 4.67 40.406 0.447 7.93 48.26 13.55
11/22/2022 1:45:00 PM 4.69 40.442 0.447 7.93 48.37 13.42
11/22/2022 2:00:00 PM 4.72 40.496 0.447 7.94 48.23 13.43
11/22/2022 2:15:00 PM 4.72 40.496 0.447 7.94 48.32 13.52
11/22/2022 2:30:00 PM 4.71 40.478 0.447 7.94 48.32 13.46
11/22/2022 2:45:00 PM 4.68 40.424 0.447 7.94 48.33 13.33
11/22/2022 3:00:00 PM 4.65 40.37 0.446 7.94 48.27 13.34
11/22/2022 3:15:00 PM 4.63 40.334 0.447 7.93 48.43 13.13
11/22/2022 3:30:00 PM 4.6 40.28 0.447 7.93 89.69 13.26
11/22/2022 3:45:00 PM 4.57 40.226 0.447 7.93 56.6 13.16
11/22/2022 4:00:00 PM 4.54 40.172 0.447 7.93 56.32 13.27
11/22/2022 4:15:00 PM 4.5 40.1 0.446 7.93 56.19 13.24
11/22/2022 4:30:00 PM 4.47 40.046 0.447 7.93 56.05 13.22
11/22/2022 4:45:00 PM 4.45 40.01 0.447 7.92 56.03 12.96
11/22/2022 5:00:00 PM 4.41 39.938 0.447 7.92 56.06 13.05
11/22/2022 5:15:00 PM 4.39 39.902 0.447 7.91 56.16 13
11/22/2022 5:30:00 PM 4.36 39.848 0.447 7.91 55.98 12.72
11/22/2022 5:45:00 PM 4.33 39.794 0.447 7.9 55.85 12.92
11/22/2022 6:00:00 PM 4.29 39.722 0.447 7.9 55.96 12.52
11/22/2022 6:15:00 PM 4.27 39.686 0.447 7.89 55.8 12.5
11/22/2022 6:30:00 PM 4.26 39.668 0.447 7.89 55.73 12.64
11/22/2022 6:45:00 PM 4.24 39.632 0.447 7.88 57.15 12.2
11/22/2022 7:00:00 PM 4.23 39.614 0.447 7.88 55.67 12.55
11/22/2022 7:15:00 PM 4.22 39.596 0.447 7.88 56.35 12.41
11/22/2022 7:30:00 PM 4.24 39.632 0.447 7.87 56.06 12.59
11/22/2022 7:45:00 PM 4.25 39.65 0.447 7.87 56.01 12.47
11/22/2022 8:00:00 PM 4.22 39.596 0.447 7.87 56.04 12.28
11/22/2022 8:15:00 PM 4.24 39.632 0.447 7.87 56.09 12.25
11/22/2022 8:30:00 PM 4.22 39.596 0.447 7.87 56.2 11.59
11/22/2022 8:45:00 PM 4.22 39.596 0.447 7.87 56.34 11.46
11/22/2022 9:00:00 PM 4.18 39.524 0.447 7.87 56.63 12.36
11/22/2022 9:15:00 PM 4.2 39.56 0.447 7.87 56.36 12.35
11/22/2022 9:30:00 PM 4.16 39.488 0.447 7.87 56.24 12.26
11/22/2022 9:45:00 PM 4.12 39.416 0.447 7.86 60.82 12.14
11/22/2022 10:00:00 PM 4.09 39.362 0.448 7.86 60.15 12.35
11/22/2022 10:15:00 PM 4.07 39.326 0.448 7.86 58.38 12.33
11/22/2022 10:30:00 PM 4.04 39.272 0.447 7.86 58.38 12.2
11/22/2022 10:45:00 PM 4.01 39.218 0.448 7.86 58.29 12.28
11/22/2022 11:00:00 PM 3.98 39.164 0.448 7.85 57.17 12.32
11/22/2022 11:15:00 PM 3.94 39.092 0.448 7.85 107.21 12.34
11/22/2022 11:30:00 PM 3.91 39.038 0.448 7.85 105.69 12.13
11/22/2022 11:45:00 PM 3.87 38.966 0.448 7.85 58.56 12.22
11/23/2022 12:00:00 AM 3.85 38.93 0.448 7.84 246.05 12.05
11/23/2022 12:15:00 AM 3.84 38.912 0.448 7.84 66.88 11.75
11/23/2022 12:30:00 AM 3.75 38.75 0.448 7.84 54.55 11.95
11/23/2022 12:45:00 AM 3.73 38.714 0.448 7.84 60.44 11.97
11/23/2022 1:00:00 AM 3.67 38.606 0.448 7.84 59.02 12.07
11/23/2022 1:15:00 AM 3.63 38.534 0.448 7.83 76.02 12.15
11/23/2022 1:30:00 AM 3.6 38.48 0.448 7.83 4646.6 12.03
11/23/2022 1:45:00 AM 3.61 38.498 0.448 7.82 2983.49 12.16
11/23/2022 2:00:00 AM 3.51 38.318 0.449 7.81 290.12 12.32
11/23/2022 2:15:00 AM 3.48 38.264 0.425 7.81 1386.9 12.16
11/23/2022 2:30:00 AM 3.5 38.3 0.448 7.81 60.46 12.12
11/23/2022 2:45:00 AM 3.45 38.21 0.449 7.81 75.21 12.28
11/23/2022 3:00:00 AM 3.43 38.174 0.449 7.8 97.69 12.26
11/23/2022 3:15:00 AM 3.37 38.066 0.448 7.81 70.69 12.19
11/23/2022 3:30:00 AM 3.33 37.994 0.449 7.76 77.69 12.34
11/23/2022 3:45:00 AM 3.28 37.904 0.449 7.81 76.7 12.33
11/23/2022 4:00:00 AM 3.29 37.922 0.448 7.81 76.87 12.23
11/23/2022 4:15:00 AM 3.24 37.832 0.449 7.81 75.81 12.3
11/23/2022 4:30:00 AM 3.21 37.778 0.448 7.81 76.15 12.38
11/23/2022 4:45:00 AM 3.19 37.742 0.448 7.81 74.59 12.42
11/23/2022 5:00:00 AM 3.18 37.724 0.449 7.81 73.96 12.42
11/23/2022 5:15:00 AM 3.18 37.724 0.449 7.8 73.75 12.41
11/23/2022 5:30:00 AM 3.1 37.58 0.449 7.81 72.55 12.38
11/23/2022 5:45:00 AM 3.12 37.616 0.449 7.8 72.46 12.35
11/23/2022 6:00:00 AM 3.08 37.544 0.447 7.8 72.39 12.35
11/23/2022 6:15:00 AM 3.06 37.508 0.447 7.8 72.87 12.42
11/23/2022 6:30:00 AM 3.06 37.508 0.448 7.8 71.67 12.42
11/23/2022 6:45:00 AM 2.98 37.364 0.447 7.8 71.59 12.4
11/23/2022 7:00:00 AM 2.98 37.364 0.446 7.8 71.28 12.36
11/23/2022 7:15:00 AM 2.96 37.328 0.446 7.8 71.37 12.46
11/23/2022 7:30:00 AM 2.93 37.274 0.447 7.8 70.8 12.49
11/23/2022 7:45:00 AM 2.92 37.256 0.447 7.8 72.13 12.44
11/23/2022 8:00:00 AM 2.96 37.328 0.447 7.8 70.99 12.6
11/23/2022 8:15:00 AM 2.99 37.382 0.448 7.81 71.05 12.62
11/23/2022 8:30:00 AM 3.01 37.418 0.447 7.81 70.57 12.67
11/23/2022 8:45:00 AM 3.05 37.49 0.447 7.82 70.49 12.79
11/23/2022 9:00:00 AM 3.14 37.652 0.449 7.82 70.77 12.81
11/23/2022 9:15:00 AM 3.2 37.76 0.448 7.82 70.49 12.84
11/23/2022 9:30:00 AM 3.32 37.976 0.448 7.83 70.38 13
11/23/2022 9:45:00 AM 3.39 38.102 0.448 7.8 70.61 13.05
11/23/2022 10:00:00 AM 3.54 38.372 0.447 7.85 70.13 13.17
11/23/2022 10:15:00 AM 3.71 38.678 0.447 7.86 70.29 13.23
11/23/2022 10:30:00 AM 3.88 38.984 0.447 7.87 70.08 13.29
11/23/2022 10:45:00 AM 4.04 39.272 0.447 7.88 70.04 13.34
11/23/2022 11:00:00 AM 4.2 39.56 0.446 7.88 69.81 13.35
11/23/2022 11:15:00 AM 4.35 39.83 0.446 7.89 70.64 13.43
11/23/2022 11:30:00 AM 4.52 40.136 0.446 7.9 69.9 13.37
11/23/2022 11:45:00 AM 4.66 40.388 0.446 7.9 69.95 13.46
11/23/2022 12:00:00 PM 4.79 40.622 0.446 7.91 69.71 13.33
11/23/2022 12:15:00 PM 4.92 40.856 0.446 7.91 74.41 13.22
11/23/2022 12:30:00 PM 5.03 41.054 0.446 7.92 70.1 13.15
11/23/2022 12:45:00 PM 5.13 41.234 0.446 7.93 69.92 13.27
11/23/2022 1:00:00 PM 5.18 41.324 0.445 7.93 69.67 13.4
11/23/2022 1:15:00 PM 5.28 41.504 0.446 7.94 69.84 13.46
11/23/2022 1:30:00 PM 5.32 41.576 0.445 7.93 69.96 13.32
11/23/2022 1:45:00 PM 5.32 41.576 0.445 7.93 69.75 13.46
11/23/2022 2:00:00 PM 5.38 41.684 0.445 7.93 69.89 13.47
11/23/2022 2:15:00 PM 5.38 41.684 0.445 7.94 69.8 13.47
11/23/2022 2:30:00 PM 5.35 41.63 0.445 7.93 70.21 13.43
11/23/2022 2:45:00 PM 5.34 41.612 0.446 7.88 77.77 13.26
11/23/2022 3:00:00 PM 5.32 41.576 0.446 7.93 77.98 13.18
11/23/2022 3:15:00 PM 5.28 41.504 0.445 7.94 81.61 13.35
11/23/2022 3:30:00 PM 5.24 41.432 0.446 7.92 80.34 13.25
11/23/2022 3:45:00 PM 5.2 41.36 0.446 7.93 80.43 13.2
11/23/2022 4:00:00 PM 5.19 41.342 0.446 7.93 80.5 13.12
11/23/2022 4:15:00 PM 5.15 41.27 0.446 7.92 80.35 12.94
11/23/2022 4:30:00 PM 5.08 41.144 0.446 7.91 80.04 12.75
11/23/2022 4:45:00 PM 5.08 41.144 0.446 7.91 80.29 12.79
11/23/2022 5:00:00 PM 5.03 41.054 0.446 7.9 80.05 12.72
11/23/2022 5:15:00 PM 5 41 0.447 7.89 80.45 12.82
11/23/2022 5:30:00 PM 4.96 40.928 0.447 7.88 80.23 12.64
11/23/2022 5:45:00 PM 4.97 40.946 0.447 7.86 80.6 12.69
11/23/2022 6:00:00 PM 4.96 40.928 0.447 7.86 80.71 12.64
11/23/2022 6:15:00 PM 4.89 40.802 0.447 7.86 81.07 12.69
11/23/2022 6:30:00 PM 4.88 40.784 0.447 7.86 80.29 12.63
11/23/2022 6:45:00 PM 4.88 40.784 0.447 7.85 133.53 12.52
11/23/2022 7:00:00 PM 4.86 40.748 0.447 7.86 110.55 12.53
11/23/2022 7:15:00 PM 4.85 40.73 0.447 7.86 109.46 12.49
11/23/2022 7:30:00 PM 4.84 40.712 0.447 7.86 108.05 12.46
11/23/2022 7:45:00 PM 4.86 40.748 0.447 7.85 108 12.38
11/23/2022 8:00:00 PM 4.82 40.676 0.447 7.84 90.26 12.34
11/23/2022 8:15:00 PM 4.81 40.658 0.447 7.84 88.34 12.27
11/23/2022 8:30:00 PM 4.81 40.658 0.446 7.84 75.7 12.26
11/23/2022 8:45:00 PM 4.81 40.658 0.447 7.84 75.62 12.21
11/23/2022 9:00:00 PM 4.8 40.64 0.447 7.83 75.35 12.16
11/23/2022 9:15:00 PM 4.8 40.64 0.447 7.83 75.28 11.98
11/23/2022 9:30:00 PM 4.79 40.622 0.447 7.84 75.24 12.04
11/23/2022 9:45:00 PM 4.74 40.532 0.447 7.84 75.19 12
11/23/2022 10:00:00 PM 4.72 40.496 0.447 7.84 75.46 11.88
11/23/2022 10:15:00 PM 4.71 40.478 0.447 7.84 75.33 12.12
11/23/2022 10:30:00 PM 4.71 40.478 0.447 7.83 74.87 12.18
11/23/2022 10:45:00 PM 4.65 40.37 0.447 7.83 74.85 12.03
11/23/2022 11:00:00 PM 4.62 40.316 0.447 7.82 74.79 12.09
11/23/2022 11:15:00 PM 4.6 40.28 0.447 7.82 74.53 11.94
11/23/2022 11:30:00 PM 4.58 40.244 0.447 7.81 74.64 11.92
11/23/2022 11:45:00 PM 4.5 40.1 0.447 7.8 74.26 11.91
11/24/2022 12:00:00 AM 4.47 40.046 0.447 7.79 74.2 11.38
11/24/2022 12:15:00 AM 4.43 39.974 0.448 7.81 95.23 11.91
11/24/2022 12:30:00 AM 4.4 39.92 0.448 7.79 95.28 11.7
11/24/2022 12:45:00 AM 4.35 39.83 0.448 7.8 94.93 11.29
11/24/2022 1:00:00 AM 4.28 39.704 0.448 7.79 86.99 11.47
11/24/2022 1:15:00 AM 4.27 39.686 0.448 7.78 87.81 11.06
11/24/2022 1:30:00 AM 4.24 39.632 0.448 7.79 86.81 11.96
11/24/2022 1:45:00 AM 4.17 39.506 0.449 7.79 83.86 12.12
11/24/2022 2:00:00 AM 4.15 39.47 0.448 7.78 77.58 11.95
11/24/2022 2:15:00 AM 4.12 39.416 0.448 7.79 78.77 11.86
11/24/2022 2:30:00 AM 4.06 39.308 0.449 7.79 80.93 11.75
11/24/2022 2:45:00 AM 4.04 39.272 0.447 7.79 82.74 11.8
11/24/2022 3:00:00 AM 4 39.2 0.449 7.8 86.22 11.52
11/24/2022 3:15:00 AM 3.94 39.092 0.449 7.79 120.5 11.48
11/24/2022 3:30:00 AM 3.95 39.11 0.449 7.79 125.59 11.35
11/24/2022 3:45:00 AM 3.93 39.074 0.449 7.79 128.54 11.56
11/24/2022 4:00:00 AM 3.85 38.93 0.449 7.79 131.2 11.84
11/24/2022 4:15:00 AM 3.83 38.894 0.45 7.79 133.23 11.71
11/24/2022 4:30:00 AM 3.76 38.768 0.45 7.78 136.36 11.92
11/24/2022 4:45:00 AM 3.73 38.714 0.45 7.78 139.16 12.01
11/24/2022 5:00:00 AM 3.7 38.66 0.449 7.79 139.75 11.87
11/24/2022 5:15:00 AM 3.65 38.57 0.449 7.78 92.82 11.88
11/24/2022 5:30:00 AM 3.63 38.534 0.449 7.78 89.89 11.91
11/24/2022 5:45:00 AM 3.59 38.462 0.446 7.78 84.71 11.96
11/24/2022 6:00:00 AM 3.56 38.408 0.447 7.77 85.84 11.89
11/24/2022 6:15:00 AM 3.56 38.408 0.449 7.77 195.5 12.04
11/24/2022 6:30:00 AM 3.52 38.336 0.45 7.77 77.41 11.95
11/24/2022 6:45:00 AM 3.5 38.3 0.45 7.76 111.24 11.59
11/24/2022 7:00:00 AM 3.53 38.354 0.45 7.77 200.58 11.5
11/24/2022 7:15:00 AM 3.44 38.192 0.449 7.77 240.07 11.9
11/24/2022 7:30:00 AM 3.46 38.228 0.45 7.75 241.04 11.87
11/24/2022 7:45:00 AM 3.41 38.138 0.449 7.78 242.61 11.17
11/24/2022 8:00:00 AM 3.39 38.102 0.45 7.73 239.77 11.88
11/24/2022 8:15:00 AM 3.42 38.156 0.449 7.79 241.01 12
11/24/2022 8:30:00 AM 3.47 38.246 0.448 7.78 248.91 12.29
11/24/2022 8:45:00 AM 3.51 38.318 0.449 7.78 221.02 12.41
11/24/2022 9:00:00 AM 3.58 38.444 0.448 7.8 218.98 12.44
11/24/2022 9:15:00 AM 3.64 38.552 0.447 7.78 220.83 12.38
11/24/2022 9:30:00 AM 3.73 38.714 0.447 7.81 227.72 12.18
11/24/2022 9:45:00 AM 3.84 38.912 0.447 7.81 334.65 12.52
11/24/2022 10:00:00 AM 3.95 39.11 0.448 7.8 158.61 12.73
11/24/2022 10:15:00 AM 4.08 39.344 0.446 7.79 83.11 12.29
11/24/2022 10:30:00 AM 4.24 39.632 0.446 7.81 87.97 12.94
11/24/2022 10:45:00 AM 4.39 39.902 0.446 7.81 88.15 12.88
11/24/2022 11:00:00 AM 4.54 40.172 0.446 7.82 88.36 13.38
11/24/2022 11:15:00 AM 4.69 40.442 0.446 7.84 88.13 13.41
11/24/2022 11:30:00 AM 4.87 40.766 0.445 7.85 88.15 13.47
11/24/2022 11:45:00 AM 5.04 41.072 0.445 7.87 88.27 13.52
11/24/2022 12:00:00 PM 5.18 41.324 0.444 7.87 88.35 13.49
11/24/2022 12:15:00 PM 5.3 41.54 0.446 7.87 218.36 13.23
11/24/2022 12:30:00 PM 5.36 41.648 0.445 7.87 186.53 13.06
11/24/2022 12:45:00 PM 5.48 41.864 0.441 7.86 216.69 13.02
11/24/2022 1:00:00 PM 5.55 41.99 0.442 7.89 211.05 13.3
11/24/2022 1:15:00 PM 5.6 42.08 0.443 7.89 232.78 13.04
11/24/2022 1:30:00 PM 5.61 42.098 0.443 7.88 227.66 13.11
11/24/2022 1:45:00 PM 5.64 42.152 0.443 7.88 235.57 12.88
11/24/2022 2:00:00 PM 5.7 42.26 0.443 7.88 237.69 13.16
11/24/2022 2:15:00 PM 5.67 42.206 0.443 7.86 235.03 13.12
11/24/2022 2:30:00 PM 5.71 42.278 0.444 7.87 234.49 13.23
11/24/2022 2:45:00 PM 5.7 42.26 0.444 7.87 116.38 13.35
11/24/2022 3:00:00 PM 5.69 42.242 0.445 7.86 71.89 13.39
11/24/2022 3:15:00 PM 5.66 42.188 0.442 7.84 2229.82 13.35
11/24/2022 3:30:00 PM 5.62 42.116 0.445 7.88 2193.77 13.34
11/24/2022 3:45:00 PM 5.59 42.062 0.446 7.9 2158.71 13.03
11/24/2022 4:00:00 PM 5.59 42.062 0.446 7.84 2096.25 12.66
11/24/2022 4:15:00 PM 5.55 41.99 0.446 7.85 2029.1 12.89
11/24/2022 4:30:00 PM 5.54 41.972 0.446 7.88 2006.37 12.68
11/24/2022 4:45:00 PM 5.48 41.864 0.446 7.86 1987.86 12.83
11/24/2022 5:00:00 PM 5.45 41.81 0.446 7.87 1969.85 12.72
11/24/2022 5:15:00 PM 5.41 41.738 0.446 7.86 1922.6 12.55
11/24/2022 5:30:00 PM 5.38 41.684 0.447 7.85 1546.19 12
11/24/2022 5:45:00 PM 5.31 41.558 0.446 7.85 1456.09 12.7
11/24/2022 6:00:00 PM 5.28 41.504 0.447 7.84 1436.06 12.2
11/24/2022 6:15:00 PM 5.28 41.504 0.447 7.82 1426.55 12.48
11/24/2022 6:30:00 PM 5.2 41.36 0.447 7.82 606.28 12.39
11/24/2022 6:45:00 PM 5.18 41.324 0.447 7.84 538.28 11.95
11/24/2022 7:00:00 PM 5.14 41.252 0.447 7.81 500.06 12.2
11/24/2022 7:15:00 PM 5.14 41.252 0.447 7.8 414.64 11.83
11/24/2022 7:30:00 PM 5.12 41.216 0.447 7.82 349.06 11.9
11/24/2022 7:45:00 PM 5.12 41.216 0.447 7.82 859.86 12.08
11/24/2022 8:00:00 PM 5.11 41.198 0.447 7.85 911.25 11.86
11/24/2022 8:15:00 PM 5.13 41.234 0.447 7.79 357.26 12.23
11/24/2022 8:30:00 PM 5.13 41.234 0.446 7.81 255.19 12.17
11/24/2022 8:45:00 PM 5.1 41.18 0.446 7.84 215.51 11.84
11/24/2022 9:00:00 PM 5.12 41.216 0.446 7.81 209.84 12.05
11/24/2022 9:15:00 PM 5.14 41.252 0.447 7.81 203.66 12.05
11/24/2022 9:30:00 PM 5.11 41.198 0.447 7.81 198.84 11.78
11/24/2022 9:45:00 PM 5.13 41.234 0.447 7.75 202.99 11.67
11/24/2022 10:00:00 PM 5.1 41.18 0.447 7.81 196.43 11.91
11/24/2022 10:15:00 PM 5.05 41.09 0.447 7.81 195.04 11.85
11/24/2022 10:30:00 PM 5.05 41.09 0.447 7.78 192.12 11.87
11/24/2022 10:45:00 PM 5.02 41.036 0.447 7.78 189.94 11.85
11/24/2022 11:00:00 PM 5.03 41.054 0.447 7.8 190.27 11.61
11/24/2022 11:15:00 PM 4.98 40.964 0.447 7.81 186.37 11.96
11/24/2022 11:30:00 PM 5 41 0.447 7.8 189.02 11.81
11/24/2022 11:45:00 PM 4.96 40.928 0.447 7.79 183.89 11.54
11/25/2022 12:00:00 AM 4.96 40.928 0.447 7.81 182.85 11.64
11/25/2022 12:15:00 AM 4.95 40.91 0.448 7.82 183.73 11.72
11/25/2022 12:30:00 AM 4.94 40.892 0.448 7.82 158.79 11.63
11/25/2022 12:45:00 AM 4.89 40.802 0.447 7.81 159.89 11.22
11/25/2022 1:00:00 AM 4.88 40.784 0.447 7.79 161.37 11.03
11/25/2022 1:15:00 AM 4.88 40.784 0.448 7.8 159.54 11.22
11/25/2022 1:30:00 AM 4.89 40.802 0.448 7.79 160.75 11.18
11/25/2022 1:45:00 AM 4.87 40.766 0.448 7.79 161.95 10.86
11/25/2022 2:00:00 AM 4.82 40.676 0.448 7.78 162.11 11.34
11/25/2022 2:15:00 AM 4.84 40.712 0.448 7.78 162.24 11.12
11/25/2022 2:30:00 AM 4.86 40.748 0.448 7.78 162.18 10.54
11/25/2022 2:45:00 AM 4.86 40.748 0.448 7.77 161.43 9.89
11/25/2022 3:00:00 AM 4.83 40.694 0.448 7.76 161.1 10.82
11/25/2022 3:15:00 AM 4.86 40.748 0.448 7.78 161.14 10.8
11/25/2022 3:30:00 AM 4.85 40.73 0.448 7.77 160.44 10.36
11/25/2022 3:45:00 AM 4.84 40.712 0.448 7.76 160.27 9.45
11/25/2022 4:00:00 AM 4.87 40.766 0.448 7.77 161.86 10.62
11/25/2022 4:15:00 AM 4.87 40.766 0.448 7.77 162.32 10.62
11/25/2022 4:30:00 AM 4.89 40.802 0.447 7.77 165.26 10.85
11/25/2022 4:45:00 AM 4.91 40.838 0.448 7.77 164.41 10.94
11/25/2022 5:00:00 AM 4.94 40.892 0.447 7.75 164.63 10.64
11/25/2022 5:15:00 AM 4.94 40.892 0.447 7.76 163.88 10.62
11/25/2022 5:30:00 AM 4.97 40.946 0.447 7.75 163.86 11.05
11/25/2022 5:45:00 AM 4.99 40.982 0.447 7.72 164.61 10.37
11/25/2022 6:00:00 AM 5.02 41.036 0.446 7.74 162.92 10.91
11/25/2022 6:15:00 AM 5.01 41.018 0.447 7.76 163.71 11.1
11/25/2022 6:30:00 AM 5.06 41.108 0.447 7.75 162.47 10.93
11/25/2022 6:45:00 AM 5.05 41.09 0.447 7.75 163.37 10.93
11/25/2022 7:00:00 AM 5.04 41.072 0.446 7.75 163.75 11.04
11/25/2022 7:15:00 AM 5.06 41.108 0.447 7.74 163.73 10.78
11/25/2022 7:30:00 AM 5.07 41.126 0.447 7.75 162.12 10.22
11/25/2022 7:45:00 AM 5.08 41.144 0.447 7.75 162.44 10.45
11/25/2022 8:00:00 AM 5.1 41.18 0.447 7.74 165.92 10.84
11/25/2022 8:15:00 AM 5.14 41.252 0.447 7.76 162.58 10.92
11/25/2022 8:30:00 AM 5.15 41.27 0.447 7.76 159.21 11.35
11/25/2022 8:45:00 AM 5.18 41.324 0.447 7.75 159.57 10.86
11/25/2022 9:00:00 AM 5.2 41.36 0.447 7.75 160.23 11.46
11/25/2022 9:15:00 AM 5.23 41.414 0.447 7.75 161.55 11.57
11/25/2022 9:30:00 AM 5.27 41.486 0.447 7.77 159.99 11.6
11/25/2022 9:45:00 AM 5.29 41.522 0.447 7.77 160.86 11.35
11/25/2022 10:00:00 AM 5.35 41.63 0.446 7.78 161.6 11.24
11/25/2022 10:15:00 AM 5.39 41.702 0.446 7.77 161.56 11.06
11/25/2022 10:30:00 AM 5.43 41.774 0.446 7.79 160.33 11.48
11/25/2022 10:45:00 AM 5.48 41.864 0.446 7.78 159.75 11.5
11/25/2022 11:00:00 AM 5.61 42.098 0.446 7.8 159.86 11.73
11/25/2022 11:15:00 AM 5.7 42.26 0.445 7.81 160.16 11.08
11/25/2022 11:30:00 AM 5.84 42.512 0.445 7.81 159.38 11.75
11/25/2022 11:45:00 AM 5.98 42.764 0.445 7.85 158.83 11.72
11/25/2022 12:00:00 PM 6.11 42.998 0.444 7.85 158.27 10.16
11/25/2022 12:15:00 PM 6.22 43.196 0.445 7.85 158.52 11.4
11/25/2022 12:30:00 PM 6.37 43.466 0.444 7.86 159.12 11.18
11/25/2022 12:45:00 PM 6.57 43.826 0.444 7.85 159.94 10.54
11/25/2022 1:00:00 PM 6.63 43.934 0.444 7.87 158.87 10.58
11/25/2022 1:15:00 PM 6.63 43.934 0.444 7.87 158.32 10.25
11/25/2022 1:30:00 PM 6.67 44.006 0.443 7.87 154.06 10.79
11/25/2022 1:45:00 PM 6.69 44.042 0.443 7.87 157.79 10.36
11/25/2022 2:00:00 PM 6.77 44.186 0.443 7.88 157.68 9.99
11/25/2022 2:15:00 PM 6.81 44.258 0.443 7.88 156.75 9.76
11/25/2022 2:30:00 PM 6.82 44.276 0.443 7.85 158.75 10.3
11/25/2022 2:45:00 PM 6.8 44.24 0.443 7.89 159.97 9.96
11/25/2022 3:00:00 PM 6.79 44.222 0.443 7.9 162.98 9.99
11/25/2022 3:15:00 PM 6.79 44.222 0.443 7.9 163.31 11.74
11/25/2022 3:30:00 PM 6.77 44.186 0.443 7.91 166.32 11.72
11/25/2022 3:45:00 PM 6.73 44.114 0.443 7.91 167.76 11.47
11/25/2022 4:00:00 PM 6.68 44.024 0.443 7.92 161.64 12.23
11/25/2022 4:15:00 PM 6.63 43.934 0.443 7.92 163.47 12.26
11/25/2022 4:30:00 PM 6.56 43.808 0.443 7.92 162.83 11.51
11/25/2022 4:45:00 PM 6.54 43.772 0.443 7.91 164.61 11.21
11/25/2022 5:00:00 PM 6.48 43.664 0.443 7.9 170.77 11.65
11/25/2022 5:15:00 PM 6.44 43.592 0.444 7.89 168.33 11.58
11/25/2022 5:30:00 PM 6.38 43.484 0.444 7.85 169.68 10.99
11/25/2022 5:45:00 PM 6.35 43.43 0.444 7.8 166.18 9.74
11/25/2022 6:00:00 PM 6.33 43.394 0.443 7.81 175.69 10.45
11/25/2022 6:15:00 PM 6.33 43.394 0.444 7.74 179.33 10.77
11/25/2022 6:30:00 PM 6.3 43.34 0.444 7.71 181.65 10.27
11/25/2022 6:45:00 PM 6.27 43.286 0.444 7.73 174.05 11.28
11/25/2022 7:00:00 PM 6.25 43.25 0.444 7.7 170.81 10.66
11/25/2022 7:15:00 PM 6.24 43.232 0.444 7.72 166.44 10.01
11/25/2022 7:30:00 PM 6.25 43.25 0.444 7.73 154.93 9.72
11/25/2022 7:45:00 PM 6.22 43.196 0.444 7.73 176.07 10.47
11/25/2022 8:00:00 PM 6.21 43.178 0.443 7.75 174.76 10.69
11/25/2022 8:15:00 PM 6.21 43.178 0.444 7.71 177.52 10.46
11/25/2022 8:30:00 PM 6.22 43.196 0.443 7.72 171.27 9.91
11/25/2022 8:45:00 PM 6.23 43.214 0.444 7.7 181.12 10.07
11/25/2022 9:00:00 PM 6.21 43.178 0.443 7.69 170.68 10.43
11/25/2022 9:15:00 PM 6.22 43.196 0.444 7.71 170.04 10.2
11/25/2022 9:30:00 PM 6.21 43.178 0.443 7.71 170.58 9.68
11/25/2022 9:45:00 PM 6.23 43.214 0.444 7.75 170.45 9.57
11/25/2022 10:00:00 PM 6.25 43.25 0.444 7.75 169.99 8.38
11/25/2022 10:15:00 PM 6.23 43.214 0.443 7.76 170.56 8.89
11/25/2022 10:30:00 PM 6.22 43.196 0.443 7.76 171.67 9.6
11/25/2022 10:45:00 PM 6.19 43.142 0.443 7.73 172.52 9.35
11/25/2022 11:00:00 PM 6.16 43.088 0.443 7.76 171.83 10.41
11/25/2022 11:15:00 PM 6.16 43.088 0.444 7.79 168.78 10.19
11/25/2022 11:30:00 PM 6.12 43.016 0.444 7.75 166.14 10.07
11/25/2022 11:45:00 PM 6.1 42.98 0.444 7.73 168.71 9.29
11/26/2022 12:00:00 AM 6.05 42.89 0.445 7.76 168.03 10.04
11/26/2022 12:15:00 AM 6.04 42.872 0.444 7.76 171.84 9.4
11/26/2022 12:30:00 AM 6.01 42.818 0.444 7.77 180 9.15
11/26/2022 12:45:00 AM 5.97 42.746 0.444 7.78 174.18 8.76
11/26/2022 1:00:00 AM 5.96 42.728 0.444 7.79 175.3 9.35
11/26/2022 1:15:00 AM 5.93 42.674 0.444 7.78 178.47 9.05
11/26/2022 1:30:00 AM 5.94 42.692 0.444 7.8 177.69 9.44
11/26/2022 1:45:00 AM 5.88 42.584 0.444 7.8 177.18 8.47
11/26/2022 2:00:00 AM 5.83 42.494 0.445 7.79 179.18 8.14
11/26/2022 2:15:00 AM 5.77 42.386 0.445 7.78 183.36 8.07
11/26/2022 2:30:00 AM 5.76 42.368 0.445 7.79 167.24 8.9
11/26/2022 2:45:00 AM 5.75 42.35 0.445 7.8 151.6 9.02
11/26/2022 3:00:00 AM 5.76 42.368 0.445 7.79 152.57 8.8
11/26/2022 3:15:00 AM 5.68 42.224 0.445 7.78 163.09 8.95
11/26/2022 3:30:00 AM 5.64 42.152 0.445 7.77 158.02 9.74
11/26/2022 3:45:00 AM 5.64 42.152 0.445 7.78 152.3 9.46
11/26/2022 4:00:00 AM 5.62 42.116 0.445 7.78 156.59 9.21
11/26/2022 4:15:00 AM 5.59 42.062 0.446 7.79 154.12 9.13
11/26/2022 4:30:00 AM 5.53 41.954 0.446 7.78 153.56 7.86
11/26/2022 4:45:00 AM 5.51 41.918 0.445 7.78 153.55 8.18
11/26/2022 5:00:00 AM 5.55 41.99 0.446 7.76 156.34 8.04
11/26/2022 5:15:00 AM 5.49 41.882 0.446 7.73 151.23 8.34
11/26/2022 5:30:00 AM 5.44 41.792 0.446 7.72 153.1 7.73
11/26/2022 5:45:00 AM 5.41 41.738 0.446 7.74 149.9 8.9
11/26/2022 6:00:00 AM 5.38 41.684 0.446 7.75 149.26 10.19
11/26/2022 6:15:00 AM 5.33 41.594 0.446 7.73 148.29 8.36
11/26/2022 6:30:00 AM 5.28 41.504 0.446 7.73 146.18 8.2
11/26/2022 6:45:00 AM 5.29 41.522 0.446 7.76 153.51 8.78
11/26/2022 7:00:00 AM 5.27 41.486 0.446 7.74 148.8 8.6
11/26/2022 7:15:00 AM 5.25 41.45 0.446 7.75 160.44 9.14
11/26/2022 7:30:00 AM 5.21 41.378 0.446 7.71 177.48 9.06
11/26/2022 7:45:00 AM 5.22 41.396 0.446 7.74 157.36 10.34
11/26/2022 8:00:00 AM 5.23 41.414 0.446 7.76 161.25 10.29
11/26/2022 8:15:00 AM 5.24 41.432 0.446 7.76 161.05 8.66
11/26/2022 8:30:00 AM 5.24 41.432 0.446 7.78 157.42 7.83
11/26/2022 8:45:00 AM 5.31 41.558 0.446 7.76 160.44 8.08
11/26/2022 9:00:00 AM 5.39 41.702 0.446 7.77 154.53 9.55
11/26/2022 9:15:00 AM 5.44 41.792 0.446 7.75 152.75 8.76
11/26/2022 9:30:00 AM 5.49 41.882 0.445 7.76 150.37 8.85
11/26/2022 9:45:00 AM 5.56 42.008 0.445 7.77 151.23 9.4
11/26/2022 10:00:00 AM 5.69 42.242 0.445 7.78 151.32 9.4
11/26/2022 10:15:00 AM 5.81 42.458 0.445 7.78 151.04 9.71
11/26/2022 10:30:00 AM 5.93 42.674 0.445 7.73 147.85 9.6
11/26/2022 10:45:00 AM 6.06 42.908 0.444 7.81 149.07 9.83
11/26/2022 11:00:00 AM 6.2 43.16 0.444 7.85 147.95 10.45
11/26/2022 11:15:00 AM 6.32 43.376 0.444 7.87 149.6 9.34
11/26/2022 11:30:00 AM 6.47 43.646 0.444 7.85 147.24 9.68
11/26/2022 11:45:00 AM 6.58 43.844 0.444 7.84 144.79 9.82
11/26/2022 12:00:00 PM 6.71 44.078 0.444 7.82 149.3 10.85
11/26/2022 12:15:00 PM 6.83 44.294 0.444 7.84 151.56 10.82
11/26/2022 12:30:00 PM 6.92 44.456 0.444 7.83 151.71 11.86
11/26/2022 12:45:00 PM 7.02 44.636 0.443 7.84 151.98 10.02
11/26/2022 1:00:00 PM 7.07 44.726 0.443 7.87 150.6 9.79
11/26/2022 1:15:00 PM 7.13 44.834 0.443 7.9 150.33 10.52
11/26/2022 1:30:00 PM 7.15 44.87 0.443 7.92 148.51 10.76
11/26/2022 1:45:00 PM 7.19 44.942 0.443 7.88 145.5 8.66
11/26/2022 2:00:00 PM 7.2 44.96 0.443 7.88 146.49 9.05
11/26/2022 2:15:00 PM 7.18 44.924 0.443 7.9 147.56 11.61
11/26/2022 2:30:00 PM 7.18 44.924 0.443 7.9 144.85 10.16
11/26/2022 2:45:00 PM 7.15 44.87 0.443 7.87 146.04 9.74
11/26/2022 3:00:00 PM 7.08 44.744 0.444 7.87 146.01 8.69
11/26/2022 3:15:00 PM 7.03 44.654 0.443 7.89 145.53 9.27
11/26/2022 3:30:00 PM 7.01 44.618 0.444 7.88 142.52 9.8
11/26/2022 3:45:00 PM 6.92 44.456 0.444 7.89 142.46 9.6
11/26/2022 4:00:00 PM 6.9 44.42 0.444 7.88 144.6 9.96
11/26/2022 4:15:00 PM 6.85 44.33 0.444 7.89 150.78 9.91
11/26/2022 4:30:00 PM 6.81 44.258 0.445 7.91 147.66 11.4
11/26/2022 4:45:00 PM 6.77 44.186 0.445 7.87 152.23 9.78
11/26/2022 5:00:00 PM 6.74 44.132 0.445 7.88 142.84 9.46
11/26/2022 5:15:00 PM 6.69 44.042 0.445 7.88 141.55 10.29
11/26/2022 5:30:00 PM 6.63 43.934 0.445 7.88 143.26 10.26
11/26/2022 5:45:00 PM 6.58 43.844 0.445 7.87 147.34 9.3
11/26/2022 6:00:00 PM 6.51 43.718 0.445 7.84 148.47 8.29
11/26/2022 6:15:00 PM 6.47 43.646 0.445 7.81 147.1 8.45
11/26/2022 6:30:00 PM 6.43 43.574 0.445 7.79 143.5 9.36
11/26/2022 6:45:00 PM 6.42 43.556 0.445 7.77 139.81 9.11
11/26/2022 7:00:00 PM 6.38 43.484 0.445 7.77 136.69 9.79
11/26/2022 7:15:00 PM 6.39 43.502 0.446 7.77 137.81 8.66
11/26/2022 7:30:00 PM 6.33 43.394 0.445 7.75 145.15 8.86
11/26/2022 7:45:00 PM 6.33 43.394 0.445 7.74 145.35 9.33
11/26/2022 8:00:00 PM 6.32 43.376 0.445 7.74 142.09 8.44
11/26/2022 8:15:00 PM 6.32 43.376 0.445 7.75 143.77 8.46
11/26/2022 8:30:00 PM 6.33 43.394 0.445 7.75 143.49 7.89
11/26/2022 8:45:00 PM 6.28 43.304 0.446 7.79 472.8 8.33
11/26/2022 9:00:00 PM 6.27 43.286 0.446 7.76 566.51 7.82
11/26/2022 9:15:00 PM 6.28 43.304 0.446 7.75 397.73 7.5
11/26/2022 9:30:00 PM 6.26 43.268 0.446 7.77 487.19 7.67
11/26/2022 9:45:00 PM 6.25 43.25 0.445 7.74 451.66 7.65
11/26/2022 10:00:00 PM 6.22 43.196 0.446 7.79 359.26 7.81
11/26/2022 10:15:00 PM 6.16 43.088 0.446 7.76 366.2 7.83
11/26/2022 10:30:00 PM 6.15 43.07 0.446 7.78 374.57 7.76
11/26/2022 10:45:00 PM 6.11 42.998 0.446 7.79 377.25 6.59
11/26/2022 11:00:00 PM 6.1 42.98 0.447 7.82 381.78 8.81
11/26/2022 11:15:00 PM 6.11 42.998 0.446 7.78 391.35 8.46
11/26/2022 11:30:00 PM 6.06 42.908 0.447 7.8 380.86 8.57
11/26/2022 11:45:00 PM 6.03 42.854 0.446 7.78 389.19 7.44
11/27/2022 12:00:00 AM 5.99 42.782 0.446 7.73 406.39 8.04
11/27/2022 12:15:00 AM 5.98 42.764 0.446 7.71 413.89 9.09
11/27/2022 12:30:00 AM 5.99 42.782 0.446 7.74 408.11 8.58
11/27/2022 12:45:00 AM 5.94 42.692 0.447 7.72 413.6 8.9
11/27/2022 1:00:00 AM 5.92 42.656 0.447 7.69 413.14 9.07
11/27/2022 1:15:00 AM 5.92 42.656 0.447 7.69 426.5 8.04
11/27/2022 1:30:00 AM 5.87 42.566 0.447 7.69 415.8 8.9
11/27/2022 1:45:00 AM 5.87 42.566 0.448 7.7 412.12 8.28
11/27/2022 2:00:00 AM 5.85 42.53 0.448 7.72 416.63 8.91
11/27/2022 2:15:00 AM 5.81 42.458 0.448 7.74 416.36 7.97
11/27/2022 2:30:00 AM 5.77 42.386 0.448 7.73 406.56 8.74
11/27/2022 2:45:00 AM 5.75 42.35 0.448 7.72 396.69 8.19
11/27/2022 3:00:00 AM 5.74 42.332 0.448 7.71 375.76 8.28
11/27/2022 3:15:00 AM 5.69 42.242 0.448 7.75 371.08 8.49
11/27/2022 3:30:00 AM 5.68 42.224 0.448 7.76 357.8 8.19
11/27/2022 3:45:00 AM 5.66 42.188 0.448 7.76 370.57 8.23
11/27/2022 4:00:00 AM 5.66 42.188 0.448 7.76 376.26 8.01
11/27/2022 4:15:00 AM 5.62 42.116 0.448 7.74 373.61 9.14
11/27/2022 4:30:00 AM 5.64 42.152 0.448 7.68 386.3 8.62
11/27/2022 4:45:00 AM 5.6 42.08 0.448 7.68 390.1 8.23
11/27/2022 5:00:00 AM 5.6 42.08 0.449 7.66 389.53 8.46
11/27/2022 5:15:00 AM 5.63 42.134 0.448 7.68 405.04 8.74
11/27/2022 5:30:00 AM 5.59 42.062 0.448 7.66 376.76 9.13
11/27/2022 5:45:00 AM 5.63 42.134 0.449 7.67 392.82 9.91
11/27/2022 6:00:00 AM 5.64 42.152 0.448 7.69 391.68 8.84
11/27/2022 6:15:00 AM 5.64 42.152 0.449 7.68 406.43 7.48
11/27/2022 6:30:00 AM 5.63 42.134 0.449 7.68 394.14 10.32
11/27/2022 6:45:00 AM 5.65 42.17 0.449 7.68 407.31 10.11
11/27/2022 7:00:00 AM 5.65 42.17 0.449 7.68 375.87 9.36
11/27/2022 7:15:00 AM 5.62 42.116 0.449 7.68 357.76 9.4
11/27/2022 7:30:00 AM 5.63 42.134 0.449 7.65 353.61 9.33
11/27/2022 7:45:00 AM 5.65 42.17 0.449 7.66 357.86 9.66
11/27/2022 8:00:00 AM 5.63 42.134 0.449 7.66 368.92 9.16
11/27/2022 8:15:00 AM 5.65 42.17 0.449 7.69 390.97 8.45
11/27/2022 8:30:00 AM 5.66 42.188 0.449 7.67 371.45 7.45
11/27/2022 8:45:00 AM 5.7 42.26 0.448 7.67 378.2 7.08
11/27/2022 9:00:00 AM 5.73 42.314 0.448 7.67 383.1 7.31
11/27/2022 9:15:00 AM 5.77 42.386 0.448 7.68 429.42 6.89
11/27/2022 9:30:00 AM 5.83 42.494 0.448 7.67 408.72 8.45
11/27/2022 9:45:00 AM 5.92 42.656 0.448 7.68 398.55 7.26
11/27/2022 10:00:00 AM 5.94 42.692 0.448 7.67 408.64 6.87
11/27/2022 10:15:00 AM 6 42.8 0.447 7.72 406.26 7.01
11/27/2022 10:30:00 AM 6.04 42.872 0.447 7.69 411.16 7.56
11/27/2022 10:45:00 AM 6.08 42.944 0.446 7.71 398.57 7.54
11/27/2022 11:00:00 AM 6.11 42.998 0.444 7.73 402.83 7.43
11/27/2022 11:15:00 AM 6.14 43.052 0.443 7.72 411.64 7.81
11/27/2022 11:30:00 AM 6.17 43.106 0.442 7.76 405.44 8.45
11/27/2022 11:45:00 AM 6.19 43.142 0.442 7.7 415.09 8.41
11/27/2022 12:00:00 PM 6.2 43.16 0.441 7.72 411.49 8.89
11/27/2022 12:15:00 PM 6.21 43.178 0.44 7.73 416.4 8.57
11/27/2022 12:30:00 PM 6.23 43.214 0.441 7.7 412.99 9.14
11/27/2022 12:45:00 PM 6.22 43.196 0.44 7.72 421.73 8.21
11/27/2022 1:00:00 PM 6.23 43.214 0.439 7.72 425.17 8.35
11/27/2022 1:15:00 PM 6.24 43.232 0.438 7.7 433.99 8.22
11/27/2022 1:30:00 PM 6.25 43.25 0.439 7.71 425.26 9.33
11/27/2022 1:45:00 PM 6.26 43.268 0.439 7.7 424.36 8.56
11/27/2022 2:00:00 PM 6.28 43.304 0.439 7.71 451.16 9.54
11/27/2022 2:15:00 PM 6.31 43.358 0.439 7.72 431.81 8.75
11/27/2022 2:30:00 PM 6.33 43.394 0.439 7.72 417.44 8.35
11/27/2022 2:45:00 PM 6.34 43.412 0.439 7.77 425.97 7.4
11/27/2022 3:00:00 PM 6.37 43.466 0.438 7.73 425.56 9.36
11/27/2022 3:15:00 PM 6.4 43.52 0.438 7.72 430.22 9.17
11/27/2022 3:30:00 PM 6.43 43.574 0.438 7.73 434.51 10.16
11/27/2022 3:45:00 PM 6.47 43.646 0.438 7.75 451.16 11.4
11/27/2022 4:00:00 PM 6.49 43.682 0.437 7.74 468.31 10.06
11/27/2022 4:15:00 PM 6.51 43.718 0.437 7.77 457.32 9.91
11/27/2022 4:30:00 PM 6.54 43.772 0.437 7.79 437.42 8.98
11/27/2022 4:45:00 PM 6.55 43.79 0.437 7.79 1290.86 8.7
11/27/2022 5:00:00 PM 6.57 43.826 0.436 7.77 1315.71 9.5
11/27/2022 5:15:00 PM 6.58 43.844 0.436 7.72 901.96 10.02
11/27/2022 5:30:00 PM 6.6 43.88 0.436 7.75 1100.03 8.13
11/27/2022 5:45:00 PM 6.61 43.898 0.435 7.73 1066.97 8.33
11/27/2022 6:00:00 PM 6.62 43.916 0.435 7.75 934.22 8.02
11/27/2022 6:15:00 PM 6.63 43.934 0.434 7.75 890.59 9.75
11/27/2022 6:30:00 PM 6.65 43.97 0.433 7.71 857.28 9.63
11/27/2022 6:45:00 PM 6.68 44.024 0.433 7.73 800.89 10.05
11/27/2022 7:00:00 PM 6.69 44.042 0.432 7.73 770.91 9.98
11/27/2022 7:15:00 PM 6.71 44.078 0.432 7.72 772.32 9.61
11/27/2022 7:30:00 PM 6.73 44.114 0.431 7.72 814.59 9.78
11/27/2022 7:45:00 PM 6.75 44.15 0.431 7.74 777.53 9.87
11/27/2022 8:00:00 PM 6.77 44.186 0.43 7.73 689.08 9.59
11/27/2022 8:15:00 PM 6.79 44.222 0.43 7.74 698.97 8.56
11/27/2022 8:30:00 PM 6.82 44.276 0.43 7.76 647.52 8.92
11/27/2022 8:45:00 PM 6.82 44.276 0.429 7.74 637.74 9.04
11/27/2022 9:00:00 PM 6.82 44.276 0.429 7.75 722.29 8
11/27/2022 9:15:00 PM 6.8 44.24 0.429 7.75 891.89 8.14
11/27/2022 9:30:00 PM 6.79 44.222 0.429 7.73 703.94 7.24
11/27/2022 9:45:00 PM 6.77 44.186 0.428 7.76 721.97 6.89
11/27/2022 10:00:00 PM 6.77 44.186 0.428 7.76 727 8.21
11/27/2022 10:15:00 PM 6.78 44.204 0.427 7.75 722.94 7.56
11/27/2022 10:30:00 PM 6.79 44.222 0.427 7.76 713.34 7.36
11/27/2022 10:45:00 PM 6.8 44.24 0.426 7.76 704.74 6.94
11/27/2022 11:00:00 PM 6.8 44.24 0.426 7.73 654.2 7.1
11/27/2022 11:15:00 PM 6.79 44.222 0.426 7.72 649.79 6.94
11/27/2022 11:30:00 PM 6.79 44.222 0.425 7.72 2275.46 5.9
11/27/2022 11:45:00 PM 6.8 44.24 0.425 7.7 1190.69 6.28
11/28/2022 12:00:00 AM 6.81 44.258 0.424 7.73 4312.58 6.52
11/28/2022 12:15:00 AM 6.82 44.276 0.424 7.71 978.08 6.94
11/28/2022 12:30:00 AM 6.82 44.276 0.424 7.76 937.87 7.46
11/28/2022 12:45:00 AM 6.83 44.294 0.424 7.74 922.07 7.47
11/28/2022 1:00:00 AM 6.84 44.312 0.423 7.71 913.79 7.78
11/28/2022 1:15:00 AM 6.86 44.348 0.423 7.73 1143.01 8.2
11/28/2022 1:30:00 AM 6.87 44.366 0.423 7.7 1130.72 8.83
11/28/2022 1:45:00 AM 6.86 44.348 0.422 7.72 1070.69 8.25
11/28/2022 2:00:00 AM 6.89 44.402 0.422 7.73 961.28 8.71
11/28/2022 2:15:00 AM 6.88 44.384 0.422 7.71 963.07 8.56
11/28/2022 2:30:00 AM 6.89 44.402 0.421 7.71 1069.03 8.75
11/28/2022 2:45:00 AM 6.9 44.42 0.421 7.71 1110.69 8.8
11/28/2022 3:00:00 AM 6.91 44.438 0.42 7.69 1089 7.67
11/28/2022 3:15:00 AM 6.93 44.474 0.42 7.71 1084.5 8.26
11/28/2022 3:30:00 AM 6.95 44.51 0.419 7.7 1035.5 8.76
11/28/2022 3:45:00 AM 6.96 44.528 0.419 7.68 968.71 8.49
11/28/2022 4:00:00 AM 6.98 44.564 0.418 7.69 1036.09 8.64
11/28/2022 4:15:00 AM 6.99 44.582 0.418 7.72 1007.4 8.69
11/28/2022 4:30:00 AM 6.99 44.582 0.418 7.68 1096.04 8.56
11/28/2022 4:45:00 AM 7 44.6 0.417 7.63 990.56 7.64
11/28/2022 5:00:00 AM 7.01 44.618 0.417 7.69 1093.13 8.13
11/28/2022 5:15:00 AM 7.05 44.69 0.417 7.68 774.75 7.91
11/28/2022 5:30:00 AM 7.05 44.69 0.417 7.67 251.6 7.56
11/28/2022 5:45:00 AM 7.07 44.726 0.417 7.71 775.91 7.29
11/28/2022 6:00:00 AM 7.1 44.78 0.416 7.66 926.12 7.84
11/28/2022 6:15:00 AM 7.12 44.816 0.416 7.72 1364.65 7.67
11/28/2022 6:30:00 AM 7.13 44.834 0.416 7.64 1726.05 6.88
11/28/2022 6:45:00 AM 7.15 44.87 0.416 7.72 2064.66 8.2
11/28/2022 7:00:00 AM 7.17 44.906 0.416 7.69 3261.47 8.55
11/28/2022 7:15:00 AM 7.18 44.924 0.416 7.72 3418.48 8.01
11/28/2022 7:30:00 AM 7.18 44.924 0.416 7.71 3913.34 8.37
11/28/2022 7:45:00 AM 7.18 44.924 0.416 7.73 3704.87 7.7
11/28/2022 8:00:00 AM 7.19 44.942 0.415 7.71 3918.35 8.11
11/28/2022 8:15:00 AM 7.19 44.942 0.415 7.67 3061.23 6.73
11/28/2022 8:30:00 AM 7.19 44.942 0.415 7.65 3343.72 5.96
11/28/2022 8:45:00 AM 7.2 44.96 0.415 7.65 3841.4 7.37
11/28/2022 9:00:00 AM 7.21 44.978 0.414 7.68 3727.09 7.22
11/28/2022 9:15:00 AM 7.23 45.014 0.414 7.66 3716.83 6.84
11/28/2022 9:30:00 AM 7.31 45.158 0.414 7.68 3470.62 7.71
11/28/2022 9:45:00 AM 7.36 45.248 0.414 7.75 3467.18 7.82
11/28/2022 10:00:00 AM 7.41 45.338 0.413 7.75 3296.52 7.42
11/28/2022 10:15:00 AM 7.46 45.428 0.412 7.73 3710.79 7.06
11/28/2022 10:30:00 AM 7.51 45.518 0.412 7.76 4345.51 8.27
11/28/2022 10:45:00 AM 7.6 45.68 0.412 7.8 4725.25 10.5
11/28/2022 11:00:00 AM 7.72 45.896 0.411 7.78 4299.99 9.64
11/28/2022 11:15:00 AM 7.8 46.04 0.411 7.8 4425.49 10.39
11/28/2022 11:30:00 AM 7.85 46.13 0.411 7.84 4551.63 10.14
11/28/2022 11:45:00 AM 7.92 46.256 0.411 7.87 4423.49 10.05
11/28/2022 12:00:00 PM 7.97 46.346 0.411 7.76 4394.36 10.5
11/28/2022 12:15:00 PM 8.02 46.436 0.41 7.76 5251 10.03
11/28/2022 12:30:00 PM 8.01 46.418 0.41 7.78 4988.92 10.42
11/28/2022 12:45:00 PM 8.02 46.436 0.41 7.8 4982.5 10.61
11/28/2022 1:00:00 PM 8.05 46.49 0.411 7.8 5285.98 9.95
11/28/2022 1:15:00 PM 8.05 46.49 0.411 7.81 5332.38 9.35
11/28/2022 1:30:00 PM 8.03 46.454 0.411 7.81 5652.27 9.18
11/28/2022 1:45:00 PM 8 46.4 0.41 7.78 3371.96 10.51
11/28/2022 2:00:00 PM 8 46.4 0.411 7.78 3421.4 10.17
11/28/2022 2:15:00 PM 7.99 46.382 0.41 7.81 2411.37 10.02
11/28/2022 2:30:00 PM 8 46.4 0.411 7.79 2856.55 9.09
11/28/2022 2:45:00 PM 8.02 46.436 0.411 7.76 2889.91 8.55
11/28/2022 3:00:00 PM 8 46.4 0.411 7.81 2497.72 7.85
11/28/2022 3:15:00 PM 8.06 46.508 0.411 7.84 2526.72 7.8
11/28/2022 3:30:00 PM 8.07 46.526 0.411 7.83 2973.09 7.8
11/28/2022 3:45:00 PM 8.09 46.562 0.411 7.83 2429.82 8.14
11/28/2022 4:00:00 PM 8.1 46.58 0.411 7.8 2385.48 8.06
11/28/2022 4:15:00 PM 8.08 46.544 0.411 7.77 1462.6 7.86
11/28/2022 4:30:00 PM 8.08 46.544 0.411 7.82 1854.82 7.7
11/28/2022 4:45:00 PM 8.06 46.508 0.411 7.85 1922.95 7.8
11/28/2022 5:00:00 PM 8.08 46.544 0.411 7.89 1583.33 7.69
11/28/2022 5:15:00 PM 8.03 46.454 0.411 7.94 1830.59 8.79
11/28/2022 5:30:00 PM 7.98 46.364 0.412 7.92 1968.46 9.22
11/28/2022 5:45:00 PM 7.96 46.328 0.411 7.91 1510.53 9.02
11/28/2022 6:00:00 PM 7.96 46.328 0.412 7.9 1472.88 8.17
11/28/2022 6:15:00 PM 7.93 46.274 0.411 7.92 1447.43 8.72
11/28/2022 6:30:00 PM 7.93 46.274 0.412 7.87 1578.28 8.41
11/28/2022 6:45:00 PM 7.92 46.256 0.412 7.84 1684.5 7.11
11/28/2022 7:00:00 PM 7.91 46.238 0.412 7.82 2015.07 7.28
11/28/2022 7:15:00 PM 7.89 46.202 0.412 7.82 2320.85 6.85
11/28/2022 7:30:00 PM 7.89 46.202 0.412 7.84 2449.73 6.55
11/28/2022 7:45:00 PM 7.89 46.202 0.412 7.84 2640.65 6.24
11/28/2022 8:00:00 PM 7.88 46.184 0.412 7.83 2908.83 5.23
11/28/2022 8:15:00 PM 7.89 46.202 0.412 7.84 3158.03 4.79
11/28/2022 8:30:00 PM 7.92 46.256 0.412 7.83 3032.64 5.7
11/28/2022 8:45:00 PM 7.88 46.184 0.412 7.83 2668.42 5.3
11/28/2022 9:00:00 PM 7.86 46.148 0.413 7.81 2590.46 6.82
11/28/2022 9:15:00 PM 7.85 46.13 0.413 7.81 2548.26 6.16
11/28/2022 9:30:00 PM 7.79 46.022 0.413 7.77 2520.31 6.07
11/28/2022 9:45:00 PM 7.78 46.004 0.413 7.8 2471.79 6.62
11/28/2022 10:00:00 PM 7.74 45.932 0.413 7.79 2541.94 6.27
11/28/2022 10:15:00 PM 7.68 45.824 0.413 7.79 2521.98 6.08
11/28/2022 10:30:00 PM 7.61 45.698 0.413 7.74 2573.03 6.46
11/28/2022 10:45:00 PM 7.56 45.608 0.414 7.77 2574.65 6.79
11/28/2022 11:00:00 PM 7.47 45.446 0.414 7.78 2485.35 7.38
11/28/2022 11:15:00 PM 7.42 45.356 0.414 7.78 2493.77 7.27
11/28/2022 11:30:00 PM 7.39 45.302 0.415 7.78 2503.33 7.32
11/28/2022 11:45:00 PM 7.34 45.212 0.415 7.76 1691.99 7.39
11/29/2022 12:00:00 AM 7.29 45.122 0.415 7.76 1703.67 7.09
11/29/2022 12:15:00 AM 7.18 44.924 0.415 7.76 1743.72 5.74
11/29/2022 12:30:00 AM 7.13 44.834 0.415 7.75 1788.31 6.23
11/29/2022 12:45:00 AM 7.11 44.798 0.415 7.74 1829.66 7
11/29/2022 1:00:00 AM 7.03 44.654 0.416 7.76 1475.9 7.09
11/29/2022 1:15:00 AM 6.98 44.564 0.416 7.75 1531.16 7.34
11/29/2022 1:30:00 AM 6.93 44.474 0.416 7.75 1529.82 7.63
11/29/2022 1:45:00 AM 6.89 44.402 0.416 7.75 1519.96 7.21
11/29/2022 2:00:00 AM 6.84 44.312 0.417 7.75 1743.27 7.07
11/29/2022 2:15:00 AM 6.8 44.24 0.417 7.74 1341.59 7.34
11/29/2022 2:30:00 AM 6.76 44.168 0.417 7.76 1646.26 7.56
11/29/2022 2:45:00 AM 6.73 44.114 0.417 7.75 1555.18 7.05
11/29/2022 3:00:00 AM 6.69 44.042 0.417 7.75 1469.23 7.36
11/29/2022 3:15:00 AM 6.66 43.988 0.418 7.74 1463.44 6.61
11/29/2022 3:30:00 AM 6.64 43.952 0.418 7.74 1472.24 7.45
11/29/2022 3:45:00 AM 6.6 43.88 0.419 7.74 1472.02 6.06
11/29/2022 4:00:00 AM 6.54 43.772 0.419 7.75 1511.3 6.89
11/29/2022 4:15:00 AM 6.49 43.682 0.419 7.74 1543.15 6.86
11/29/2022 4:30:00 AM 6.46 43.628 0.42 7.7 1512.91 6.29
11/29/2022 4:45:00 AM 6.4 43.52 0.419 7.69 1404.05 5.53
11/29/2022 5:00:00 AM 6.39 43.502 0.42 7.68 1299.45 4.31
11/29/2022 5:15:00 AM 6.33 43.394 0.42 7.7 975.28 5.28
11/29/2022 5:30:00 AM 6.28 43.304 0.42 7.7 774.88 3.87
11/29/2022 5:45:00 AM 6.25 43.25 0.42 7.71 828.73 5.38
11/29/2022 6:00:00 AM 6.25 43.25 0.42 7.71 836.37 6.4
11/29/2022 6:15:00 AM 6.19 43.142 0.42 7.7 744.41 7.7
11/29/2022 6:30:00 AM 6.18 43.124 0.42 7.71 747.88 7.65
11/29/2022 6:45:00 AM 6.17 43.106 0.421 7.71 812.88 6.58
11/29/2022 7:00:00 AM 6.15 43.07 0.421 7.71 762.7 7.22
11/29/2022 7:15:00 AM 6.13 43.034 0.421 7.74 733.99 7.25
11/29/2022 7:30:00 AM 6.13 43.034 0.421 7.73 1177.6 8.65
11/29/2022 7:45:00 AM 6.13 43.034 0.421 7.75 1064.69 8.88
11/29/2022 8:00:00 AM 6.11 42.998 0.421 7.75 1024.61 8.85
11/29/2022 8:15:00 AM 6.14 43.052 0.421 7.76 1014.12 9.02
11/29/2022 8:30:00 AM 6.15 43.07 0.421 7.76 990.21 8.29
11/29/2022 8:45:00 AM 6.18 43.124 0.422 7.77 1166.15 7.84
11/29/2022 9:00:00 AM 6.21 43.178 0.422 7.77 1119.31 5.5
11/29/2022 9:15:00 AM 6.28 43.304 0.422 7.77 1112.35 5.77
11/29/2022 9:30:00 AM 6.33 43.394 0.421 7.78 1082.04 5.44
11/29/2022 9:45:00 AM 6.39 43.502 0.422 7.79 1061.54 7.24
11/29/2022 10:00:00 AM 6.47 43.646 0.421 7.8 1063.85 3.59
11/29/2022 10:15:00 AM 6.54 43.772 0.421 7.82 1109.95 6.5
11/29/2022 10:30:00 AM 6.66 43.988 0.421 7.84 1095.43 7.27
11/29/2022 10:45:00 AM 6.71 44.078 0.421 7.84 1069.87 8.77
11/29/2022 11:00:00 AM 6.77 44.186 0.422 7.84 1022.11 9.98
11/29/2022 11:15:00 AM 6.82 44.276 0.422 7.83 1013.41 7.92
11/29/2022 11:30:00 AM 6.9 44.42 0.422 7.87 1021.08 7.75
11/29/2022 11:45:00 AM 6.97 44.546 0.422 7.88 1020.15 7.97
11/29/2022 12:00:00 PM 7.03 44.654 0.422 7.9 998.32 7.71
11/29/2022 12:15:00 PM 7.09 44.762 0.422 7.9 988.3 8.29
11/29/2022 12:30:00 PM 7.16 44.888 0.422 7.86 996.3 7.95
11/29/2022 12:45:00 PM 7.24 45.032 0.422 7.86 994.59 6.39
11/29/2022 1:00:00 PM 7.28 45.104 0.422 7.85 990.87 5.67
11/29/2022 1:15:00 PM 7.3 45.14 0.422 7.84 986.6 6.45
11/29/2022 1:30:00 PM 7.36 45.248 0.422 7.85 975.55 3.82
11/29/2022 1:45:00 PM 7.39 45.302 0.422 7.84 925.15 4.28
11/29/2022 2:00:00 PM 7.39 45.302 0.423 7.84 937.84 3.33
11/29/2022 2:15:00 PM 7.36 45.248 0.422 7.84 910.86 5.4
11/29/2022 2:30:00 PM 7.33 45.194 0.423 7.83 927.06 5.16
11/29/2022 2:45:00 PM 7.31 45.158 0.423 7.85 916.98 6.08
11/29/2022 3:00:00 PM 7.29 45.122 0.423 7.88 913.63 5.37
11/29/2022 3:15:00 PM 7.28 45.104 0.423 7.91 907.55 3.89
11/29/2022 3:30:00 PM 7.25 45.05 0.423 7.9 894.39 3.61
11/29/2022 3:45:00 PM 7.22 44.996 0.424 7.89 877.75 4.19
11/29/2022 4:00:00 PM 7.2 44.96 0.423 7.88 878.43 5.85
11/29/2022 4:15:00 PM 7.17 44.906 0.424 7.89 888.77 6.64
11/29/2022 4:30:00 PM 7.16 44.888 0.423 7.87 838.68 9.53
11/29/2022 4:45:00 PM 7.15 44.87 0.424 7.85 998.74 9.75
11/29/2022 5:00:00 PM 7.1 44.78 0.424 7.87 963.67 8.84
11/29/2022 5:15:00 PM 7.03 44.654 0.425 7.85 877.51 7.15
11/29/2022 5:30:00 PM 6.99 44.582 0.424 7.84 838.97 6.92
11/29/2022 5:45:00 PM 6.94 44.492 0.425 7.82 859.27 6.29
11/29/2022 6:00:00 PM 6.92 44.456 0.425 7.82 798.27 6.78
11/29/2022 6:15:00 PM 6.88 44.384 0.425 7.86 810.38 7.81
11/29/2022 6:30:00 PM 6.89 44.402 0.425 7.87 687.33 6.23
11/29/2022 6:45:00 PM 6.88 44.384 0.426 7.84 858.46 3.59
11/29/2022 7:00:00 PM 6.83 44.294 0.425 7.82 685.48 3.49
11/29/2022 7:15:00 PM 6.85 44.33 0.425 7.8 647.49 2.55
11/29/2022 7:30:00 PM 6.84 44.312 0.425 7.78 593.17 3.48
11/29/2022 7:45:00 PM 6.8 44.24 0.425 7.79 555.99 4.55
11/29/2022 8:00:00 PM 6.81 44.258 0.425 7.73 482.88 2.79
11/29/2022 8:15:00 PM 6.82 44.276 0.426 7.79 469.88 2.68
11/29/2022 8:30:00 PM 6.79 44.222 0.426 7.78 712.74 2.58
11/29/2022 8:45:00 PM 6.79 44.222 0.426 7.79 867.01 9.09
11/29/2022 9:00:00 PM 6.78 44.204 0.426 7.76 1047.52 9.97
11/29/2022 9:15:00 PM 6.78 44.204 0.426 7.73 1230.45 8.89
11/29/2022 9:30:00 PM 6.77 44.186 0.426 7.69 1205.56 10.09
11/29/2022 9:45:00 PM 6.77 44.186 0.426 7.72 1104.48 8.28
11/29/2022 10:00:00 PM 6.76 44.168 0.426 7.72 1113.84 9.66
11/29/2022 10:15:00 PM 6.75 44.15 0.427 7.77 1325.22 7.44
11/29/2022 10:30:00 PM 6.73 44.114 0.427 7.75 1224.09 5
11/29/2022 10:45:00 PM 6.77 44.186 0.427 7.71 2386.89 4.48
11/29/2022 11:00:00 PM 6.76 44.168 0.427 7.71 2373.37 4.32
11/29/2022 11:15:00 PM 6.77 44.186 0.428 7.72 2389.09 2.67
11/29/2022 11:30:00 PM 6.73 44.114 0.428 7.71 2475.68 2.79
11/29/2022 11:45:00 PM 6.74 44.132 0.428 7.73 2030.02 4.97
11/30/2022 12:00:00 AM 6.7 44.06 0.429 7.7 2257.63 4.07
11/30/2022 12:15:00 AM 6.72 44.096 0.429 7.69 2281.69 3.73
11/30/2022 12:30:00 AM 6.7 44.06 0.429 7.68 2321.06 4.88
11/30/2022 12:45:00 AM 6.69 44.042 0.429 7.72 2313.89 6.89
11/30/2022 1:00:00 AM 6.68 44.024 0.429 7.72 2362.7 6.3
11/30/2022 1:15:00 AM 6.66 43.988 0.43 7.73 2515.92 5.84
11/30/2022 1:30:00 AM 6.64 43.952 0.43 7.79 2492.21 4.05
11/30/2022 1:45:00 AM 6.63 43.934 0.43 7.8 2295.5 3.47
11/30/2022 2:00:00 AM 6.64 43.952 0.431 7.73 2284.41 3.36
11/30/2022 2:15:00 AM 6.63 43.934 0.431 7.74 2312.92 3.79
11/30/2022 2:30:00 AM 6.63 43.934 0.431 7.75 2344.31 4.56
11/30/2022 2:45:00 AM 6.63 43.934 0.431 7.71 2329.9 5.44
11/30/2022 3:00:00 AM 6.61 43.898 0.431 7.71 2364.41 4.13
11/30/2022 3:15:00 AM 6.6 43.88 0.431 7.74 2320.61 3.66
11/30/2022 3:30:00 AM 6.58 43.844 0.432 7.71 2402.42 3.58
11/30/2022 3:45:00 AM 6.6 43.88 0.432 7.72 2403.15 4.63
11/30/2022 4:00:00 AM 6.58 43.844 0.432 7.71 2238.85 4.27
11/30/2022 4:15:00 AM 6.61 43.898 0.432 7.7 2303.38 4.42
11/30/2022 4:30:00 AM 6.6 43.88 0.432 7.72 2117.84 3.98
11/30/2022 4:45:00 AM 6.61 43.898 0.432 7.67 2019.14 2.76
11/30/2022 5:00:00 AM 6.62 43.916 0.433 7.7 2039.13 2.75
11/30/2022 5:15:00 AM 6.62 43.916 0.433 7.67 2027.7 4.2
11/30/2022 5:30:00 AM 6.62 43.916 0.433 7.7 2079.12 4.52
11/30/2022 5:45:00 AM 6.61 43.898 0.433 7.71 2079.49 4.19
11/30/2022 6:00:00 AM 6.63 43.934 0.433 7.72 2083.5 4.48
11/30/2022 6:15:00 AM 6.65 43.97 0.433 7.63 2108 4.6
11/30/2022 6:30:00 AM 6.65 43.97 0.433 7.68 2108.85 4.75
11/30/2022 6:45:00 AM 6.66 43.988 0.432 7.7 2112.76 4.57
11/30/2022 7:00:00 AM 6.68 44.024 0.432 7.58 2029.15 5.46
11/30/2022 7:15:00 AM 6.68 44.024 0.43 7.69 2072.88 5.77
11/30/2022 7:30:00 AM 6.69 44.042 0.429 7.68 2116.01 6.11
11/30/2022 7:45:00 AM 6.71 44.078 0.429 7.66 2101.12 4.82
11/30/2022 8:00:00 AM 6.75 44.15 0.428 7.7 2304.64 6.82
11/30/2022 8:15:00 AM 6.76 44.168 0.428 7.69 2171.64 5.23
11/30/2022 8:30:00 AM 6.77 44.186 0.427 7.69 2126.71 5.28
11/30/2022 8:45:00 AM 6.82 44.276 0.411 7.76 2059.51 4.97
11/30/2022 9:00:00 AM 6.85 44.33 0.423 7.73 2050.2 5.73
11/30/2022 9:15:00 AM 6.9 44.42 0.426 7.73 2052.36 6.37
11/30/2022 9:30:00 AM 6.91 44.438 0.425 7.72 2045.16 6.72
11/30/2022 9:45:00 AM 6.98 44.564 0.425 7.69 2073.94 8.16
11/30/2022 10:00:00 AM 7.04 44.672 0.426 7.69 2068.43 8.93
11/30/2022 10:15:00 AM 7.08 44.744 0.425 7.68 2086.78 8.48
11/30/2022 10:30:00 AM 7.12 44.816 0.424 7.7 2082.68 9.07
11/30/2022 10:45:00 AM 7.15 44.87 0.425 7.69 2082.47 7.14
11/30/2022 11:00:00 AM 7.2 44.96 0.425 7.7 2137.23 4.22
11/30/2022 11:15:00 AM 7.23 45.014 0.426 7.73 2193.01 8.6
11/30/2022 11:30:00 AM 7.28 45.104 0.426 7.71 2114.43 3.84
11/30/2022 11:45:00 AM 7.32 45.176 0.426 7.71 2237.95 3.42
11/30/2022 12:00:00 PM 7.37 45.266 0.424 7.77 1752.46 3.61
11/30/2022 12:15:00 PM 7.39 45.302 0.426 7.74 713.02 4.84
11/30/2022 12:30:00 PM 7.41 45.338 0.425 7.76 637.94 6.29
11/30/2022 12:45:00 PM 7.46 45.428 0.424 7.75 621.52 5.21
11/30/2022 1:00:00 PM 7.46 45.428 0.424 7.75 588.36 6.81
11/30/2022 1:15:00 PM 7.52 45.536 0.423 7.73 583.57 7.15
11/30/2022 1:30:00 PM 7.58 45.644 0.423 7.72 578.45 7.4
11/30/2022 1:45:00 PM 7.59 45.662 0.422 7.71 608.61 3.66
11/30/2022 2:00:00 PM 7.63 45.734 0.422 7.75 622.39 3.3
11/30/2022 2:15:00 PM 7.64 45.752 0.421 7.75 750.59 4.45
11/30/2022 2:30:00 PM 7.67 45.806 0.42 7.75 668.11 5.03
11/30/2022 2:45:00 PM 7.68 45.824 0.42 7.74 670.27 6.55
11/30/2022 3:00:00 PM 7.69 45.842 0.419 7.74 662.97 6.1
11/30/2022 3:15:00 PM 7.76 45.968 0.414 7.77 703.46 1.67
11/30/2022 3:30:00 PM 7.81 46.058 0.414 7.75 684.28 1.45
11/30/2022 3:45:00 PM 7.8 46.04 0.415 7.76 691.39 1.85
11/30/2022 4:00:00 PM 7.82 46.076 0.414 7.75 712.99 4.12
11/30/2022 4:15:00 PM 7.78 46.004 0.414 7.76 706.86 3.17
11/30/2022 4:30:00 PM 7.75 45.95 0.414 7.71 711.82 3.08
11/30/2022 4:45:00 PM 7.72 45.896 0.414 7.72 706.21 3.52
11/30/2022 5:00:00 PM 7.71 45.878 0.413 7.74 710.52 3.43
11/30/2022 5:15:00 PM 7.64 45.752 0.413 7.79 733.28 2.31
11/30/2022 5:30:00 PM 7.57 45.626 0.413 7.72 849.83 2.15
11/30/2022 5:45:00 PM 7.51 45.518 0.412 7.71 942.77 1.85
11/30/2022 6:00:00 PM 7.44 45.392 0.408 7.74 959.73 2.2
11/30/2022 6:15:00 PM 7.37 45.266 0.412 7.77 1005.49 1.8
11/30/2022 6:30:00 PM 7.32 45.176 0.411 7.76 1005.15 1.88
11/30/2022 6:45:00 PM 7.27 45.086 0.411 7.74 1003.41 1.7
11/30/2022 7:00:00 PM 7.23 45.014 0.41 7.73 1019.69 1.85
11/30/2022 7:15:00 PM 7.16 44.888 0.409 7.73 1015.71 2.63
11/30/2022 7:30:00 PM 7.11 44.798 0.408 7.73 1023.48 1.63
11/30/2022 7:45:00 PM 7.08 44.744 0.407 7.76 1025.62 1.81
11/30/2022 8:00:00 PM 7.06 44.708 0.407 7.77 1048.47 2.1
11/30/2022 8:15:00 PM 7.04 44.672 0.405 7.75 1060.71 1.46
11/30/2022 8:30:00 PM 7.07 44.726 0.405 7.61 1070.86 2.49
11/30/2022 8:45:00 PM 6.99 44.582 0.404 7.81 1079.24 2.1
11/30/2022 9:00:00 PM 6.95 44.51 0.403 7.82 924.94 2.37
11/30/2022 9:15:00 PM 6.9 44.42 0.402 7.84 647.82 1.52
11/30/2022 9:30:00 PM 6.84 44.312 0.402 7.84 537.96 1.73
11/30/2022 9:45:00 PM 6.77 44.186 0.401 7.84 543.3 6.22
11/30/2022 10:00:00 PM 6.7 44.06 0.4 7.59 486.18 5.78
11/30/2022 10:15:00 PM 6.63 43.934 0.399 7.85 675.23 6.36
11/30/2022 10:30:00 PM 6.54 43.772 0.397 7.84 533.55 9.74
11/30/2022 10:45:00 PM 6.47 43.646 0.397 7.82 654.34 7.79
11/30/2022 11:00:00 PM 6.42 43.556 0.39 7.8 545.56 9.34
11/30/2022 11:15:00 PM 6.34 43.412 0.394 7.84 448.04 6.36
11/30/2022 11:30:00 PM 6.28 43.304 0.394 7.85 517.75 10.36
11/30/2022 11:45:00 PM 6.23 43.214 0.392 7.86 454.65 10.97
12/1/2022 12:00:00 AM 6.18 43.124 0.392 7.86 428.89 7.38
12/1/2022 12:15:00 AM 6.15 43.07 0.39 7.82 520.6 7.11
12/1/2022 12:30:00 AM 6.1 42.98 0.39 7.85 416.31 5.85
12/1/2022 12:45:00 AM 6.06 42.908 0.389 7.83 643.95 8.8
12/1/2022 1:00:00 AM 6.02 42.836 0.387 7.85 644.65 9.88
12/1/2022 1:15:00 AM 6 42.8 0.385 7.77 1187.56 10.7
12/1/2022 1:30:00 AM 5.99 42.782 0.384 7.84 1190.41 8.47
12/1/2022 1:45:00 AM 5.97 42.746 0.385 7.84 1133.74 6.68
12/1/2022 2:00:00 AM 5.95 42.71 0.384 7.78 1161.16 6.2
12/1/2022 2:15:00 AM 5.92 42.656 0.386 7.82 1076.2 3.08
12/1/2022 2:30:00 AM 5.86 42.548 0.381 7.75 793.74 1.77
12/1/2022 2:45:00 AM 5.83 42.494 0.371 7.82 456.58 5.61
12/1/2022 3:00:00 AM 5.81 42.458 0.379 7.82 372.45 10.52
12/1/2022 3:15:00 AM 5.78 42.404 0.378 7.83 439.74 11.21
12/1/2022 3:30:00 AM 5.77 42.386 0.376 7.83 463.03 11.02
12/1/2022 3:45:00 AM 5.74 42.332 0.376 7.83 473.37 11.34
12/1/2022 4:00:00 AM 5.7 42.26 0.374 7.82 487.6 11.24
12/1/2022 4:15:00 AM 5.66 42.188 0.374 7.81 507.06 11.17
12/1/2022 4:30:00 AM 5.62 42.116 0.374 7.81 516.43 11.33
12/1/2022 4:45:00 AM 5.52 41.936 0.373 7.81 534.88 11.53
12/1/2022 5:00:00 AM 5.46 41.828 0.373 7.81 542.02 11.41
12/1/2022 5:15:00 AM 5.4 41.72 0.372 7.81 541.35 11.38
12/1/2022 5:30:00 AM 5.35 41.63 0.372 7.8 531.84 10.77
12/1/2022 5:45:00 AM 5.34 41.612 0.372 7.79 533.35 10.32
12/1/2022 6:00:00 AM 5.33 41.594 0.372 7.79 535.05 10.45
12/1/2022 6:15:00 AM 5.29 41.522 0.372 7.78 714.94 9.66
12/1/2022 6:30:00 AM 5.26 41.468 0.372 7.78 515.04 9.5
12/1/2022 6:45:00 AM 5.22 41.396 0.372 7.77 490.19 8.74
12/1/2022 7:00:00 AM 5.14 41.252 0.372 7.76 479.83 8.65
12/1/2022 7:15:00 AM 5.09 41.162 0.372 7.74 467.71 7.91
12/1/2022 7:30:00 AM 5.08 41.144 0.372 7.75 409.52 8.84
12/1/2022 7:45:00 AM 5.06 41.108 0.372 7.75 358.38 7.83
12/1/2022 8:00:00 AM 5.03 41.054 0.373 7.68 310.68 8.27
12/1/2022 8:15:00 AM 5.01 41.018 0.373 7.74 295.53 6.67
12/1/2022 8:30:00 AM 5.01 41.018 0.373 7.71 282.88 8.54
12/1/2022 8:45:00 AM 5.03 41.054 0.373 7.71 245.68 7
12/1/2022 9:00:00 AM 5.06 41.108 0.373 7.71 239.31 8.38
12/1/2022 9:15:00 AM -99999.99 -179968 -99999.99 -99999.99 -99999.99 -99999.99
12/1/2022 9:30:00 AM -99999.99 -179968 -99999.99 -99999.99 -99999.99 -99999.99
12/1/2022 9:45:00 AM -99999.99 -179968 -99999.99 -99999.99 -99999.99 -99999.99
12/1/2022 10:00:00 AM -99999.99 -179968 -99999.99 -99999.99 -99999.99 -99999.99
12/1/2022 10:15:00 AM -99999.99 -179968 -99999.99 -99999.99 -99999.99 -99999.99
12/1/2022 10:30:00 AM -99999.99 -179968 -99999.99 -99999.99 -99999.99 -99999.99
12/1/2022 10:45:00 AM -99999.99 -179968 -99999.99 -99999.99 -99999.99 -99999.99
12/1/2022 11:00:00 AM 4.99 40.982 0.418 7.66 3.94 12.95
12/1/2022 11:15:00 AM 5.02 41.036 0.414 7.77 4.61 13.03
12/1/2022 11:30:00 AM 5.15 41.27 0.416 7.85 3.5 13.17
12/1/2022 11:45:00 AM 5.26 41.468 0.419 7.9 3.34 13.27
12/1/2022 12:00:00 PM 5.37 41.666 0.41 7.94 3.4 13.37
12/1/2022 12:15:00 PM 5.47 41.846 0.368 7.97 2.92 13.46
12/1/2022 12:30:00 PM 5.56 42.008 0.42 7.99 2.95 13.53
12/1/2022 12:45:00 PM 5.61 42.098 0.303 8.01 2.79 13.59
12/1/2022 1:00:00 PM 5.66 42.188 0.42 8.03 3.19 13.64
12/1/2022 1:15:00 PM 5.68 42.224 0.422 8.03 3.27 13.67
12/1/2022 1:30:00 PM 5.68 42.224 0.423 8.04 3.2 13.69
12/1/2022 1:45:00 PM 5.66 42.188 0.416 8.05 2.95 13.67
12/1/2022 2:00:00 PM 5.65 42.17 0.424 8.06 3.33 13.68
12/1/2022 2:15:00 PM 5.62 42.116 0.422 8.06 3.5 13.67
12/1/2022 2:30:00 PM 5.59 42.062 0.425 8.06 2.79 13.67
12/1/2022 2:45:00 PM 5.56 42.008 0.425 8.06 2.84 13.64
12/1/2022 3:00:00 PM 5.53 41.954 0.415 8.05 2.79 13.6
12/1/2022 3:15:00 PM 5.49 41.882 0.251 8.05 2.95 13.56
12/1/2022 3:30:00 PM 5.47 41.846 0.426 8.04 3.56 13.49
12/1/2022 3:45:00 PM 5.43 41.774 0.427 8.03 2.81 13.43
12/1/2022 4:00:00 PM 5.4 41.72 0.427 8.02 3.59 13.35
12/1/2022 4:15:00 PM 5.38 41.684 0.428 8.01 3.15 13.27
12/1/2022 4:30:00 PM 5.35 41.63 0.428 8 3.12 13.17
12/1/2022 4:45:00 PM 5.32 41.576 0.428 7.99 3.5 13.07
12/1/2022 5:00:00 PM 5.3 41.54 0.428 7.97 3.29 12.96
12/1/2022 5:15:00 PM 5.28 41.504 0.429 7.96 3.24 12.85
12/1/2022 5:30:00 PM 5.25 41.45 0.426 7.95 3.79 12.77
12/1/2022 5:45:00 PM 5.23 41.414 0.429 7.94 3.43 12.69
12/1/2022 6:00:00 PM 5.21 41.378 0.43 7.93 3.32 12.64
12/1/2022 6:15:00 PM 5.18 41.324 0.425 7.92 3.5 12.59
12/1/2022 6:30:00 PM 5.16 41.288 0.43 7.91 3.35 12.56
12/1/2022 6:45:00 PM 5.13 41.234 0.431 7.9 3.47 12.53
12/1/2022 7:00:00 PM 5.1 41.18 0.428 7.9 3.63 12.51
12/1/2022 7:15:00 PM 5.07 41.126 0.43 7.9 3.51 12.49
12/1/2022 7:30:00 PM 5.04 41.072 0.43 7.9 3.61 12.47
12/1/2022 7:45:00 PM 5 41 0.432 7.89 3.84 12.44
12/1/2022 8:00:00 PM 4.97 40.946 0.313 7.89 4.04 12.43
12/1/2022 8:15:00 PM 4.93 40.874 0.427 7.89 4 12.4
12/1/2022 8:30:00 PM 4.9 40.82 0.429 7.88 4.03 12.37
12/1/2022 8:45:00 PM 4.86 40.748 0.432 7.87 3.92 12.34
12/1/2022 9:00:00 PM 4.82 40.676 0.309 7.86 3.55 12.32
12/1/2022 9:15:00 PM 4.78 40.604 0.431 7.87 3.83 12.29
12/1/2022 9:30:00 PM 4.74 40.532 0.434 7.84 3.77 12.27
12/1/2022 9:45:00 PM 4.7 40.46 0.433 7.86 3.84 12.25
12/1/2022 10:00:00 PM 4.66 40.388 0.434 7.86 3.57 12.23
12/1/2022 10:15:00 PM 4.62 40.316 0.434 7.85 3.51 12.22
12/1/2022 10:30:00 PM 4.58 40.244 0.435 7.82 3.69 12.21
12/1/2022 10:45:00 PM 4.54 40.172 0.425 7.85 3.99 12.19
12/1/2022 11:00:00 PM 4.5 40.1 0.435 7.84 3.86 12.19
12/1/2022 11:15:00 PM 4.46 40.028 0.436 7.84 3.52 12.17
12/1/2022 11:30:00 PM 4.41 39.938 0.436 7.83 3.53 12.17
12/1/2022 11:45:00 PM 4.37 39.866 0.436 7.83 5.34 12.16
12/2/2022 12:00:00 AM 4.32 39.776 0.435 7.84 3.7 12.16
12/2/2022 12:15:00 AM 4.27 39.686 0.437 7.83 3.61 12.16
12/2/2022 12:30:00 AM 4.23 39.614 0.437 7.83 3.34 12.16
12/2/2022 12:45:00 AM 4.18 39.524 0.437 7.83 3.27 12.16
12/2/2022 1:00:00 AM 4.13 39.434 0.437 7.82 3.3 12.12
12/2/2022 1:15:00 AM 4.08 39.344 0.438 7.82 3.25 12.17
12/2/2022 1:30:00 AM 4.04 39.272 0.438 7.82 3.79 12.17
12/2/2022 1:45:00 AM 3.99 39.182 0.438 7.82 3.68 12.18
12/2/2022 2:00:00 AM 3.95 39.11 0.437 7.81 3.58 12.19
12/2/2022 2:15:00 AM 3.91 39.038 0.202 7.82 3.79 12.2
12/2/2022 2:30:00 AM 3.87 38.966 0.439 7.81 3.52 12.2
12/2/2022 2:45:00 AM 3.82 38.876 0.439 7.82 3.87 12.21
12/2/2022 3:00:00 AM 3.78 38.804 0.44 7.82 4.25 12.21
12/2/2022 3:15:00 AM 3.74 38.732 0.43 7.81 3.46 12.22
12/2/2022 3:30:00 AM 3.7 38.66 0.44 7.81 4.6 12.23
12/2/2022 3:45:00 AM 3.65 38.57 0.44 7.81 7.83 12.24
12/2/2022 4:00:00 AM 3.61 38.498 0.44 7.8 16.74 12.23
12/2/2022 4:15:00 AM 3.57 38.426 0.441 7.8 4.41 12.26
12/2/2022 4:30:00 AM 3.52 38.336 0.439 7.81 3.41 12.27
12/2/2022 4:45:00 AM 3.48 38.264 0.441 7.8 3.32 12.28
12/2/2022 5:00:00 AM 3.44 38.192 0.418 7.81 3.34 12.3
12/2/2022 5:15:00 AM 3.4 38.12 0.442 7.8 3.55 12.31
12/2/2022 5:30:00 AM 3.35 38.03 0.441 7.8 3.15 12.32
12/2/2022 5:45:00 AM 3.31 37.958 0.441 7.8 3.12 12.34
12/2/2022 6:00:00 AM 3.27 37.886 0.441 7.8 2.73 12.35
12/2/2022 6:15:00 AM 3.23 37.814 0.442 7.8 2.47 12.36
12/2/2022 6:30:00 AM 3.19 37.742 0.441 7.8 2.1 12.38
12/2/2022 6:45:00 AM 3.14 37.652 0.444 7.8 2.3 12.4
12/2/2022 7:00:00 AM 3.1 37.58 0.443 7.8 2.31 12.41
12/2/2022 7:15:00 AM 3.06 37.508 0.443 7.8 2.33 12.43
12/2/2022 7:30:00 AM 3.03 37.454 0.444 7.8 2.18 12.46
12/2/2022 7:45:00 AM 3 37.4 0.445 7.8 2.21 12.52
12/2/2022 8:00:00 AM 2.99 37.382 0.445 7.81 2.13 12.58
12/2/2022 8:15:00 AM 2.98 37.364 0.444 7.82 1.7 12.66
12/2/2022 8:30:00 AM 3 37.4 0.445 7.83 1.61 12.78
12/2/2022 8:45:00 AM 3.02 37.436 0.444 7.83 1.89 12.9
12/2/2022 9:00:00 AM 3.06 37.508 0.444 7.85 1.76 13.03
12/2/2022 9:15:00 AM 3.11 37.598 0.445 7.86 1.65 13.17
12/2/2022 9:30:00 AM 3.2 37.76 0.362 7.77 1.67 13.33
12/2/2022 9:45:00 AM 3.26 37.868 0.446 7.88 2.03 13.46
12/2/2022 10:00:00 AM 3.35 38.03 0.425 7.88 1.81 13.64
12/2/2022 10:15:00 AM 3.48 38.264 0.445 7.91 1.74 13.79
12/2/2022 10:30:00 AM 3.59 38.462 0.445 7.94 1.6 13.91
12/2/2022 10:45:00 AM 3.71 38.678 0.439 7.96 1.27 14.01
12/2/2022 11:00:00 AM 3.82 38.876 0.445 7.98 1.44 14.12
12/2/2022 11:15:00 AM 3.92 39.056 0.446 7.98 1.5 14.19
12/2/2022 11:30:00 AM 4.03 39.254 0.446 8 1.52 14.26
12/2/2022 11:45:00 AM 4.12 39.416 0.396 8.01 1.82 14.32
12/2/2022 12:00:00 PM 4.2 39.56 0.433 7.95 1.3 14.35
12/2/2022 12:15:00 PM 4.27 39.686 0.443 8.04 1.27 14.39
12/2/2022 12:30:00 PM 4.34 39.812 0.442 8.04 1.33 14.42
12/2/2022 12:45:00 PM 4.4 39.92 0.431 8.06 1.18 14.46
12/2/2022 1:00:00 PM 4.46 40.028 0.447 8.06 1.13 14.49
12/2/2022 1:15:00 PM 4.5 40.1 0.445 8.07 1.03 14.52
12/2/2022 1:30:00 PM 4.52 40.136 0.437 8.08 0.96 14.52
12/2/2022 1:45:00 PM 4.53 40.154 0.448 8.07 1.19 14.53
12/2/2022 2:00:00 PM 4.55 40.19 0.443 8.09 1 14.53
12/2/2022 2:15:00 PM 4.53 40.154 0.448 8.09 0.97 14.52
12/2/2022 2:30:00 PM 4.52 40.136 0.445 8.09 1 14.5

These are provisional data and have not been subject to a quality assurance process, but rather are the raw data reported by the instrument.
H: value is above sensor operating range
L: value is below sensor operating range
Offline: station is not reporting data
NC: parameter is not collected at site

Data Availability & Limitations

Uncertainty and potential for error can be associated with environmental monitoring data. Provisional data have not been subject to a quality assurance process, but rather are the raw data reported by the instrument. Data users are cautioned to consider carefully the provisional nature of the information before using it for decisions that concern personal or public safety or the conduct of business that involves substantial monetary or operational consequences.

Approved data are currently available by request by emailing: [email protected]. Approved data have been subject to a quality assurance process to correct for equipment or fouling drift. Data recorded during equipment malfunctions have been removed.

View Historical Stations that have been discontinued.